Provisional Data: Susquehanna River near Danville, PA


Please select a monitoring station.
Please select start date.
Please select start date.

Toggle Unit: C/F Toggle Unit: C/F
Sample Time Temperature (C) Temperature (F) Specific Conductivity (mS/cm) pH   Turbidity (NTU+) DO (mg/L)
4/18/2023 12:00:00 AM 16.42 61.556 0.258 8.3 6.23 9.2
4/18/2023 12:15:00 AM 16.41 61.538 0.258 8.32 6.49 9.23
4/18/2023 12:30:00 AM 16.41 61.538 0.258 8.3 6.06 9.17
4/18/2023 12:45:00 AM 16.4 61.52 0.258 8.3 6.24 9.15
4/18/2023 1:00:00 AM 16.4 61.52 0.259 8.29 6.52 9.04
4/18/2023 1:15:00 AM 16.39 61.502 0.259 8.28 6.11 9.07
4/18/2023 1:30:00 AM 16.39 61.502 0.259 8.25 6.78 8.9
4/18/2023 1:45:00 AM 16.38 61.484 0.259 8.25 6.23 8.91
4/18/2023 2:00:00 AM 16.37 61.466 0.259 8.22 6.42 8.95
4/18/2023 2:15:00 AM 16.37 61.466 0.259 8.25 8.24 8.94
4/18/2023 2:30:00 AM 16.36 61.448 0.259 8.25 6.31 8.95
4/18/2023 2:45:00 AM 16.36 61.448 0.259 8.23 6.14 8.96
4/18/2023 3:00:00 AM 16.35 61.43 0.259 8.23 6.12 8.93
4/18/2023 3:15:00 AM 16.34 61.412 0.259 8.22 6.3 8.89
4/18/2023 3:30:00 AM 16.34 61.412 0.259 8.22 6.48 8.86
4/18/2023 3:45:00 AM 16.33 61.394 0.259 8.22 5.85 8.86
4/18/2023 4:00:00 AM 16.33 61.394 0.259 8.2 6.01 8.89
4/18/2023 4:15:00 AM 16.32 61.376 0.259 8.19 5.92 8.84
4/18/2023 4:30:00 AM 16.31 61.358 0.259 8.18 6.22 8.86
4/18/2023 4:45:00 AM 16.3 61.34 0.259 8.22 6.25 8.91
4/18/2023 5:00:00 AM 16.3 61.34 0.259 8.2 5.91 8.85
4/18/2023 5:15:00 AM 16.3 61.34 0.259 8.18 6.02 8.83
4/18/2023 5:30:00 AM 16.29 61.322 0.259 8.17 6.1 8.83
4/18/2023 5:45:00 AM 16.29 61.322 0.259 8.19 5.91 8.81
4/18/2023 6:00:00 AM 16.28 61.304 0.259 8.2 5.93 8.76
4/18/2023 6:15:00 AM 16.28 61.304 0.259 8.18 5.83 8.75
4/18/2023 6:30:00 AM 16.27 61.286 0.259 8.17 5.92 8.72
4/18/2023 6:45:00 AM 16.27 61.286 0.259 8.18 5.73 8.69
4/18/2023 7:00:00 AM 16.28 61.304 0.259 8.14 6.04 8.37
4/18/2023 7:15:00 AM 15.83 60.494 0.261 8.09 7.54 8.72
4/18/2023 7:30:00 AM 15.35 59.63 0.266 8.21 8.59 8.79
4/18/2023 7:45:00 AM 15.1 59.18 0.269 8.26 8.74 8.87
4/18/2023 8:00:00 AM 14.99 58.982 0.27 8.32 8.6 8.89
4/18/2023 8:15:00 AM 14.93 58.874 0.271 8.33 9.06 8.89
4/18/2023 8:30:00 AM 14.89 58.802 0.272 8.34 9.25 8.9
4/18/2023 8:45:00 AM 14.86 58.748 0.272 8.34 9.65 8.9
4/18/2023 9:00:00 AM 14.84 58.712 0.272 8.33 9.03 8.89
4/18/2023 9:15:00 AM 14.81 58.658 0.272 8.34 9.51 8.91
4/18/2023 9:30:00 AM 14.79 58.622 0.272 8.34 8.18 8.93
4/18/2023 9:45:00 AM 14.76 58.568 0.273 8.35 9.25 8.94
4/18/2023 10:00:00 AM 14.73 58.514 0.273 8.35 8.8 8.95
4/18/2023 10:15:00 AM 14.72 58.496 0.273 8.36 8.32 8.98
4/18/2023 10:30:00 AM 14.69 58.442 0.273 8.36 8.17 9.03
4/18/2023 10:45:00 AM 14.67 58.406 0.273 8.37 7.89 9.03
4/18/2023 11:00:00 AM 14.65 58.37 0.273 8.38 8.37 9.13
4/18/2023 11:15:00 AM 14.63 58.334 0.273 8.4 8.96 9.18
4/18/2023 11:30:00 AM 14.61 58.298 0.273 8.41 8.78 9.23
4/18/2023 11:45:00 AM 14.59 58.262 0.273 8.42 8.96 9.27
4/18/2023 12:00:00 PM 14.58 58.244 0.274 8.43 9.25 9.29
4/18/2023 12:15:00 PM 14.57 58.226 0.274 8.43 9.24 9.34
4/18/2023 12:30:00 PM 14.57 58.226 0.274 8.45 9.44 9.38
4/18/2023 12:45:00 PM 14.55 58.19 0.274 8.43 8.77 9.41
4/18/2023 1:00:00 PM 14.52 58.136 0.274 8.47 10.07 9.44
4/18/2023 1:15:00 PM 14.48 58.064 0.274 8.48 11.62 9.5
4/18/2023 1:30:00 PM 14.44 57.992 0.274 8.47 8.23 9.5
4/18/2023 1:45:00 PM 14.41 57.938 0.273 8.49 8.92 9.59
4/18/2023 2:00:00 PM 14.39 57.902 0.273 8.53 9.84 9.64
4/18/2023 2:15:00 PM 14.39 57.902 0.273 8.54 8.76 9.69
4/18/2023 2:30:00 PM 14.36 57.848 0.273 8.57 8.97 9.74
4/18/2023 2:45:00 PM 14.33 57.794 0.273 8.58 9.13 9.81
4/18/2023 3:00:00 PM 14.31 57.758 0.273 8.59 10.5 9.84
4/18/2023 3:15:00 PM 14.31 57.758 0.273 8.56 7.33 9.77
4/18/2023 3:30:00 PM 14.31 57.758 0.273 8.5 7.58 9.74
4/18/2023 3:45:00 PM 14.31 57.758 0.273 8.55 7.57 9.74
4/18/2023 4:00:00 PM 14.31 57.758 0.273 8.55 7.33 9.7
4/18/2023 4:15:00 PM 14.31 57.758 0.273 8.53 7.31 9.62
4/18/2023 4:30:00 PM 14.31 57.758 0.273 8.46 6.57 9.58
4/18/2023 4:45:00 PM 14.31 57.758 0.273 8.5 6.79 9.54
4/18/2023 5:00:00 PM 14.31 57.758 0.273 8.49 6.32 9.51
4/18/2023 5:15:00 PM 14.31 57.758 0.273 8.47 6.24 9.5
4/18/2023 5:30:00 PM 14.31 57.758 0.273 8.45 6.23 9.47
4/18/2023 5:45:00 PM 14.31 57.758 0.274 8.45 6.56 9.41
4/18/2023 6:00:00 PM 14.31 57.758 0.273 8.42 5.66 9.42
4/18/2023 6:15:00 PM 14.32 57.776 0.274 8.4 6.28 9.4
4/18/2023 6:30:00 PM 14.32 57.776 0.274 8.44 6.02 9.31
4/18/2023 6:45:00 PM 14.32 57.776 0.274 8.42 6.02 9.26
4/18/2023 7:00:00 PM 14.32 57.776 0.274 8.41 6.47 9.1
4/18/2023 7:15:00 PM 14.33 57.794 0.274 8.41 9.31 9.03
4/18/2023 7:30:00 PM 14.33 57.794 0.274 8.39 7.05 9.02
4/18/2023 7:45:00 PM 14.33 57.794 0.274 8.38 8.27 8.95
4/18/2023 8:00:00 PM 14.33 57.794 0.274 8.4 7.04 9.17
4/18/2023 8:15:00 PM 14.33 57.794 0.274 8.39 6.72 9.18
4/18/2023 8:30:00 PM 14.33 57.794 0.274 8.38 6.28 9.11
4/18/2023 8:45:00 PM 14.33 57.794 0.274 8.35 6.15 9.11
4/18/2023 9:00:00 PM 14.33 57.794 0.274 8.39 6.15 9.11
4/18/2023 9:15:00 PM 14.33 57.794 0.274 8.38 5.9 9.11
4/18/2023 9:30:00 PM 14.33 57.794 0.274 8.35 6.3 9.01
4/18/2023 9:45:00 PM 14.33 57.794 0.274 8.35 6.08 9.03
4/18/2023 10:00:00 PM 14.33 57.794 0.274 8.31 6.08 9.05
4/18/2023 10:15:00 PM 14.33 57.794 0.274 8.33 6.24 9.03
4/18/2023 10:30:00 PM 14.33 57.794 0.274 8.35 6.06 9.1
4/18/2023 10:45:00 PM 14.33 57.794 0.274 8.34 6.08 9.02
4/18/2023 11:00:00 PM 14.33 57.794 0.274 8.34 5.95 8.99
4/18/2023 11:15:00 PM 14.33 57.794 0.274 8.34 6.44 8.99
4/18/2023 11:30:00 PM 14.33 57.794 0.274 8.32 6.18 8.95
4/18/2023 11:45:00 PM 14.33 57.794 0.275 8.32 6.3 8.92
4/19/2023 12:00:00 AM 14.33 57.794 0.275 8.29 6.28 8.81
4/19/2023 12:15:00 AM 14.33 57.794 0.275 8.31 6.27 8.91
4/19/2023 12:30:00 AM 14.33 57.794 0.274 8.29 6.02 8.86
4/19/2023 12:45:00 AM 14.32 57.776 0.274 8.29 6.24 8.91
4/19/2023 1:00:00 AM 14.32 57.776 0.274 8.29 6.09 8.97
4/19/2023 1:15:00 AM 14.32 57.776 0.274 8.28 6.14 8.93
4/19/2023 1:30:00 AM 14.32 57.776 0.274 8.3 6.06 8.93
4/19/2023 1:45:00 AM 14.32 57.776 0.274 8.29 6.18 8.98
4/19/2023 2:00:00 AM 14.32 57.776 0.274 8.28 6.22 9.01
4/19/2023 2:15:00 AM 14.32 57.776 0.274 8.27 6.13 8.88
4/19/2023 2:30:00 AM 14.32 57.776 0.275 8.24 5.98 8.84
4/19/2023 2:45:00 AM 14.31 57.758 0.275 8.27 5.99 8.81
4/19/2023 3:00:00 AM 14.31 57.758 0.275 8.22 5.97 8.78
4/19/2023 3:15:00 AM 14.31 57.758 0.275 8.23 6.08 8.79
4/19/2023 3:30:00 AM 14.31 57.758 0.275 8.26 5.92 8.7
4/19/2023 3:45:00 AM 14.31 57.758 0.275 8.22 5.96 8.61
4/19/2023 4:00:00 AM 14.31 57.758 0.275 8.22 5.83 8.66
4/19/2023 4:15:00 AM 14.31 57.758 0.275 8.22 5.82 8.54
4/19/2023 4:30:00 AM 14.31 57.758 0.275 8.22 6.25 8.54
4/19/2023 4:45:00 AM 14.31 57.758 0.275 8.23 5.82 8.51
4/19/2023 5:00:00 AM 14.3 57.74 0.275 8.2 5.8 8.6
4/19/2023 5:15:00 AM 14.3 57.74 0.275 8.22 6.1 8.57
4/19/2023 5:30:00 AM 14.31 57.758 0.275 8.21 6.02 8.52
4/19/2023 5:45:00 AM 14.3 57.74 0.274 8.24 6.87 8.79
4/19/2023 6:00:00 AM 14.3 57.74 0.274 8.24 6.88 8.65
4/19/2023 6:15:00 AM 14.3 57.74 0.275 8.2 5.99 8.66
4/19/2023 6:30:00 AM 14.29 57.722 0.275 8.23 5.92 8.67
4/19/2023 6:45:00 AM 14.29 57.722 0.275 8.22 5.87 8.61
4/19/2023 7:00:00 AM 14.29 57.722 0.275 8.21 5.86 8.58
4/19/2023 7:15:00 AM 14.29 57.722 0.274 8.21 6.48 8.65
4/19/2023 7:30:00 AM 13.88 56.984 0.275 8.15 7.96 8.86
4/19/2023 7:45:00 AM 13.43 56.174 0.275 8.28 9.99 9.09
4/19/2023 8:00:00 AM 13.18 55.724 0.275 8.35 8.93 9.28
4/19/2023 8:15:00 AM 13.08 55.544 0.275 8.37 8.89 9.35
4/19/2023 8:30:00 AM 13.04 55.472 0.275 8.38 9.58 9.41
4/19/2023 8:45:00 AM 13.02 55.436 0.276 8.4 9.23 9.45
4/19/2023 9:00:00 AM 13.02 55.436 0.276 8.38 9.69 9.46
4/19/2023 9:15:00 AM 13.02 55.436 0.276 8.43 10.72 9.55
4/19/2023 9:30:00 AM 13.03 55.454 0.277 8.44 10.36 9.63
4/19/2023 9:45:00 AM 13.04 55.472 0.277 8.47 11.26 9.68
4/19/2023 10:00:00 AM 13.06 55.508 0.277 8.47 10.51 9.75
4/19/2023 10:15:00 AM 13.1 55.58 0.277 8.49 10.35 9.79
4/19/2023 10:30:00 AM 13.15 55.67 0.278 8.52 10.2 9.86
4/19/2023 10:45:00 AM 13.19 55.742 0.278 8.53 9.43 9.94
4/19/2023 11:00:00 AM 13.25 55.85 0.278 8.57 11 10.01
4/19/2023 11:15:00 AM 13.31 55.958 0.278 8.56 10.8 10.05
4/19/2023 11:30:00 AM 13.36 56.048 0.279 8.61 9.33 10.12
4/19/2023 11:45:00 AM 13.43 56.174 0.279 8.61 10.81 10.17
4/19/2023 12:00:00 PM 13.49 56.282 0.279 8.63 10.84 10.23
4/19/2023 12:15:00 PM 13.54 56.372 0.279 8.65 9.94 10.25
4/19/2023 12:30:00 PM 13.62 56.516 0.279 8.66 10.92 10.31
4/19/2023 12:45:00 PM 13.71 56.678 0.28 8.67 9.95 10.37
4/19/2023 1:00:00 PM 13.78 56.804 0.28 8.69 10.61 10.39
4/19/2023 1:15:00 PM 13.85 56.93 0.28 8.71 10.5 10.44
4/19/2023 1:30:00 PM 13.89 57.002 0.28 8.72 8.76 10.46
4/19/2023 1:45:00 PM 13.92 57.056 0.28 8.72 9.68 10.45
4/19/2023 2:00:00 PM 13.98 57.164 0.28 8.73 10.4 10.49
4/19/2023 2:15:00 PM 14.04 57.272 0.281 8.75 10.34 10.52
4/19/2023 2:30:00 PM 14.11 57.398 0.281 8.75 9.05 10.57
4/19/2023 2:45:00 PM 14.22 57.596 0.281 8.78 10.33 10.66
4/19/2023 3:00:00 PM 14.35 57.83 0.281 8.81 10.65 10.76
4/19/2023 3:15:00 PM 14.4 57.92 0.281 8.82 8.83 10.76
4/19/2023 3:30:00 PM 14.38 57.884 0.28 8.68 6.88 10.34
4/19/2023 3:45:00 PM 14.39 57.902 0.281 8.75 6.92 10.56
4/19/2023 4:00:00 PM 14.4 57.92 0.281 8.74 7 10.6
4/19/2023 4:15:00 PM 14.4 57.92 0.282 8.71 6.93 10.61
4/19/2023 4:30:00 PM 14.4 57.92 0.282 8.74 7.86 10.57
4/19/2023 4:45:00 PM 14.39 57.902 0.282 8.74 7.1 10.58
4/19/2023 5:00:00 PM 14.39 57.902 0.282 8.74 7.63 10.56
4/19/2023 5:15:00 PM 14.39 57.902 0.282 8.72 6.7 10.53
4/19/2023 5:30:00 PM 14.38 57.884 0.282 8.67 6.96 10.51
4/19/2023 5:45:00 PM 14.38 57.884 0.282 8.71 6.59 10.49
4/19/2023 6:00:00 PM 14.37 57.866 0.282 8.7 7 10.47
4/19/2023 6:15:00 PM 14.37 57.866 0.282 8.71 6.7 10.42
4/19/2023 6:30:00 PM 14.37 57.866 0.282 8.7 7.28 10.35
4/19/2023 6:45:00 PM 14.36 57.848 0.282 8.67 6.97 10.36
4/19/2023 7:00:00 PM 14.36 57.848 0.282 8.67 6.51 10.38
4/19/2023 7:15:00 PM 14.36 57.848 0.282 8.64 6.75 10.31
4/19/2023 7:30:00 PM 14.35 57.83 0.282 8.65 6.24 10.29
4/19/2023 7:45:00 PM 14.35 57.83 0.282 8.66 6.22 10.24
4/19/2023 8:00:00 PM 14.34 57.812 0.282 8.63 6.2 10.22
4/19/2023 8:15:00 PM 14.34 57.812 0.282 8.63 6.23 10.2
4/19/2023 8:30:00 PM 14.34 57.812 0.282 8.63 6.17 10.18
4/19/2023 8:45:00 PM 14.34 57.812 0.282 8.59 6.12 10.12
4/19/2023 9:00:00 PM 14.33 57.794 0.282 8.61 5.78 10.06
4/19/2023 9:15:00 PM 14.33 57.794 0.282 8.6 6.06 10.1
4/19/2023 9:30:00 PM 14.33 57.794 0.282 8.56 6.14 10.07
4/19/2023 9:45:00 PM 14.32 57.776 0.282 8.59 5.85 10.04
4/19/2023 10:00:00 PM 14.32 57.776 0.282 8.59 6.02 10.07
4/19/2023 10:15:00 PM 14.32 57.776 0.282 8.59 5.92 10.01
4/19/2023 10:30:00 PM 14.32 57.776 0.282 8.59 5.95 10.03
4/19/2023 10:45:00 PM 14.32 57.776 0.282 8.56 5.72 9.98
4/19/2023 11:00:00 PM 14.31 57.758 0.283 8.57 6 9.94
4/19/2023 11:15:00 PM 14.31 57.758 0.283 8.56 5.75 9.87
4/19/2023 11:30:00 PM 14.31 57.758 0.282 8.54 6.1 9.87
4/19/2023 11:45:00 PM 14.31 57.758 0.282 8.53 6.19 9.88
4/20/2023 12:00:00 AM 14.3 57.74 0.283 8.52 5.72 9.84
4/20/2023 12:15:00 AM 14.3 57.74 0.283 8.54 5.7 9.83
4/20/2023 12:30:00 AM 14.3 57.74 0.283 8.53 5.74 9.78
4/20/2023 12:45:00 AM 14.3 57.74 0.283 8.52 5.67 9.74
4/20/2023 1:00:00 AM 14.29 57.722 0.283 8.52 5.69 9.76
4/20/2023 1:15:00 AM 14.29 57.722 0.283 8.51 5.98 9.73
4/20/2023 1:30:00 AM 14.29 57.722 0.283 8.52 5.92 9.81
4/20/2023 1:45:00 AM 14.28 57.704 0.283 8.53 5.69 9.76
4/20/2023 2:00:00 AM 14.28 57.704 0.283 8.51 5.67 9.71
4/20/2023 2:15:00 AM 14.28 57.704 0.283 8.49 5.69 9.68
4/20/2023 2:30:00 AM 14.28 57.704 0.283 8.49 5.69 9.66
4/20/2023 2:45:00 AM 14.28 57.704 0.283 8.47 5.68 9.65
4/20/2023 3:00:00 AM 14.27 57.686 0.283 8.48 5.61 9.61
4/20/2023 3:15:00 AM 14.27 57.686 0.283 8.47 5.53 9.59
4/20/2023 3:30:00 AM 14.27 57.686 0.283 8.5 5.68 9.61
4/20/2023 3:45:00 AM 14.26 57.668 0.283 8.47 5.67 9.59
4/20/2023 4:00:00 AM 14.26 57.668 0.283 8.47 5.86 9.56
4/20/2023 4:15:00 AM 14.26 57.668 0.283 8.47 5.61 9.59
4/20/2023 4:30:00 AM 14.26 57.668 0.283 8.47 5.58 9.54
4/20/2023 4:45:00 AM 14.26 57.668 0.283 8.45 5.66 9.52
4/20/2023 5:00:00 AM 14.25 57.65 0.283 8.44 5.6 9.51
4/20/2023 5:15:00 AM 14.25 57.65 0.283 8.45 5.81 9.49
4/20/2023 5:30:00 AM 14.24 57.632 0.283 8.44 5.81 9.55
4/20/2023 5:45:00 AM 14.24 57.632 0.283 8.48 6.43 9.69
4/20/2023 6:00:00 AM 14.24 57.632 0.283 8.45 5.7 9.58
4/20/2023 6:15:00 AM 14.24 57.632 0.283 8.46 5.77 9.56
4/20/2023 6:30:00 AM 14.24 57.632 0.283 8.44 5.63 9.45
4/20/2023 6:45:00 AM 14.23 57.614 0.283 8.42 5.53 9.44
4/20/2023 7:00:00 AM 14.23 57.614 0.283 8.42 5.88 9.37
4/20/2023 7:15:00 AM 14.08 57.344 0.283 8.33 7.68 9.56
4/20/2023 7:30:00 AM 14 57.2 0.281 8.41 8.68 9.68
4/20/2023 7:45:00 AM 13.99 57.182 0.279 8.47 10.8 9.73
4/20/2023 8:00:00 AM 13.98 57.164 0.278 8.49 9.3 9.72
4/20/2023 8:15:00 AM 13.96 57.128 0.278 8.51 8.93 9.75
4/20/2023 8:30:00 AM 13.95 57.11 0.278 8.52 9.27 9.8
4/20/2023 8:45:00 AM 13.94 57.092 0.279 8.54 8.3 9.83
4/20/2023 9:00:00 AM 13.94 57.092 0.279 8.55 8.59 9.88
4/20/2023 9:15:00 AM 13.94 57.092 0.279 8.56 8.95 9.93
4/20/2023 9:30:00 AM 13.95 57.11 0.279 8.58 8.51 10
4/20/2023 9:45:00 AM 13.95 57.11 0.28 8.59 9.05 10.03
4/20/2023 10:00:00 AM 13.96 57.128 0.28 8.61 9.39 10.07
4/20/2023 10:15:00 AM 13.98 57.164 0.28 8.61 8.95 10.12
4/20/2023 10:30:00 AM 14 57.2 0.28 8.62 8.22 10.15
4/20/2023 10:45:00 AM 14.03 57.254 0.281 8.65 8.1 10.2
4/20/2023 11:00:00 AM 14.08 57.344 0.281 8.67 7.86 10.25
4/20/2023 11:15:00 AM 14.15 57.47 0.281 8.68 8.13 10.32
4/20/2023 11:30:00 AM 14.22 57.596 0.282 8.69 9.68 10.36
4/20/2023 11:45:00 AM 14.3 57.74 0.282 8.71 8.81 10.42
4/20/2023 12:00:00 PM 14.37 57.866 0.283 8.71 8.68 10.46
4/20/2023 12:15:00 PM 14.44 57.992 0.283 8.71 8.41 10.42
4/20/2023 12:30:00 PM 14.52 58.136 0.283 8.74 8.46 10.51
4/20/2023 12:45:00 PM 14.59 58.262 0.284 8.74 8.76 10.58
4/20/2023 1:00:00 PM 14.65 58.37 0.284 8.76 7.91 10.58
4/20/2023 1:15:00 PM 14.71 58.478 0.284 8.77 8.95 10.64
4/20/2023 1:30:00 PM 14.77 58.586 0.284 8.78 7.87 10.67
4/20/2023 1:45:00 PM 14.85 58.73 0.285 8.8 8.85 10.76
4/20/2023 2:00:00 PM 14.93 58.874 0.285 8.82 8.37 10.8
4/20/2023 2:15:00 PM 15 59 0.285 8.82 8.11 10.82
4/20/2023 2:30:00 PM 15.08 59.144 0.286 8.84 8.51 10.9
4/20/2023 2:45:00 PM 15.13 59.234 0.286 8.85 8.42 10.87
4/20/2023 3:00:00 PM 15.2 59.36 0.286 8.87 7.72 10.94
4/20/2023 3:15:00 PM 15.26 59.468 0.286 8.88 7.96 11.05
4/20/2023 3:30:00 PM 15.28 59.504 0.287 8.87 8.05 11.03
4/20/2023 3:45:00 PM 15.28 59.504 0.287 8.84 6.65 10.98
4/20/2023 4:00:00 PM 15.27 59.486 0.287 8.77 7.31 10.95
4/20/2023 4:15:00 PM 15.27 59.486 0.287 8.84 7.73 10.93
4/20/2023 4:30:00 PM 15.26 59.468 0.287 8.81 7.35 10.92
4/20/2023 4:45:00 PM 15.26 59.468 0.287 8.8 6.79 10.89
4/20/2023 5:00:00 PM 15.25 59.45 0.287 8.8 7.18 10.9
4/20/2023 5:15:00 PM 15.24 59.432 0.287 8.82 6.2 10.88
4/20/2023 5:30:00 PM 15.24 59.432 0.287 8.79 6.1 10.8
4/20/2023 5:45:00 PM 15.23 59.414 0.287 8.72 7.26 10.78
4/20/2023 6:00:00 PM 15.22 59.396 0.287 8.79 5.69 10.79
4/20/2023 6:15:00 PM 15.22 59.396 0.287 8.78 6.32 10.76
4/20/2023 6:30:00 PM 15.21 59.378 0.287 8.79 6.08 10.75
4/20/2023 6:45:00 PM 15.21 59.378 0.287 8.78 6.36 10.71
4/20/2023 7:00:00 PM 15.2 59.36 0.287 8.73 6.89 10.65
4/20/2023 7:15:00 PM 15.2 59.36 0.287 8.73 6 10.62
4/20/2023 7:30:00 PM 15.19 59.342 0.287 8.65 5.71 10.61
4/20/2023 7:45:00 PM 15.18 59.324 0.287 8.73 5.77 10.56
4/20/2023 8:00:00 PM 15.18 59.324 0.287 8.74 6.48 10.58
4/20/2023 8:15:00 PM 15.17 59.306 0.287 8.66 5.93 10.58
4/20/2023 8:30:00 PM 15.17 59.306 0.287 8.69 5.73 10.5
4/20/2023 8:45:00 PM 15.16 59.288 0.287 8.71 6.05 10.53
4/20/2023 9:00:00 PM 15.16 59.288 0.288 8.66 5.71 10.44
4/20/2023 9:15:00 PM 15.15 59.27 0.287 8.71 6.11 10.5
4/20/2023 9:30:00 PM 15.15 59.27 0.288 8.67 5.87 10.35
4/20/2023 9:45:00 PM 15.14 59.252 0.288 8.67 5.58 10.36
4/20/2023 10:00:00 PM 15.14 59.252 0.288 8.7 5.68 10.38
4/20/2023 10:15:00 PM 15.13 59.234 0.288 8.69 5.68 10.38
4/20/2023 10:30:00 PM 15.13 59.234 0.288 8.69 5.84 10.36
4/20/2023 10:45:00 PM 15.13 59.234 0.288 8.68 6.1 10.35
4/20/2023 11:00:00 PM 15.12 59.216 0.288 8.62 5.73 10.29
4/20/2023 11:15:00 PM 15.12 59.216 0.288 8.6 5.72 10.33
4/20/2023 11:30:00 PM 15.11 59.198 0.288 8.67 5.55 10.29
4/20/2023 11:45:00 PM 15.11 59.198 0.288 8.66 5.7 10.29
4/21/2023 12:00:00 AM 15.1 59.18 0.288 8.65 5.79 10.2
4/21/2023 12:15:00 AM 15.1 59.18 0.288 8.66 6.36 10.29
4/21/2023 12:30:00 AM 15.09 59.162 0.288 8.64 5.52 10.19
4/21/2023 12:45:00 AM 15.09 59.162 0.288 8.62 5.7 10.13
4/21/2023 1:00:00 AM 15.08 59.144 0.288 8.63 5.57 10.17
4/21/2023 1:15:00 AM 15.08 59.144 0.288 8.59 5.7 10.18
4/21/2023 1:30:00 AM 15.08 59.144 0.288 8.56 5.47 10.12
4/21/2023 1:45:00 AM 15.07 59.126 0.288 8.62 5.52 10.15
4/21/2023 2:00:00 AM 15.07 59.126 0.288 8.61 5.7 10.18
4/21/2023 2:15:00 AM 15.07 59.126 0.288 8.6 5.75 10.1
4/21/2023 2:30:00 AM 15.06 59.108 0.288 8.55 5.58 10.12
4/21/2023 2:45:00 AM 15.06 59.108 0.288 8.58 5.39 10.06
4/21/2023 3:00:00 AM 15.05 59.09 0.288 8.58 5.5 10.03
4/21/2023 3:15:00 AM 15.05 59.09 0.288 8.58 5.56 10
4/21/2023 3:30:00 AM 15.04 59.072 0.288 8.54 5.36 9.91
4/21/2023 3:45:00 AM 15.04 59.072 0.288 8.55 5.23 9.87
4/21/2023 4:00:00 AM 15.03 59.054 0.288 8.55 5.43 9.91
4/21/2023 4:15:00 AM 15.03 59.054 0.288 8.54 5.37 9.99
4/21/2023 4:30:00 AM 15.02 59.036 0.288 8.52 5.5 9.94
4/21/2023 4:45:00 AM 15.02 59.036 0.288 8.54 5.31 9.87
4/21/2023 5:00:00 AM 15.03 59.054 0.288 8.5 5.33 9.54
4/21/2023 5:15:00 AM 14.97 58.946 0.287 8.5 7.67 9.95
4/21/2023 5:30:00 AM 15.32 59.576 0.283 8.61 7.6 10.06
4/21/2023 5:45:00 AM 15.5 59.9 0.281 8.65 8 10.09
4/21/2023 6:00:00 AM 15.55 59.99 0.28 8.65 8.13 10.08
4/21/2023 6:15:00 AM 15.55 59.99 0.28 8.66 8.31 10.04
4/21/2023 6:30:00 AM 15.54 59.972 0.279 8.65 8.86 10
4/21/2023 6:45:00 AM 15.51 59.918 0.279 8.63 7.59 9.97
4/21/2023 7:00:00 AM 15.47 59.846 0.279 8.63 8.69 9.96
4/21/2023 7:15:00 AM 15.44 59.792 0.278 8.61 7.95 9.91
4/21/2023 7:30:00 AM 15.41 59.738 0.278 8.61 7.92 9.91
4/21/2023 7:45:00 AM 15.38 59.684 0.278 8.61 9.05 9.91
4/21/2023 8:00:00 AM 15.36 59.648 0.278 8.61 8.52 9.91
4/21/2023 8:15:00 AM 15.34 59.612 0.277 8.61 9.15 9.97
4/21/2023 8:30:00 AM 15.33 59.594 0.277 8.64 8.41 10.02
4/21/2023 8:45:00 AM 15.33 59.594 0.276 8.65 8.53 10.05
4/21/2023 9:00:00 AM 15.34 59.612 0.276 8.67 7.7 10.1
4/21/2023 9:15:00 AM 15.35 59.63 0.276 8.68 8.55 10.13
4/21/2023 9:30:00 AM 15.36 59.648 0.276 8.7 8.39 10.22
4/21/2023 9:45:00 AM 15.37 59.666 0.275 8.72 8.83 10.32
4/21/2023 10:00:00 AM 15.39 59.702 0.275 8.74 8.8 10.34
4/21/2023 10:15:00 AM 15.41 59.738 0.275 8.75 8.62 10.41
4/21/2023 10:30:00 AM 15.42 59.756 0.275 8.75 7.85 10.41
4/21/2023 10:45:00 AM 15.44 59.792 0.275 8.75 7.94 10.45
4/21/2023 11:00:00 AM 15.46 59.828 0.275 8.75 8.15 10.41
4/21/2023 11:15:00 AM 15.47 59.846 0.275 8.73 7.05 10.35
4/21/2023 11:30:00 AM 15.48 59.864 0.275 8.73 6.95 10.36
4/21/2023 11:45:00 AM 15.5 59.9 0.275 8.77 6.65 10.35
4/21/2023 12:00:00 PM 15.53 59.954 0.274 8.75 6.96 10.43
4/21/2023 12:15:00 PM 15.57 60.026 0.274 8.8 7.13 10.51
4/21/2023 12:30:00 PM 15.62 60.116 0.274 8.79 7.46 10.6
4/21/2023 12:45:00 PM 15.67 60.206 0.274 8.8 6.88 10.6
4/21/2023 1:00:00 PM 15.74 60.332 0.273 8.81 6.94 10.72
4/21/2023 1:15:00 PM 15.79 60.422 0.273 8.82 7.51 10.6
4/21/2023 1:30:00 PM 15.87 60.566 0.273 8.86 7.67 10.8
4/21/2023 1:45:00 PM 15.94 60.692 0.273 8.87 7.21 10.89
4/21/2023 2:00:00 PM 16.01 60.818 0.273 8.88 7.83 10.88
4/21/2023 2:15:00 PM 16.09 60.962 0.272 8.9 7.36 11.03
4/21/2023 2:30:00 PM 16.2 61.16 0.272 8.92 7.53 11.09
4/21/2023 2:45:00 PM 16.27 61.286 0.272 8.93 6.76 11.11
4/21/2023 3:00:00 PM 16.36 61.448 0.272 8.95 7.26 11.25
4/21/2023 3:15:00 PM 16.39 61.502 0.272 8.93 6.88 11.17
4/21/2023 3:30:00 PM 16.39 61.502 0.272 8.86 6.41 10.95
4/21/2023 3:45:00 PM 16.4 61.52 0.273 8.82 6.05 10.91
4/21/2023 4:00:00 PM 16.4 61.52 0.273 8.8 6.11 10.96
4/21/2023 4:15:00 PM 16.4 61.52 0.273 8.86 6.86 10.94
4/21/2023 4:30:00 PM 16.4 61.52 0.272 8.84 6.76 11.06
4/21/2023 4:45:00 PM 16.39 61.502 0.272 8.86 7.01 11.18
4/21/2023 5:00:00 PM 16.38 61.484 0.272 8.86 6.84 11.15
4/21/2023 5:15:00 PM 16.38 61.484 0.272 8.86 7.2 11.09
4/21/2023 5:30:00 PM 16.37 61.466 0.272 8.84 6.94 11.08
4/21/2023 5:45:00 PM 16.36 61.448 0.272 8.88 6.51 11.08
4/21/2023 6:00:00 PM 16.35 61.43 0.272 8.83 6.41 11.03
4/21/2023 6:15:00 PM 16.34 61.412 0.272 8.84 6.68 10.99
4/21/2023 6:30:00 PM 16.33 61.394 0.272 8.84 6.16 10.95
4/21/2023 6:45:00 PM 16.33 61.394 0.272 8.86 6.39 10.99
4/21/2023 7:00:00 PM 16.32 61.376 0.272 8.82 6.66 10.89
4/21/2023 7:15:00 PM 16.31 61.358 0.272 8.82 6.12 10.86
4/21/2023 7:30:00 PM 16.3 61.34 0.272 8.8 6.51 10.79
4/21/2023 7:45:00 PM 16.29 61.322 0.272 8.77 5.89 10.78
4/21/2023 8:00:00 PM 16.29 61.322 0.272 8.79 6.08 10.75
4/21/2023 8:15:00 PM 16.28 61.304 0.272 8.81 6.15 10.75
4/21/2023 8:30:00 PM 16.28 61.304 0.272 8.75 6.04 10.66
4/21/2023 8:45:00 PM 16.27 61.286 0.273 8.78 5.86 10.69
4/21/2023 9:00:00 PM 16.26 61.268 0.273 8.78 5.82 10.64
4/21/2023 9:15:00 PM 16.25 61.25 0.272 8.72 5.86 10.66
4/21/2023 9:30:00 PM 16.25 61.25 0.272 8.76 6.05 10.65
4/21/2023 9:45:00 PM 16.24 61.232 0.272 8.77 5.9 10.66
4/21/2023 10:00:00 PM 16.24 61.232 0.273 8.75 5.9 10.6
4/21/2023 10:15:00 PM 16.23 61.214 0.273 8.74 6.15 10.58
4/21/2023 10:30:00 PM 16.22 61.196 0.273 8.71 5.61 10.47
4/21/2023 10:45:00 PM 16.22 61.196 0.273 8.73 5.52 10.42
4/21/2023 11:00:00 PM 16.21 61.178 0.273 8.63 5.61 10.32
4/21/2023 11:15:00 PM 16.21 61.178 0.273 8.65 5.76 10.35
4/21/2023 11:30:00 PM 16.2 61.16 0.273 8.72 5.92 10.45
4/21/2023 11:45:00 PM 16.19 61.142 0.273 8.73 5.9 10.46
4/22/2023 12:00:00 AM 16.19 61.142 0.273 8.74 5.76 10.39
4/22/2023 12:15:00 AM 16.18 61.124 0.273 8.7 5.85 10.34
4/22/2023 12:30:00 AM 16.18 61.124 0.273 8.69 5.63 10.33
4/22/2023 12:45:00 AM 16.17 61.106 0.273 8.69 5.39 10.28
4/22/2023 1:00:00 AM 16.16 61.088 0.273 8.66 5.48 10.29
4/22/2023 1:15:00 AM 16.16 61.088 0.273 8.67 6.01 10.22
4/22/2023 1:30:00 AM 16.15 61.07 0.273 8.68 6.04 10.31
4/22/2023 1:45:00 AM 16.15 61.07 0.273 8.69 5.74 10.13
4/22/2023 2:00:00 AM 16.14 61.052 0.273 8.66 5.41 10.17
4/22/2023 2:15:00 AM 16.14 61.052 0.273 8.61 5.27 10.09
4/22/2023 2:30:00 AM 16.13 61.034 0.273 8.64 5.42 10.15
4/22/2023 2:45:00 AM 16.12 61.016 0.273 8.63 5.42 10.12
4/22/2023 3:00:00 AM 16.12 61.016 0.273 8.63 5.23 10.1
4/22/2023 3:15:00 AM 16.11 60.998 0.273 8.62 5.42 10.03
4/22/2023 3:30:00 AM 16.11 60.998 0.273 8.61 5.38 10.03
4/22/2023 3:45:00 AM 16.1 60.98 0.273 8.6 5.33 10.02
4/22/2023 4:00:00 AM 16.09 60.962 0.273 8.59 5.34 9.86
4/22/2023 4:15:00 AM 16.09 60.962 0.273 8.59 5.35 9.83
4/22/2023 4:30:00 AM 16.08 60.944 0.273 8.57 5.15 9.79
4/22/2023 4:45:00 AM 16.08 60.944 0.273 8.53 5.17 9.82
4/22/2023 5:00:00 AM 16.07 60.926 0.273 8.57 5.2 9.83
4/22/2023 5:15:00 AM 16.07 60.926 0.274 8.53 5.9 9.53
4/22/2023 5:30:00 AM 16.01 60.818 0.273 8.6 7.54 9.99
4/22/2023 5:45:00 AM 16.35 61.43 0.271 8.69 8.01 10.04
4/22/2023 6:00:00 AM 16.45 61.61 0.271 8.72 8.63 10.03
4/22/2023 6:15:00 AM 16.48 61.664 0.27 8.71 7.79 9.99
4/22/2023 6:30:00 AM 16.47 61.646 0.27 8.71 8.06 9.92
4/22/2023 6:45:00 AM 16.45 61.61 0.27 8.7 8.48 9.89
4/22/2023 7:00:00 AM 16.41 61.538 0.27 8.69 8.83 9.87
4/22/2023 7:15:00 AM 16.38 61.484 0.271 8.67 7.48 9.85
4/22/2023 7:30:00 AM 16.35 61.43 0.271 8.67 7.56 9.81
4/22/2023 7:45:00 AM 16.32 61.376 0.271 8.66 8.1 9.78
4/22/2023 8:00:00 AM 16.28 61.304 0.271 8.67 7.97 9.83
4/22/2023 8:15:00 AM 16.26 61.268 0.271 8.67 7.51 9.83
4/22/2023 8:30:00 AM -99999.99 -179968 -100 -99999.99 -99999.99 -99999.99
4/22/2023 8:45:00 AM -99999.99 -179968 -100 -99999.99 -99999.99 -99999.99
4/22/2023 9:00:00 AM -99999.99 -179968 -100 -99999.99 -99999.99 -99999.99
4/22/2023 9:15:00 AM -99999.99 -179968 -100 -99999.99 -99999.99 -99999.99
4/22/2023 9:30:00 AM -99999.99 -179968 -100 -99999.99 -99999.99 -99999.99
4/22/2023 9:45:00 AM -99999.99 -179968 -100 -99999.99 -99999.99 -99999.99
4/22/2023 10:00:00 AM -99999.99 -179968 -100 -99999.99 -99999.99 -99999.99
4/22/2023 10:15:00 AM -99999.99 -179968 -100 -99999.99 -99999.99 -99999.99
4/22/2023 10:30:00 AM 16.21 61.178 0.271 8.57 6.38 9.55
4/22/2023 10:45:00 AM 16.22 61.196 0.272 8.52 5.83 9.35
4/22/2023 11:00:00 AM 16.17 61.106 0.271 8.71 7.87 9.9
4/22/2023 11:15:00 AM 16.34 61.412 0.27 8.85 8.18 10.45
4/22/2023 11:30:00 AM 16.4 61.52 0.27 8.89 8.92 10.6
4/22/2023 11:45:00 AM 16.45 61.61 0.27 8.91 8.19 10.64
4/22/2023 12:00:00 PM 16.5 61.7 0.27 8.92 8.45 10.73
4/22/2023 12:15:00 PM 16.55 61.79 0.27 8.94 8.02 10.8
4/22/2023 12:30:00 PM 16.6 61.88 0.27 8.95 9.76 10.86
4/22/2023 12:45:00 PM 16.66 61.988 0.27 8.97 8.64 10.85
4/22/2023 1:00:00 PM 16.74 62.132 0.27 8.98 7.97 10.96
4/22/2023 1:15:00 PM 16.8 62.24 0.27 8.99 8.58 11.01
4/22/2023 1:30:00 PM 16.84 62.312 0.27 9.01 8.79 11.08
4/22/2023 1:45:00 PM 16.89 62.402 0.27 9.02 8.92 11.12
4/22/2023 2:00:00 PM 16.92 62.456 0.271 9 8.11 11.04
4/22/2023 2:15:00 PM 16.92 62.456 0.271 8.96 6.51 10.88
4/22/2023 2:30:00 PM 16.93 62.474 0.271 8.96 6.96 10.93
4/22/2023 2:45:00 PM 16.93 62.474 0.271 8.98 7.21 10.99
4/22/2023 3:00:00 PM 16.92 62.456 0.271 8.98 7.35 11.04
4/22/2023 3:15:00 PM 16.91 62.438 0.271 8.93 6.9 10.94
4/22/2023 3:30:00 PM 16.9 62.42 0.271 8.92 7.74 10.92
4/22/2023 3:45:00 PM 16.9 62.42 0.271 8.93 6.48 10.87
4/22/2023 4:00:00 PM 16.89 62.402 0.271 8.92 7.05 10.84
4/22/2023 4:15:00 PM 16.88 62.384 0.271 8.92 6.72 10.81
4/22/2023 4:30:00 PM 16.88 62.384 0.271 8.94 6.48 10.79
4/22/2023 4:45:00 PM 16.87 62.366 0.271 8.88 6.84 10.77
4/22/2023 5:00:00 PM 16.86 62.348 0.271 8.9 6.84 10.66
4/22/2023 5:15:00 PM 16.85 62.33 0.271 8.89 6.33 10.69
4/22/2023 5:30:00 PM 16.85 62.33 0.271 8.89 6.51 10.62
4/22/2023 5:45:00 PM 16.84 62.312 0.272 8.82 7.36 10.53
4/22/2023 6:00:00 PM 16.83 62.294 0.272 8.87 6.47 10.56
4/22/2023 6:15:00 PM 16.83 62.294 0.272 8.88 6.87 10.63
4/22/2023 6:30:00 PM 16.82 62.276 0.272 8.86 6.32 10.5
4/22/2023 6:45:00 PM 16.81 62.258 0.272 8.81 6.52 10.53
4/22/2023 7:00:00 PM 16.81 62.258 0.272 8.84 6.23 10.51
4/22/2023 7:15:00 PM 16.8 62.24 0.272 8.78 6.52 10.52
4/22/2023 7:30:00 PM 16.79 62.222 0.272 8.85 6.46 10.44
4/22/2023 7:45:00 PM 16.79 62.222 0.272 8.81 6.19 10.45
4/22/2023 8:00:00 PM 16.78 62.204 0.272 8.83 6.8 10.49
4/22/2023 8:15:00 PM 16.77 62.186 0.272 8.83 6.46 10.42
4/22/2023 8:30:00 PM 16.76 62.168 0.272 8.77 6.1 10.37
4/22/2023 8:45:00 PM 16.76 62.168 0.272 8.81 5.92 10.35
4/22/2023 9:00:00 PM 16.75 62.15 0.272 8.8 6.37 10.23
4/22/2023 9:15:00 PM 16.75 62.15 0.272 8.79 6.62 10.3
4/22/2023 9:30:00 PM 16.74 62.132 0.272 8.76 6.24 10.21
4/22/2023 9:45:00 PM 16.73 62.114 0.272 8.78 5.82 10.18
4/22/2023 10:00:00 PM 16.73 62.114 0.272 8.75 5.78 10.11
4/22/2023 10:15:00 PM 16.72 62.096 0.272 8.76 6.01 10.16
4/22/2023 10:30:00 PM 16.71 62.078 0.272 8.7 5.76 10.1
4/22/2023 10:45:00 PM 16.71 62.078 0.272 8.75 5.63 10.06
4/22/2023 11:00:00 PM 16.7 62.06 0.272 8.7 5.58 10.04
4/22/2023 11:15:00 PM 16.69 62.042 0.272 8.76 6.02 10.04
4/22/2023 11:30:00 PM 16.69 62.042 0.272 8.71 5.36 9.97
4/22/2023 11:45:00 PM 16.68 62.024 0.272 8.73 5.83 10
4/23/2023 12:00:00 AM 16.68 62.024 0.272 8.69 5.42 9.9
4/23/2023 12:15:00 AM 16.67 62.006 0.272 8.67 5.49 9.89
4/23/2023 12:30:00 AM 16.66 61.988 0.272 8.7 5.56 9.91
4/23/2023 12:45:00 AM 16.66 61.988 0.272 8.65 5.53 9.86
4/23/2023 1:00:00 AM 16.65 61.97 0.272 8.66 5.37 9.85
4/23/2023 1:15:00 AM 16.65 61.97 0.272 8.66 5.68 9.75
4/23/2023 1:30:00 AM 16.64 61.952 0.273 8.62 5.25 9.67
4/23/2023 1:45:00 AM 16.63 61.934 0.273 8.65 5.51 9.73
4/23/2023 2:00:00 AM 16.63 61.934 0.272 8.67 5.59 9.78
4/23/2023 2:15:00 AM 16.62 61.916 0.272 8.6 5.47 9.73
4/23/2023 2:30:00 AM 16.62 61.916 0.273 8.64 5.17 9.65
4/23/2023 2:45:00 AM 16.61 61.898 0.272 8.58 5.41 9.68
4/23/2023 3:00:00 AM 16.61 61.898 0.272 8.62 5.37 9.7
4/23/2023 3:15:00 AM 16.6 61.88 0.273 8.62 5.06 9.61
4/23/2023 3:30:00 AM 16.59 61.862 0.273 8.57 5.19 9.55
4/23/2023 3:45:00 AM 16.59 61.862 0.273 8.59 5.2 9.39
4/23/2023 4:00:00 AM 16.59 61.862 0.273 8.58 4.98 9.34
4/23/2023 4:15:00 AM 16.58 61.844 0.273 8.58 5.05 9.45
4/23/2023 4:30:00 AM 16.57 61.826 0.273 8.56 4.93 9.39
4/23/2023 4:45:00 AM 16.57 61.826 0.273 8.55 4.84 9.35
4/23/2023 5:00:00 AM 16.57 61.826 0.273 8.56 5.14 9.32
4/23/2023 5:15:00 AM 16.35 61.43 0.273 8.48 6.64 9.31
4/23/2023 5:30:00 AM 16.2 61.16 0.273 8.52 7.88 9.33
4/23/2023 5:45:00 AM 16.22 61.196 0.272 8.57 8.16 9.31
4/23/2023 6:00:00 AM 16.22 61.196 0.272 8.58 7.93 9.31
4/23/2023 6:15:00 AM 16.21 61.178 0.272 8.56 8.48 9.26
4/23/2023 6:30:00 AM 16.19 61.142 0.273 8.57 9.15 9.26
4/23/2023 6:45:00 AM 16.17 61.106 0.273 8.56 9.7 9.25
4/23/2023 7:00:00 AM 16.16 61.088 0.273 8.55 8.14 9.21
4/23/2023 7:15:00 AM 16.14 61.052 0.274 8.56 8.39 9.24
4/23/2023 7:30:00 AM 16.12 61.016 0.274 8.55 7.81 9.25
4/23/2023 7:45:00 AM 16.09 60.962 0.274 8.56 8.56 9.28
4/23/2023 8:00:00 AM 16.06 60.908 0.275 8.56 8.39 9.28
4/23/2023 8:15:00 AM 16.03 60.854 0.275 8.59 9.07 9.32
4/23/2023 8:30:00 AM 16.01 60.818 0.275 8.59 8.4 9.33
4/23/2023 8:45:00 AM 15.98 60.764 0.275 8.61 8.37 9.41
4/23/2023 9:00:00 AM 15.96 60.728 0.275 8.63 10.1 9.52
4/23/2023 9:15:00 AM 15.95 60.71 0.276 8.64 9.23 9.5
4/23/2023 9:30:00 AM 15.94 60.692 0.276 8.66 8 9.59
4/23/2023 9:45:00 AM 15.94 60.692 0.276 8.67 7.71 9.65
4/23/2023 10:00:00 AM 15.95 60.71 0.276 8.69 8.93 9.73
4/23/2023 10:15:00 AM 15.97 60.746 0.276 8.72 8.41 9.82
4/23/2023 10:30:00 AM 15.99 60.782 0.276 8.75 9.42 9.93
4/23/2023 10:45:00 AM 16.01 60.818 0.277 8.73 7.5 9.87
4/23/2023 11:00:00 AM 16.03 60.854 0.277 8.74 7.28 9.82
4/23/2023 11:15:00 AM 16.04 60.872 0.277 8.69 7.08 9.67
4/23/2023 11:30:00 AM 16.06 60.908 0.277 8.68 5.96 9.56
4/23/2023 11:45:00 AM 16.07 60.926 0.277 8.65 6.31 9.46
4/23/2023 12:00:00 PM 16.09 60.962 0.278 8.65 6.4 9.44
4/23/2023 12:15:00 PM 16.13 61.034 0.278 8.77 7.03 9.88
4/23/2023 12:30:00 PM 16.15 61.07 0.278 8.7 5.92 9.65
4/23/2023 12:45:00 PM 16.16 61.088 0.277 8.64 5.74 9.55
4/23/2023 1:00:00 PM 16.17 61.106 0.278 8.65 6.23 9.63
4/23/2023 1:15:00 PM 16.17 61.106 0.278 8.67 6.35 9.76
4/23/2023 1:30:00 PM 16.17 61.106 0.279 8.65 6.11 9.78
4/23/2023 1:45:00 PM 16.17 61.106 0.279 8.7 6.53 9.83
4/23/2023 2:00:00 PM 16.17 61.106 0.279 8.7 6.2 9.83
4/23/2023 2:15:00 PM 16.17 61.106 0.279 8.65 6.25 9.79
4/23/2023 2:30:00 PM 16.16 61.088 0.279 8.68 6.32 9.81
4/23/2023 2:45:00 PM 16.16 61.088 0.279 8.65 6.08 9.73
4/23/2023 3:00:00 PM 16.16 61.088 0.279 8.66 5.8 9.67
4/23/2023 3:15:00 PM 16.15 61.07 0.279 8.65 6.01 9.69
4/23/2023 3:30:00 PM 16.15 61.07 0.279 8.66 6.55 9.7
4/23/2023 3:45:00 PM 16.15 61.07 0.279 8.61 6.09 9.65
4/23/2023 4:00:00 PM 16.14 61.052 0.279 8.63 5.55 9.64
4/23/2023 4:15:00 PM 16.14 61.052 0.279 8.62 6.04 9.65
4/23/2023 4:30:00 PM 16.14 61.052 0.279 8.63 6.02 9.64
4/23/2023 4:45:00 PM 16.13 61.034 0.279 8.61 5.81 9.55
4/23/2023 5:00:00 PM 16.13 61.034 0.279 8.56 5.7 9.46
4/23/2023 5:15:00 PM 16.12 61.016 0.279 8.61 5.77 9.45
4/23/2023 5:30:00 PM 16.12 61.016 0.279 8.58 5.85 9.49
4/23/2023 5:45:00 PM 16.12 61.016 0.279 8.57 5.84 9.46
4/23/2023 6:00:00 PM 16.11 60.998 0.279 8.6 5.79 9.46
4/23/2023 6:15:00 PM 16.11 60.998 0.279 8.57 5.46 9.37
4/23/2023 6:30:00 PM 16.1 60.98 0.28 8.55 5.2 9.31
4/23/2023 6:45:00 PM 16.1 60.98 0.28 8.53 5.53 9.27
4/23/2023 7:00:00 PM 16.09 60.962 0.28 8.54 5.33 9.29
4/23/2023 7:15:00 PM 16.09 60.962 0.28 8.53 5.86 9.22
4/23/2023 7:30:00 PM 16.09 60.962 0.28 8.51 5.19 9.14
4/23/2023 7:45:00 PM 16.08 60.944 0.28 8.5 4.98 9.16
4/23/2023 8:00:00 PM 16.08 60.944 0.28 8.51 5.02 9.09
4/23/2023 8:15:00 PM 16.07 60.926 0.28 8.49 5.18 9.07
4/23/2023 8:30:00 PM 16.07 60.926 0.28 8.46 5.18 8.97
4/23/2023 8:45:00 PM 16.07 60.926 0.28 8.5 5.07 9
4/23/2023 9:00:00 PM 16.06 60.908 0.28 8.47 5.1 9.01
4/23/2023 9:15:00 PM 16.06 60.908 0.28 8.48 5.07 9.03
4/23/2023 9:30:00 PM 16.06 60.908 0.28 8.49 5.07 8.99
4/23/2023 9:45:00 PM 16.05 60.89 0.28 8.48 4.96 8.92
4/23/2023 10:00:00 PM 16.05 60.89 0.28 8.47 4.95 8.87
4/23/2023 10:15:00 PM 16.05 60.89 0.28 8.45 4.89 8.84
4/23/2023 10:30:00 PM 16.04 60.872 0.28 8.45 5.04 8.91
4/23/2023 10:45:00 PM 16.04 60.872 0.28 8.44 5.02 8.83
4/23/2023 11:00:00 PM 16.04 60.872 0.28 8.44 4.98 8.85
4/23/2023 11:15:00 PM 16.03 60.854 0.28 8.44 4.97 8.83
4/23/2023 11:30:00 PM 16.03 60.854 0.28 8.44 4.91 8.8
4/23/2023 11:45:00 PM 16.03 60.854 0.28 8.44 4.92 8.78
4/24/2023 12:00:00 AM 16.02 60.836 0.28 8.43 4.98 8.73
4/24/2023 12:15:00 AM 16.02 60.836 0.28 8.44 5.04 8.79
4/24/2023 12:30:00 AM 16.02 60.836 0.28 8.42 5.02 8.81
4/24/2023 12:45:00 AM 16.01 60.818 0.28 8.39 4.84 8.68
4/24/2023 1:00:00 AM 16.01 60.818 0.28 8.39 4.79 8.69
4/24/2023 1:15:00 AM 16.01 60.818 0.28 8.4 4.83 8.67
4/24/2023 1:30:00 AM 16 60.8 0.28 8.38 4.74 8.61
4/24/2023 1:45:00 AM 16 60.8 0.28 8.36 4.62 8.49
4/24/2023 2:00:00 AM 15.99 60.782 0.28 8.38 4.66 8.58
4/24/2023 2:15:00 AM 15.99 60.782 0.28 8.33 4.81 8.58
4/24/2023 2:30:00 AM 15.99 60.782 0.28 8.38 4.8 8.61
4/24/2023 2:45:00 AM 15.99 60.782 0.28 8.38 4.82 8.54
4/24/2023 3:00:00 AM 15.98 60.764 0.28 8.38 4.77 8.56
4/24/2023 3:15:00 AM 15.98 60.764 0.28 8.35 4.99 8.63
4/24/2023 3:30:00 AM 15.97 60.746 0.28 8.36 4.77 8.47
4/24/2023 3:45:00 AM 15.97 60.746 0.28 8.37 4.68 8.49
4/24/2023 4:00:00 AM 15.96 60.728 0.28 8.33 4.68 8.45
4/24/2023 4:15:00 AM 15.96 60.728 0.28 8.35 4.58 8.42
4/24/2023 4:30:00 AM 15.95 60.71 0.281 8.33 4.51 8.33
4/24/2023 4:45:00 AM 15.95 60.71 0.28 8.31 4.53 8.37
4/24/2023 5:00:00 AM 15.95 60.71 0.281 8.32 4.56 8.32
4/24/2023 5:15:00 AM 15.95 60.71 0.281 8.31 4.98 8.16
4/24/2023 5:30:00 AM 15.94 60.692 0.281 8.3 4.65 8.2
4/24/2023 5:45:00 AM 15.94 60.692 0.281 8.3 4.69 8.18
4/24/2023 6:00:00 AM 15.93 60.674 0.281 8.27 4.6 8.04
4/24/2023 6:15:00 AM 15.93 60.674 0.281 8.26 4.48 7.99
4/24/2023 6:30:00 AM 15.92 60.656 0.281 8.26 4.45 7.98
4/24/2023 6:45:00 AM 15.92 60.656 0.281 8.25 4.72 7.96
4/24/2023 7:00:00 AM 15.93 60.674 0.28 8.24 4.62 7.95
4/24/2023 7:15:00 AM 15.5 59.9 0.284 8.32 6.02 8.66
4/24/2023 7:30:00 AM 14.99 58.982 0.29 8.51 8.45 9.28
4/24/2023 7:45:00 AM 14.77 58.586 0.292 8.58 8.12 9.49
4/24/2023 8:00:00 AM 14.65 58.37 0.293 8.61 8.07 9.55
4/24/2023 8:15:00 AM 14.59 58.262 0.294 8.64 8.51 9.63
4/24/2023 8:30:00 AM 14.55 58.19 0.294 8.66 9.38 9.68
4/24/2023 8:45:00 AM 14.52 58.136 0.294 8.67 7.84 9.68
4/24/2023 9:00:00 AM 14.51 58.118 0.294 8.67 8.22 9.71
4/24/2023 9:15:00 AM 14.51 58.118 0.294 8.7 8.09 9.88
4/24/2023 9:30:00 AM 14.53 58.154 0.293 8.68 8.57 9.96
4/24/2023 9:45:00 AM 14.55 58.19 0.293 8.74 8.96 10.01
4/24/2023 10:00:00 AM 14.59 58.262 0.293 8.75 8.27 10.07
4/24/2023 10:15:00 AM 14.63 58.334 0.292 8.78 7.83 10.15
4/24/2023 10:30:00 AM 14.69 58.442 0.292 8.82 9.26 10.33
4/24/2023 10:45:00 AM 14.74 58.532 0.292 8.82 8.23 10.3
4/24/2023 11:00:00 AM 14.79 58.622 0.291 8.85 9.17 10.39
4/24/2023 11:15:00 AM 14.84 58.712 0.291 8.88 9.66 10.55
4/24/2023 11:30:00 AM 14.91 58.838 0.291 8.9 9.43 10.6
4/24/2023 11:45:00 AM 14.96 58.928 0.291 8.91 8.33 10.67
4/24/2023 12:00:00 PM 15.01 59.018 0.29 8.92 10.43 10.71
4/24/2023 12:15:00 PM 15.07 59.126 0.29 8.91 8.25 10.63
4/24/2023 12:30:00 PM 15.14 59.252 0.29 8.94 10.32 10.83
4/24/2023 12:45:00 PM 15.14 59.252 0.29 8.95 9.55 10.84
4/24/2023 1:00:00 PM 15.11 59.198 0.29 8.95 10.16 10.85
4/24/2023 1:15:00 PM 15.08 59.144 0.289 8.96 10.15 10.87
4/24/2023 1:30:00 PM 15.11 59.198 0.289 8.94 8.15 10.8
4/24/2023 1:45:00 PM 15.17 59.306 0.289 8.96 9.64 10.9
4/24/2023 2:00:00 PM 15.23 59.414 0.289 9 10.21 11.02
4/24/2023 2:15:00 PM 15.27 59.486 0.288 9.01 9.57 11.08
4/24/2023 2:30:00 PM 15.3 59.54 0.288 9 9.38 11.05
4/24/2023 2:45:00 PM 15.33 59.594 0.288 9.01 8.48 11.07
4/24/2023 3:00:00 PM 15.37 59.666 0.288 9.02 7.72 11.11
4/24/2023 3:15:00 PM 15.4 59.72 0.288 9.04 8.96 11.21
4/24/2023 3:30:00 PM 15.39 59.702 0.288 9.05 10.02 11.29
4/24/2023 3:45:00 PM 15.36 59.648 0.287 9.07 10.11 11.32
4/24/2023 4:00:00 PM 15.36 59.648 0.287 9.03 7.88 11.15
4/24/2023 4:15:00 PM 15.35 59.63 0.288 9.01 7.05 11.05
4/24/2023 4:30:00 PM 15.35 59.63 0.288 8.96 7.12 11
4/24/2023 4:45:00 PM 15.35 59.63 0.288 8.94 6.64 10.94
4/24/2023 5:00:00 PM 15.35 59.63 0.288 8.96 7.14 10.9
4/24/2023 5:15:00 PM 15.34 59.612 0.288 8.95 6.67 10.84
4/24/2023 5:30:00 PM 15.34 59.612 0.288 8.94 6.31 10.82
4/24/2023 5:45:00 PM 15.34 59.612 0.288 8.91 6.38 10.8
4/24/2023 6:00:00 PM 15.33 59.594 0.288 8.86 6.7 10.82
4/24/2023 6:15:00 PM 15.33 59.594 0.288 8.92 6.01 10.76
4/24/2023 6:30:00 PM 15.33 59.594 0.288 8.91 7.32 10.73
4/24/2023 6:45:00 PM 15.33 59.594 0.288 8.9 7 10.59
4/24/2023 7:00:00 PM 15.33 59.594 0.288 8.83 6.48 10.53
4/24/2023 7:15:00 PM 15.32 59.576 0.289 8.86 6.23 10.52
4/24/2023 7:30:00 PM 15.32 59.576 0.288 8.81 5.9 10.52
4/24/2023 7:45:00 PM 15.32 59.576 0.289 8.86 5.86 10.53
4/24/2023 8:00:00 PM 15.32 59.576 0.289 8.82 5.91 10.46
4/24/2023 8:15:00 PM 15.31 59.558 0.289 8.82 5.9 10.46
4/24/2023 8:30:00 PM 15.31 59.558 0.289 8.84 5.91 10.43
4/24/2023 8:45:00 PM 15.31 59.558 0.289 8.72 5.84 10.4
4/24/2023 9:00:00 PM 15.31 59.558 0.289 8.77 6.01 10.3
4/24/2023 9:15:00 PM 15.3 59.54 0.289 8.75 5.67 10.37
4/24/2023 9:30:00 PM 15.3 59.54 0.289 8.81 5.9 10.29
4/24/2023 9:45:00 PM 15.3 59.54 0.289 8.76 5.88 10.33
4/24/2023 10:00:00 PM 15.3 59.54 0.289 8.76 5.74 10.23
4/24/2023 10:15:00 PM 15.3 59.54 0.289 8.74 5.51 10.2
4/24/2023 10:30:00 PM 15.29 59.522 0.289 8.73 5.57 10.17
4/24/2023 10:45:00 PM 15.29 59.522 0.289 8.74 5.43 10.11
4/24/2023 11:00:00 PM 15.29 59.522 0.289 8.74 5.54 10.17
4/24/2023 11:15:00 PM 15.28 59.504 0.289 8.75 5.45 10.14
4/24/2023 11:30:00 PM 15.28 59.504 0.289 8.72 5.73 10.07
4/24/2023 11:45:00 PM 15.28 59.504 0.289 8.73 5.44 10.03
4/25/2023 12:00:00 AM 15.28 59.504 0.289 8.71 5.45 10.05
4/25/2023 12:15:00 AM 15.28 59.504 0.289 8.7 5.37 9.97
4/25/2023 12:30:00 AM 15.27 59.486 0.289 8.68 5.56 9.93
4/25/2023 12:45:00 AM 15.27 59.486 0.29 8.69 5.46 9.97
4/25/2023 1:00:00 AM 15.27 59.486 0.289 8.66 5.47 9.9
4/25/2023 1:15:00 AM 15.27 59.486 0.29 8.68 5.34 9.91
4/25/2023 1:30:00 AM 15.26 59.468 0.29 8.67 5.73 9.93
4/25/2023 1:45:00 AM 15.26 59.468 0.29 8.66 5.23 9.78
4/25/2023 2:00:00 AM 15.26 59.468 0.29 8.57 5.08 9.81
4/25/2023 2:15:00 AM 15.25 59.45 0.29 8.62 5.42 9.73
4/25/2023 2:30:00 AM 15.25 59.45 0.29 8.61 5.03 9.63
4/25/2023 2:45:00 AM 15.25 59.45 0.29 8.6 5.04 9.66
4/25/2023 3:00:00 AM 15.24 59.432 0.29 8.6 5.1 9.65
4/25/2023 3:15:00 AM 15.24 59.432 0.29 8.59 5.15 9.73
4/25/2023 3:30:00 AM 15.24 59.432 0.29 8.53 5.26 9.7
4/25/2023 3:45:00 AM 15.23 59.414 0.29 8.58 5.12 9.63
4/25/2023 4:00:00 AM 15.23 59.414 0.29 8.58 5.22 9.6
4/25/2023 4:15:00 AM 15.23 59.414 0.29 8.55 5.1 9.49
4/25/2023 4:30:00 AM 15.23 59.414 0.29 8.55 4.86 9.35
4/25/2023 4:45:00 AM 15.22 59.396 0.29 8.52 4.86 9.34
4/25/2023 5:00:00 AM 15.22 59.396 0.29 8.51 4.74 9.28
4/25/2023 5:15:00 AM 15.21 59.378 0.29 8.5 4.82 9.27
4/25/2023 5:30:00 AM 15.21 59.378 0.29 8.51 4.68 9.3
4/25/2023 5:45:00 AM 15.21 59.378 0.29 8.5 4.8 9.36
4/25/2023 6:00:00 AM 15.2 59.36 0.29 8.5 4.7 9.28
4/25/2023 6:15:00 AM 15.2 59.36 0.29 8.5 4.77 9.26
4/25/2023 6:30:00 AM 15.2 59.36 0.29 8.48 4.84 9.28
4/25/2023 6:45:00 AM 15.19 59.342 0.29 8.49 4.68 9.22
4/25/2023 7:00:00 AM 15.19 59.342 0.29 8.51 4.73 9.17
4/25/2023 7:15:00 AM 15.14 59.252 0.29 8.5 5.55 9.41
4/25/2023 7:30:00 AM 14.74 58.532 0.293 8.57 7.36 9.63
4/25/2023 7:45:00 AM 14.53 58.154 0.295 8.6 8.61 9.72
4/25/2023 8:00:00 AM 14.41 57.938 0.296 8.62 9.2 9.76
4/25/2023 8:15:00 AM 14.37 57.866 0.297 8.63 8.15 9.79
4/25/2023 8:30:00 AM 14.34 57.812 0.297 8.66 9.9 9.9
4/25/2023 8:45:00 AM 14.33 57.794 0.297 8.68 9.88 9.95
4/25/2023 9:00:00 AM 14.33 57.794 0.297 8.68 10.41 9.96
4/25/2023 9:15:00 AM 14.34 57.812 0.297 8.7 9.22 10
4/25/2023 9:30:00 AM 14.36 57.848 0.296 8.73 10.45 10.13
4/25/2023 9:45:00 AM 14.39 57.902 0.296 8.75 10.89 10.2
4/25/2023 10:00:00 AM 14.4 57.92 0.296 8.75 10.51 10.23
4/25/2023 10:15:00 AM 14.42 57.956 0.296 8.77 10.62 10.31
4/25/2023 10:30:00 AM 14.44 57.992 0.296 8.78 10.61 10.35
4/25/2023 10:45:00 AM 14.47 58.046 0.296 8.8 9.45 10.4
4/25/2023 11:00:00 AM 14.5 58.1 0.296 8.81 10.17 10.43
4/25/2023 11:15:00 AM 14.53 58.154 0.295 8.82 10.42 10.5
4/25/2023 11:30:00 AM 14.56 58.208 0.295 8.83 10.85 10.55
4/25/2023 11:45:00 AM 14.6 58.28 0.295 8.84 10 10.59
4/25/2023 12:00:00 PM 14.63 58.334 0.295 8.84 9.9 10.63
4/25/2023 12:15:00 PM 14.64 58.352 0.295 8.85 9.94 10.59
4/25/2023 12:30:00 PM 14.69 58.442 0.294 8.86 10.22 10.66
4/25/2023 12:45:00 PM 14.73 58.514 0.294 8.87 11.51 10.7
4/25/2023 1:00:00 PM 14.77 58.586 0.294 8.88 10.87 10.77
4/25/2023 1:15:00 PM 14.79 58.622 0.294 8.88 10.45 10.77
4/25/2023 1:30:00 PM 14.83 58.694 0.293 8.89 9.87 10.81
4/25/2023 1:45:00 PM 14.86 58.748 0.293 8.87 8.41 10.75
4/25/2023 2:00:00 PM 14.86 58.748 0.294 8.8 6.52 10.55
4/25/2023 2:15:00 PM 14.86 58.748 0.294 8.78 6.38 10.5
4/25/2023 2:30:00 PM 14.86 58.748 0.294 8.78 6.46 10.42
4/25/2023 2:45:00 PM 14.86 58.748 0.294 8.74 7.08 10.33
4/25/2023 3:00:00 PM 14.86 58.748 0.294 8.75 6.28 10.36
4/25/2023 3:15:00 PM 14.86 58.748 0.294 8.76 6.39 10.37
4/25/2023 3:30:00 PM 14.86 58.748 0.294 8.7 6.22 10.25
4/25/2023 3:45:00 PM 14.85 58.73 0.294 8.71 5.82 10.2
4/25/2023 4:00:00 PM 14.85 58.73 0.294 8.64 5.77 10.2
4/25/2023 4:15:00 PM 14.85 58.73 0.294 8.69 6.14 10.18
4/25/2023 4:30:00 PM 14.85 58.73 0.294 8.67 5.69 10.06
4/25/2023 4:45:00 PM 14.85 58.73 0.294 8.68 5.65 10.11
4/25/2023 5:00:00 PM 14.85 58.73 0.294 8.67 5.69 10.09
4/25/2023 5:15:00 PM 14.85 58.73 0.294 8.66 5.87 10.05
4/25/2023 5:30:00 PM 14.85 58.73 0.294 8.66 5.58 10.06
4/25/2023 5:45:00 PM 14.84 58.712 0.294 8.64 5.51 9.92
4/25/2023 6:00:00 PM 14.84 58.712 0.294 8.63 5.37 9.92
4/25/2023 6:15:00 PM 14.84 58.712 0.294 8.62 5.53 9.88
4/25/2023 6:30:00 PM 14.84 58.712 0.294 8.62 5.4 9.94
4/25/2023 6:45:00 PM 14.83 58.694 0.294 8.62 5.38 9.86
4/25/2023 7:00:00 PM 14.83 58.694 0.294 8.6 5.92 9.85
4/25/2023 7:15:00 PM 14.83 58.694 0.294 8.59 5.24 9.72
4/25/2023 7:30:00 PM 14.83 58.694 0.295 8.54 5.19 9.74
4/25/2023 7:45:00 PM 14.82 58.676 0.295 8.59 5.33 9.73
4/25/2023 8:00:00 PM 14.82 58.676 0.295 8.56 5.43 9.69
4/25/2023 8:15:00 PM 14.82 58.676 0.295 8.56 7.4 9.73
4/25/2023 8:30:00 PM 14.81 58.658 0.295 8.55 5.1 9.61
4/25/2023 8:45:00 PM 14.81 58.658 0.295 8.53 5.05 9.59
4/25/2023 9:00:00 PM 14.81 58.658 0.295 8.53 5.09 9.53
4/25/2023 9:15:00 PM 14.81 58.658 0.295 8.51 4.84 9.44
4/25/2023 9:30:00 PM 14.8 58.64 0.295 8.5 4.81 9.35
4/25/2023 9:45:00 PM 14.8 58.64 0.295 8.48 4.8 9.39
4/25/2023 10:00:00 PM 14.8 58.64 0.295 8.47 4.78 9.38
4/25/2023 10:15:00 PM 14.8 58.64 0.295 8.47 4.8 9.32
4/25/2023 10:30:00 PM 14.79 58.622 0.295 8.48 4.95 9.39
4/25/2023 10:45:00 PM 14.79 58.622 0.295 8.49 4.94 9.4
4/25/2023 11:00:00 PM 14.79 58.622 0.295 8.47 4.9 9.36
4/25/2023 11:15:00 PM 14.79 58.622 0.295 8.47 4.94 9.36
4/25/2023 11:30:00 PM 14.79 58.622 0.295 8.42 4.81 9.32
4/25/2023 11:45:00 PM 14.78 58.604 0.295 8.45 4.79 9.23
4/26/2023 12:00:00 AM 14.78 58.604 0.295 8.46 4.71 9.24
4/26/2023 12:15:00 AM 14.78 58.604 0.295 8.44 4.86 9.3
4/26/2023 12:30:00 AM 14.78 58.604 0.295 8.44 4.84 9.31
4/26/2023 12:45:00 AM 14.77 58.586 0.295 8.43 4.76 9.22
4/26/2023 1:00:00 AM 14.77 58.586 0.295 8.43 4.94 9.21
4/26/2023 1:15:00 AM 14.77 58.586 0.295 8.43 4.75 9.21
4/26/2023 1:30:00 AM 14.76 58.568 0.295 8.41 4.81 9.13
4/26/2023 1:45:00 AM 14.76 58.568 0.295 8.39 4.61 9.09
4/26/2023 2:00:00 AM 14.76 58.568 0.295 8.4 4.65 9.14
4/26/2023 2:15:00 AM 14.76 58.568 0.295 8.38 4.76 9.08
4/26/2023 2:30:00 AM 14.75 58.55 0.295 8.4 4.72 9.13
4/26/2023 2:45:00 AM 14.75 58.55 0.295 8.39 4.7 9.05
4/26/2023 3:00:00 AM 14.75 58.55 0.295 8.37 4.66 8.99
4/26/2023 3:15:00 AM 14.74 58.532 0.295 8.36 4.68 8.96
4/26/2023 3:30:00 AM 14.74 58.532 0.295 8.37 4.64 8.9
4/26/2023 3:45:00 AM 14.74 58.532 0.295 8.35 4.98 8.9
4/26/2023 4:00:00 AM 14.74 58.532 0.295 8.35 4.69 8.86
4/26/2023 4:15:00 AM 14.74 58.532 0.295 8.33 4.61 8.93
4/26/2023 4:30:00 AM 14.73 58.514 0.296 8.32 4.67 8.82
4/26/2023 4:45:00 AM 14.73 58.514 0.296 8.34 4.67 8.89
4/26/2023 5:00:00 AM 14.73 58.514 0.295 8.32 4.52 8.89
4/26/2023 5:15:00 AM 14.72 58.496 0.296 8.31 4.6 8.88
4/26/2023 5:30:00 AM 14.72 58.496 0.295 8.3 4.68 8.89
4/26/2023 5:45:00 AM 14.72 58.496 0.296 8.32 4.61 8.73
4/26/2023 6:00:00 AM 14.72 58.496 0.296 8.3 5.14 8.63
4/26/2023 6:15:00 AM 14.72 58.496 0.296 8.29 4.6 8.68
4/26/2023 6:30:00 AM 14.71 58.478 0.296 8.27 4.58 8.63
4/26/2023 6:45:00 AM 14.71 58.478 0.296 8.25 4.55 8.59
4/26/2023 7:00:00 AM 14.7 58.46 0.296 8.27 4.51 8.66
4/26/2023 7:15:00 AM 14.69 58.442 0.295 8.33 5.3 8.95
4/26/2023 7:30:00 AM 14.43 57.974 0.295 8.4 6.88 9.32
4/26/2023 7:45:00 AM 14.19 57.542 0.293 8.51 7.6 9.66
4/26/2023 8:00:00 AM 14.06 57.308 0.292 8.59 9.1 9.81
4/26/2023 8:15:00 AM 13.97 57.146 0.291 8.63 10.87 9.94
4/26/2023 8:30:00 AM 13.89 57.002 0.29 8.64 10.92 9.99
4/26/2023 8:45:00 AM 13.84 56.912 0.29 8.64 10.23 9.99
4/26/2023 9:00:00 AM 13.8 56.84 0.289 8.68 11.39 10.12
4/26/2023 9:15:00 AM 13.78 56.804 0.289 8.69 11.29 10.14
4/26/2023 9:30:00 AM 13.77 56.786 0.289 8.69 12.55 10.16
4/26/2023 9:45:00 AM 13.77 56.786 0.288 8.7 9.3 10.17
4/26/2023 10:00:00 AM 13.78 56.804 0.288 8.68 8.16 10.09
4/26/2023 10:15:00 AM 13.81 56.858 0.288 8.72 12.29 10.29
4/26/2023 10:30:00 AM 13.84 56.912 0.287 8.73 10.3 10.34
4/26/2023 10:45:00 AM 13.9 57.02 0.287 8.75 11.05 10.42
4/26/2023 11:00:00 AM 13.96 57.128 0.286 8.76 11.48 10.47
4/26/2023 11:15:00 AM 14.02 57.236 0.286 8.78 10.14 10.48
4/26/2023 11:30:00 AM 14.08 57.344 0.286 8.8 12.51 10.59
4/26/2023 11:45:00 AM 14.14 57.452 0.286 8.82 12.36 10.65
4/26/2023 12:00:00 PM 14.18 57.524 0.285 8.82 9.22 10.67
4/26/2023 12:15:00 PM 14.22 57.596 0.285 8.84 11.26 10.73
4/26/2023 12:30:00 PM 14.29 57.722 0.285 8.84 11.11 10.81
4/26/2023 12:45:00 PM 14.35 57.83 0.284 8.86 13.46 10.82
4/26/2023 1:00:00 PM 14.39 57.902 0.284 8.88 12.09 10.89
4/26/2023 1:15:00 PM 14.43 57.974 0.284 8.88 11.92 10.91
4/26/2023 1:30:00 PM 14.46 58.028 0.284 8.9 12.1 10.96
4/26/2023 1:45:00 PM 14.49 58.082 0.284 8.89 9.65 10.87
4/26/2023 2:00:00 PM 14.56 58.208 0.284 8.92 9.44 11.05
4/26/2023 2:15:00 PM 14.62 58.316 0.284 8.94 12.85 11.11
4/26/2023 2:30:00 PM 14.62 58.316 0.284 8.9 8.39 11.02
4/26/2023 2:45:00 PM 14.61 58.298 0.284 8.84 7 10.78
4/26/2023 3:00:00 PM 14.62 58.316 0.284 8.82 6.71 10.77
4/26/2023 3:15:00 PM 14.62 58.316 0.284 8.85 7.2 10.77
4/26/2023 3:30:00 PM 14.61 58.298 0.285 8.8 6.8 10.75
4/26/2023 3:45:00 PM 14.61 58.298 0.285 8.78 6.64 10.68
4/26/2023 4:00:00 PM 14.61 58.298 0.285 8.8 6.74 10.62
4/26/2023 4:15:00 PM 14.6 58.28 0.285 8.77 6.21 10.54
4/26/2023 4:30:00 PM 14.6 58.28 0.285 8.73 6.28 10.49
4/26/2023 4:45:00 PM 14.6 58.28 0.285 8.74 5.84 10.42
4/26/2023 5:00:00 PM 14.59 58.262 0.285 8.64 5.93 10.35
4/26/2023 5:15:00 PM 14.59 58.262 0.285 8.7 6.07 10.29
4/26/2023 5:30:00 PM 14.59 58.262 0.285 8.7 5.71 10.29
4/26/2023 5:45:00 PM 14.59 58.262 0.285 8.67 5.68 10.16
4/26/2023 6:00:00 PM 14.59 58.262 0.285 8.66 5.61 10.18
4/26/2023 6:15:00 PM 14.58 58.244 0.285 8.66 5.54 10.13
4/26/2023 6:30:00 PM 14.58 58.244 0.285 8.63 5.49 10.05
4/26/2023 6:45:00 PM 14.58 58.244 0.285 8.62 5.38 10.04
4/26/2023 7:00:00 PM 14.58 58.244 0.285 8.63 5.57 10.09
4/26/2023 7:15:00 PM 14.57 58.226 0.286 8.6 5.4 10.04
4/26/2023 7:30:00 PM 14.57 58.226 0.285 8.58 5.34 10
4/26/2023 7:45:00 PM 14.57 58.226 0.285 8.61 5.23 10.02
4/26/2023 8:00:00 PM 14.57 58.226 0.285 8.61 5.32 9.91
4/26/2023 8:15:00 PM 14.56 58.208 0.286 8.58 5.19 9.81
4/26/2023 8:30:00 PM 14.56 58.208 0.286 8.53 5.06 9.72
4/26/2023 8:45:00 PM 14.56 58.208 0.286 8.49 5.38 9.67
4/26/2023 9:00:00 PM 14.55 58.19 0.286 8.49 4.88 9.59
4/26/2023 9:15:00 PM 14.55 58.19 0.286 8.48 4.89 9.58
4/26/2023 9:30:00 PM 14.55 58.19 0.286 8.48 4.85 9.58
4/26/2023 9:45:00 PM 14.55 58.19 0.286 8.49 5.34 9.53
4/26/2023 10:00:00 PM 14.54 58.172 0.286 8.45 4.76 9.48
4/26/2023 10:15:00 PM 14.54 58.172 0.286 8.47 4.75 9.47
4/26/2023 10:30:00 PM 14.54 58.172 0.286 8.39 4.79 9.37
4/26/2023 10:45:00 PM 14.54 58.172 0.286 8.43 4.71 9.36
4/26/2023 11:00:00 PM 14.54 58.172 0.286 8.41 4.68 9.26
4/26/2023 11:15:00 PM 14.53 58.154 0.286 8.39 4.71 9.2
4/26/2023 11:30:00 PM 14.53 58.154 0.286 8.39 4.73 9.18
4/26/2023 11:45:00 PM 14.53 58.154 0.286 8.36 4.73 9.19
4/27/2023 12:00:00 AM 14.53 58.154 0.287 8.36 4.55 9.05
4/27/2023 12:15:00 AM 14.52 58.136 0.287 8.33 5.09 8.98
4/27/2023 12:30:00 AM 14.52 58.136 0.287 8.34 4.53 8.97
4/27/2023 12:45:00 AM 14.52 58.136 0.287 8.32 4.6 8.94
4/27/2023 1:00:00 AM 14.52 58.136 0.287 8.32 4.62 8.87
4/27/2023 1:15:00 AM 14.52 58.136 0.287 8.3 4.55 8.75
4/27/2023 1:30:00 AM 14.52 58.136 0.287 8.26 4.5 8.7
4/27/2023 1:45:00 AM 14.51 58.118 0.287 8.28 4.47 8.75
4/27/2023 2:00:00 AM 14.51 58.118 0.287 8.29 4.42 8.68
4/27/2023 2:15:00 AM 14.51 58.118 0.287 8.32 4.5 8.6
4/27/2023 2:30:00 AM 14.51 58.118 0.287 8.26 4.42 8.52
4/27/2023 2:45:00 AM 14.51 58.118 0.287 8.27 4.39 8.45
4/27/2023 3:00:00 AM 14.5 58.1 0.287 8.23 4.43 8.4
4/27/2023 3:15:00 AM 14.5 58.1 0.287 8.21 4.39 8.32
4/27/2023 3:30:00 AM 14.5 58.1 0.287 8.2 4.34 8.31
4/27/2023 3:45:00 AM 14.49 58.082 0.288 8.21 4.41 8.25
4/27/2023 4:00:00 AM 14.49 58.082 0.288 8.24 4.28 8.16
4/27/2023 4:15:00 AM 14.49 58.082 0.288 8.21 4.33 8.13
4/27/2023 4:30:00 AM 14.49 58.082 0.288 8.14 4.28 8.05
4/27/2023 4:45:00 AM 14.49 58.082 0.288 8.17 4.35 7.93
4/27/2023 5:00:00 AM 14.48 58.064 0.288 8.15 4.33 7.9
4/27/2023 5:15:00 AM 14.48 58.064 0.288 8.16 4.43 7.79
4/27/2023 5:30:00 AM 14.48 58.064 0.288 8.17 4.33 7.75
4/27/2023 5:45:00 AM 14.48 58.064 0.289 8.13 4.26 7.6
4/27/2023 6:00:00 AM 14.48 58.064 0.289 8.12 4.29 7.41
4/27/2023 6:15:00 AM 14.48 58.064 0.289 8.18 4.36 7.42
4/27/2023 6:30:00 AM 14.47 58.046 0.289 8.09 4.26 7.33
4/27/2023 6:45:00 AM 14.48 58.064 0.289 8.14 4.26 7.23
4/27/2023 7:00:00 AM 14.47 58.046 0.289 8.08 4.25 7.14
4/27/2023 7:15:00 AM 14.26 57.668 0.292 8.02 7.83 9.14
4/27/2023 7:30:00 AM 13.97 57.146 0.301 8.31 11.31 9.58
4/27/2023 7:45:00 AM 13.86 56.948 0.305 8.39 12.34 9.64
4/27/2023 8:00:00 AM 13.79 56.822 0.306 8.43 12.97 9.66
4/27/2023 8:15:00 AM 13.75 56.75 0.307 8.43 11.46 9.68
4/27/2023 8:30:00 AM 13.71 56.678 0.306 8.45 11.81 9.71
4/27/2023 8:45:00 AM 13.69 56.642 0.305 8.46 10.18 9.71
4/27/2023 9:00:00 AM 13.67 56.606 0.304 8.47 12.41 9.75
4/27/2023 9:15:00 AM 13.66 56.588 0.303 8.47 12.11 9.75
4/27/2023 9:30:00 AM 13.65 56.57 0.302 8.48 12.39 9.78
4/27/2023 9:45:00 AM 13.64 56.552 0.301 8.47 9.81 9.78
4/27/2023 10:00:00 AM 13.65 56.57 0.299 8.48 12.57 9.81
4/27/2023 10:15:00 AM 13.66 56.588 0.298 8.49 12.68 9.84
4/27/2023 10:30:00 AM 13.69 56.642 0.297 8.49 13.01 9.87
4/27/2023 10:45:00 AM 13.73 56.714 0.295 8.51 12.62 9.94
4/27/2023 11:00:00 AM 13.76 56.768 0.294 8.52 12.2 9.99
4/27/2023 11:15:00 AM 13.77 56.786 0.292 8.53 13.56 10.01
4/27/2023 11:30:00 AM 13.77 56.786 0.291 8.52 12.62 10.01
4/27/2023 11:45:00 AM 13.78 56.804 0.29 8.54 13.32 10.04
4/27/2023 12:00:00 PM 13.79 56.822 0.289 8.54 12.66 10.09
4/27/2023 12:15:00 PM 13.81 56.858 0.287 8.55 12.47 10.13
4/27/2023 12:30:00 PM 13.87 56.966 0.286 8.57 12.92 10.15
4/27/2023 12:45:00 PM 13.95 57.11 0.285 8.58 14.26 10.23
4/27/2023 1:00:00 PM 13.99 57.182 0.284 8.54 8.46 10.08
4/27/2023 1:15:00 PM 14.01 57.218 0.285 8.49 6.69 9.84
4/27/2023 1:30:00 PM 14.12 57.416 0.283 8.54 8.11 10.05
4/27/2023 1:45:00 PM 14.18 57.524 0.283 8.54 7.45 10.02
4/27/2023 2:00:00 PM 14.22 57.596 0.282 8.51 8.26 9.87
4/27/2023 2:15:00 PM 14.31 57.758 0.281 8.57 9.41 10.08
4/27/2023 2:30:00 PM 14.37 57.866 0.28 8.57 7.62 10.12
4/27/2023 2:45:00 PM 14.41 57.938 0.28 8.53 7.71 10.02
4/27/2023 3:00:00 PM 14.49 58.082 0.279 8.56 7.76 10.1
4/27/2023 3:15:00 PM 14.57 58.226 0.278 8.59 7.36 10.23
4/27/2023 3:30:00 PM 14.58 58.244 0.277 8.52 6.42 10.05
4/27/2023 3:45:00 PM 14.59 58.262 0.277 8.51 6.63 10.22
4/27/2023 4:00:00 PM 14.59 58.262 0.276 8.56 6.11 10.24
4/27/2023 4:15:00 PM 14.59 58.262 0.276 8.57 7.1 10.22
4/27/2023 4:30:00 PM 14.59 58.262 0.276 8.55 6.63 10.22
4/27/2023 4:45:00 PM 14.59 58.262 0.276 8.55 5.98 10.17
4/27/2023 5:00:00 PM 14.58 58.244 0.276 8.52 5.98 10.04
4/27/2023 5:15:00 PM 14.57 58.226 0.276 8.47 5.89 9.92
4/27/2023 5:30:00 PM 14.57 58.226 0.276 8.51 6.01 9.93
4/27/2023 5:45:00 PM 14.56 58.208 0.277 8.44 5.83 9.77
4/27/2023 6:00:00 PM 14.56 58.208 0.277 8.43 5.58 9.77
4/27/2023 6:15:00 PM 14.56 58.208 0.277 8.41 5.29 9.65
4/27/2023 6:30:00 PM 14.55 58.19 0.277 8.4 5.29 9.62
4/27/2023 6:45:00 PM 14.55 58.19 0.277 8.4 5.2 9.59
4/27/2023 7:00:00 PM 14.55 58.19 0.277 8.37 5.32 9.57
4/27/2023 7:15:00 PM 14.55 58.19 0.277 8.38 5.11 9.52
4/27/2023 7:30:00 PM 14.55 58.19 0.277 8.36 4.99 9.51
4/27/2023 7:45:00 PM 14.54 58.172 0.277 8.35 5.08 9.49
4/27/2023 8:00:00 PM 14.54 58.172 0.277 8.36 4.92 9.39
4/27/2023 8:15:00 PM 14.54 58.172 0.277 8.35 4.95 9.39
4/27/2023 8:30:00 PM 14.53 58.154 0.277 8.33 4.84 9.35
4/27/2023 8:45:00 PM 14.53 58.154 0.277 8.32 4.79 9.28
4/27/2023 9:00:00 PM 14.53 58.154 0.277 8.3 4.79 9.22
4/27/2023 9:15:00 PM 14.53 58.154 0.277 8.3 4.71 9.19
4/27/2023 9:30:00 PM 14.53 58.154 0.277 8.29 4.82 9.19
4/27/2023 9:45:00 PM 14.52 58.136 0.277 8.28 4.71 9.09
4/27/2023 10:00:00 PM 14.52 58.136 0.277 8.26 4.76 9.01
4/27/2023 10:15:00 PM 14.52 58.136 0.277 8.26 4.62 9.01
4/27/2023 10:30:00 PM 14.51 58.118 0.277 8.25 4.62 9.02
4/27/2023 10:45:00 PM 14.51 58.118 0.277 8.23 4.57 8.9
4/27/2023 11:00:00 PM 14.51 58.118 0.277 8.24 4.61 8.88
4/27/2023 11:15:00 PM 14.51 58.118 0.278 8.23 4.52 8.86
4/27/2023 11:30:00 PM 14.51 58.118 0.278 8.21 4.5 8.71
4/27/2023 11:45:00 PM 14.51 58.118 0.278 8.19 4.55 8.63
4/28/2023 12:00:00 AM 14.5 58.1 0.278 8.2 4.53 8.83
4/28/2023 12:15:00 AM 14.5 58.1 0.278 8.19 4.51 8.65
4/28/2023 12:30:00 AM 14.5 58.1 0.278 8.17 4.49 8.55
4/28/2023 12:45:00 AM 14.5 58.1 0.278 8.16 4.58 8.46
4/28/2023 1:00:00 AM 14.5 58.1 0.278 8.15 4.45 8.44
4/28/2023 1:15:00 AM 14.49 58.082 0.278 8.16 4.45 8.54
4/28/2023 1:30:00 AM 14.49 58.082 0.278 8.16 4.48 8.59
4/28/2023 1:45:00 AM 14.49 58.082 0.278 8.17 4.58 8.8
4/28/2023 2:00:00 AM 14.48 58.064 0.278 8.16 4.68 8.92
4/28/2023 2:15:00 AM 14.48 58.064 0.278 8.15 4.6 8.8
4/28/2023 2:30:00 AM 14.48 58.064 0.278 8.16 4.49 8.71
4/28/2023 2:45:00 AM 14.48 58.064 0.278 8.16 4.45 8.55
4/28/2023 3:00:00 AM 14.48 58.064 0.278 8.14 4.4 8.42
4/28/2023 3:15:00 AM 14.48 58.064 0.278 8.12 4.37 8.33
4/28/2023 3:30:00 AM 14.47 58.046 0.278 8.15 4.38 8.2
4/28/2023 3:45:00 AM 14.47 58.046 0.279 8.11 4.32 8.1
4/28/2023 4:00:00 AM 14.47 58.046 0.279 8.07 4.33 8
4/28/2023 4:15:00 AM 14.47 58.046 0.279 8.11 4.28 7.9
4/28/2023 4:30:00 AM 14.47 58.046 0.279 8.07 4.3 7.79
4/28/2023 4:45:00 AM 14.46 58.028 0.279 8.07 4.25 7.7
4/28/2023 5:00:00 AM 14.46 58.028 0.279 8.04 4.32 7.67
4/28/2023 5:15:00 AM 14.46 58.028 0.279 8.04 4.29 7.58
4/28/2023 5:30:00 AM 14.46 58.028 0.279 8.06 4.29 7.51
4/28/2023 5:45:00 AM 14.46 58.028 0.279 8.01 4.3 7.43
4/28/2023 6:00:00 AM 14.45 58.01 0.279 8.02 4.22 7.46
4/28/2023 6:15:00 AM 14.45 58.01 0.279 8.03 4.15 7.43
4/28/2023 6:30:00 AM 14.45 58.01 0.279 8.02 4.31 7.38
4/28/2023 6:45:00 AM 14.44 57.992 0.279 8.02 4.18 7.32
4/28/2023 7:00:00 AM 14.46 58.028 0.279 8.11 10.55 8.1
4/28/2023 7:15:00 AM 14.24 57.632 0.277 8.03 6.56 8.96
4/28/2023 7:30:00 AM 14.13 57.434 0.269 8.17 6.72 9.18
4/28/2023 7:45:00 AM 14.04 57.272 0.263 8.25 7.79 9.38
4/28/2023 8:00:00 AM 13.97 57.146 0.259 8.3 8.24 9.48
4/28/2023 8:15:00 AM 13.92 57.056 0.257 8.32 7.1 9.49
4/28/2023 8:30:00 AM 13.88 56.984 0.256 8.34 7.87 9.48
4/28/2023 8:45:00 AM 13.84 56.912 0.255 8.34 8.98 9.46
4/28/2023 9:00:00 AM 13.8 56.84 0.255 8.34 7.15 9.5
4/28/2023 9:15:00 AM 13.77 56.786 0.255 8.33 8.06 9.46
4/28/2023 9:30:00 AM 13.75 56.75 0.254 8.34 7.29 9.5
4/28/2023 9:45:00 AM 13.72 56.696 0.254 8.35 8.29 9.5
4/28/2023 10:00:00 AM 13.7 56.66 0.254 8.34 7 9.47
4/28/2023 10:15:00 AM 13.67 56.606 0.253 8.35 7.75 9.53
4/28/2023 10:30:00 AM 13.65 56.57 0.253 8.36 7.09 9.5
4/28/2023 10:45:00 AM 13.62 56.516 0.253 8.33 7.84 9.49
4/28/2023 11:00:00 AM 13.6 56.48 0.252 8.36 7.05 9.53
4/28/2023 11:15:00 AM 13.58 56.444 0.252 8.37 7.51 9.59
4/28/2023 11:30:00 AM 13.56 56.408 0.252 8.34 7.15 9.56
4/28/2023 11:45:00 AM 13.54 56.372 0.253 8.34 7.26 9.51
4/28/2023 12:00:00 PM 13.52 56.336 0.252 8.37 7.24 9.6
4/28/2023 12:15:00 PM 13.51 56.318 0.25 8.37 7.4 9.64
4/28/2023 12:30:00 PM 13.49 56.282 0.25 8.36 8.05 9.63
4/28/2023 12:45:00 PM 13.49 56.282 0.249 8.37 7.02 9.73
4/28/2023 1:00:00 PM 13.49 56.282 0.249 8.37 7.03 9.65
4/28/2023 1:15:00 PM 13.49 56.282 0.25 8.38 7.09 9.7
4/28/2023 1:30:00 PM 13.49 56.282 0.249 8.38 7.75 9.72
4/28/2023 1:45:00 PM 13.49 56.282 0.25 8.37 6.93 9.58
4/28/2023 2:00:00 PM 13.49 56.282 0.248 8.38 6.63 9.71
4/28/2023 2:15:00 PM 13.48 56.264 0.248 8.38 7.08 9.73
4/28/2023 2:30:00 PM 13.47 56.246 0.248 8.4 7.17 9.77
4/28/2023 2:45:00 PM 13.47 56.246 0.248 8.4 6.62 9.77
4/28/2023 3:00:00 PM 13.46 56.228 0.246 8.41 7.76 9.9
4/28/2023 3:15:00 PM 13.46 56.228 0.246 8.36 6.16 9.68
4/28/2023 3:30:00 PM 13.46 56.228 0.246 8.32 5.94 9.66
4/28/2023 3:45:00 PM 13.46 56.228 0.246 8.34 6 9.68
4/28/2023 4:00:00 PM 13.46 56.228 0.246 8.33 5.58 9.6
4/28/2023 4:15:00 PM 13.46 56.228 0.246 8.31 5.71 9.58
4/28/2023 4:30:00 PM 13.46 56.228 0.246 8.32 5.64 9.58
4/28/2023 4:45:00 PM 13.46 56.228 0.246 8.3 5.59 9.49
4/28/2023 5:00:00 PM 13.46 56.228 0.246 8.28 5.77 9.46
4/28/2023 5:15:00 PM 13.46 56.228 0.246 8.28 5.37 9.4
4/28/2023 5:30:00 PM 13.46 56.228 0.246 8.28 5.04 9.32
4/28/2023 5:45:00 PM 13.46 56.228 0.246 8.26 5.13 9.31
4/28/2023 6:00:00 PM 13.46 56.228 0.246 8.25 5.02 9.26
4/28/2023 6:15:00 PM 13.46 56.228 0.247 8.23 5.2 9.17
4/28/2023 6:30:00 PM 13.46 56.228 0.247 8.22 4.86 9.06
4/28/2023 6:45:00 PM 13.46 56.228 0.247 8.19 4.91 9.07
4/28/2023 7:00:00 PM 13.46 56.228 0.247 8.2 4.83 8.98
4/28/2023 7:15:00 PM 13.46 56.228 0.247 8.17 4.79 8.89
4/28/2023 7:30:00 PM 13.46 56.228 0.248 8.16 4.78 8.75
4/28/2023 7:45:00 PM 13.46 56.228 0.248 8.14 4.7 8.71
4/28/2023 8:00:00 PM 13.46 56.228 0.249 8.11 4.62 8.54
4/28/2023 8:15:00 PM 13.47 56.246 0.248 8.1 4.66 8.46
4/28/2023 8:30:00 PM 13.47 56.246 0.248 8.08 4.56 8.35
4/28/2023 8:45:00 PM 13.47 56.246 0.248 8.06 4.54 8.25
4/28/2023 9:00:00 PM 13.47 56.246 0.248 8.06 4.47 8.2
4/28/2023 9:15:00 PM 13.47 56.246 0.248 8.04 4.53 8.11
4/28/2023 9:30:00 PM 13.47 56.246 0.249 8.03 4.5 8.04
4/28/2023 9:45:00 PM 13.47 56.246 0.249 8.01 5.04 8.02
4/28/2023 10:00:00 PM 13.47 56.246 0.249 8.01 4.49 8.04
4/28/2023 10:15:00 PM 13.47 56.246 0.248 8.01 4.62 8.18
4/28/2023 10:30:00 PM 13.47 56.246 0.248 8.02 4.49 8.14
4/28/2023 10:45:00 PM 13.47 56.246 0.249 7.99 4.43 7.92
4/28/2023 11:00:00 PM 13.47 56.246 0.249 7.98 4.43 7.83
4/28/2023 11:15:00 PM 13.47 56.246 0.249 7.96 4.43 7.77
4/28/2023 11:30:00 PM 13.47 56.246 0.249 7.96 4.43 7.74
4/28/2023 11:45:00 PM 13.48 56.264 0.249 7.95 4.42 7.74
4/29/2023 12:00:00 AM 13.48 56.264 0.249 7.96 4.42 7.69
4/29/2023 12:15:00 AM 13.48 56.264 0.249 7.95 4.39 7.63
4/29/2023 12:30:00 AM 13.48 56.264 0.249 7.94 4.4 7.56
4/29/2023 12:45:00 AM 13.48 56.264 0.249 7.92 4.4 7.43
4/29/2023 1:00:00 AM 13.48 56.264 0.25 7.93 4.45 7.35
4/29/2023 1:15:00 AM 13.48 56.264 0.25 7.93 4.45 7.33
4/29/2023 1:30:00 AM 13.48 56.264 0.25 7.92 4.38 7.31
4/29/2023 1:45:00 AM 13.48 56.264 0.25 7.92 4.36 7.34
4/29/2023 2:00:00 AM 13.48 56.264 0.25 7.91 4.39 7.27
4/29/2023 2:15:00 AM 13.48 56.264 0.25 7.9 4.35 7.13
4/29/2023 2:30:00 AM 13.48 56.264 0.25 7.9 4.42 7.06
4/29/2023 2:45:00 AM 13.48 56.264 0.25 7.89 4.36 7.01
4/29/2023 3:00:00 AM 13.48 56.264 0.25 7.89 4.33 6.94
4/29/2023 3:15:00 AM 13.48 56.264 0.25 7.88 4.33 6.86
4/29/2023 3:30:00 AM 13.48 56.264 0.25 7.89 4.31 6.79
4/29/2023 3:45:00 AM 13.48 56.264 0.25 7.88 4.45 6.68
4/29/2023 4:00:00 AM 13.48 56.264 0.25 7.86 4.37 6.61
4/29/2023 4:15:00 AM 13.48 56.264 0.251 7.86 4.41 6.6
4/29/2023 4:30:00 AM 13.48 56.264 0.251 7.85 4.32 6.53
4/29/2023 4:45:00 AM 13.48 56.264 0.251 7.86 4.46 6.48
4/29/2023 5:00:00 AM 13.48 56.264 0.251 7.84 4.36 6.46
4/29/2023 5:15:00 AM 13.48 56.264 0.251 7.84 4.41 6.32
4/29/2023 5:30:00 AM 13.47 56.246 0.251 7.84 4.36 6.34
4/29/2023 5:45:00 AM 13.47 56.246 0.251 7.84 4.31 6.3
4/29/2023 6:00:00 AM 13.47 56.246 0.251 7.83 4.61 6.38
4/29/2023 6:15:00 AM 13.47 56.246 0.251 7.83 4.35 6.3
4/29/2023 6:30:00 AM 13.47 56.246 0.251 7.83 4.39 6.24
4/29/2023 6:45:00 AM 13.47 56.246 0.251 7.83 4.38 6.35
4/29/2023 7:00:00 AM 13.47 56.246 0.251 7.8 4.42 6.24
4/29/2023 7:15:00 AM 13.48 56.264 0.252 7.97 5.67 7.14
4/29/2023 7:30:00 AM 13.38 56.084 0.251 7.86 6.75 8.2
4/29/2023 7:45:00 AM 13.03 55.454 0.246 7.99 7.58 8.97
4/29/2023 8:00:00 AM 12.8 55.04 0.241 8.09 7.86 9.2
4/29/2023 8:15:00 AM 12.68 54.824 0.239 8.15 8.92 9.18
4/29/2023 8:30:00 AM 12.6 54.68 0.238 8.19 8.09 9.4
4/29/2023 8:45:00 AM 12.56 54.608 0.237 8.22 8.18 9.48
4/29/2023 9:00:00 AM 12.54 54.572 0.237 8.24 8.68 9.55
4/29/2023 9:15:00 AM 12.53 54.554 0.237 8.24 7.52 9.53
4/29/2023 9:30:00 AM 12.53 54.554 0.237 8.25 8.38 9.56
4/29/2023 9:45:00 AM 12.53 54.554 0.237 8.27 8.43 9.59
4/29/2023 10:00:00 AM 12.54 54.572 0.237 8.26 7.83 9.58
4/29/2023 10:15:00 AM 12.54 54.572 0.237 8.26 8.15 9.61
4/29/2023 10:30:00 AM 12.55 54.59 0.238 8.25 7.46 9.59
4/29/2023 10:45:00 AM 12.55 54.59 0.238 8.28 7.7 9.61
4/29/2023 11:00:00 AM 12.55 54.59 0.238 8.27 7.84 9.59
4/29/2023 11:15:00 AM 12.55 54.59 0.238 8.28 8 9.64
4/29/2023 11:30:00 AM 12.55 54.59 0.239 8.27 7.3 9.58
4/29/2023 11:45:00 AM 12.56 54.608 0.239 8.28 6.94 9.68
4/29/2023 12:00:00 PM 12.56 54.608 0.239 8.29 6.85 9.66
4/29/2023 12:15:00 PM 12.57 54.626 0.239 8.28 7.19 9.55
4/29/2023 12:30:00 PM 12.57 54.626 0.239 8.29 7.08 9.69
4/29/2023 12:45:00 PM 12.58 54.644 0.239 8.3 7.12 9.64
4/29/2023 1:00:00 PM 12.58 54.644 0.24 8.27 6.53 9.65
4/29/2023 1:15:00 PM 12.58 54.644 0.24 8.28 6.61 9.62
4/29/2023 1:30:00 PM 12.59 54.662 0.24 8.28 6.78 9.63
4/29/2023 1:45:00 PM 12.59 54.662 0.24 8.29 7.55 9.69
4/29/2023 2:00:00 PM 12.6 54.68 0.24 8.24 5.38 9.46
4/29/2023 2:15:00 PM 12.6 54.68 0.241 8.19 5.44 9.25
4/29/2023 2:30:00 PM 12.62 54.716 0.241 8.29 7.83 9.63
4/29/2023 2:45:00 PM 12.65 54.77 0.242 8.32 7.75 9.75
4/29/2023 3:00:00 PM 12.68 54.824 0.242 8.34 7.75 9.93
4/29/2023 3:15:00 PM 12.68 54.824 0.242 8.28 6.31 9.77
4/29/2023 3:30:00 PM 12.68 54.824 0.242 8.26 6.02 9.66
4/29/2023 3:45:00 PM 12.69 54.842 0.242 8.25 5.44 9.62
4/29/2023 4:00:00 PM 12.69 54.842 0.242 8.24 5.71 9.61
4/29/2023 4:15:00 PM 12.69 54.842 0.242 8.23 5.57 9.54
4/29/2023 4:30:00 PM 12.69 54.842 0.242 8.21 5.16 9.47
4/29/2023 4:45:00 PM 12.69 54.842 0.242 8.21 5.18 9.42
4/29/2023 5:00:00 PM 12.69 54.842 0.242 8.2 5.09 9.44
4/29/2023 5:15:00 PM 12.69 54.842 0.243 8.2 5.12 9.41
4/29/2023 5:30:00 PM 12.69 54.842 0.243 8.2 5.12 9.37
4/29/2023 5:45:00 PM 12.69 54.842 0.243 8.18 4.97 9.33
4/29/2023 6:00:00 PM 12.69 54.842 0.243 8.18 4.97 9.31
4/29/2023 6:15:00 PM 12.69 54.842 0.243 8.18 5.06 9.33
4/29/2023 6:30:00 PM 12.69 54.842 0.243 8.17 4.93 9.27
4/29/2023 6:45:00 PM 12.69 54.842 0.243 8.16 4.88 9.25
4/29/2023 7:00:00 PM 12.69 54.842 0.243 8.14 4.92 9.21
4/29/2023 7:15:00 PM 12.69 54.842 0.243 8.12 4.91 9.13
4/29/2023 7:30:00 PM 12.69 54.842 0.243 8.12 4.87 9.12
4/29/2023 7:45:00 PM 12.7 54.86 0.243 8.1 4.8 9.1
4/29/2023 8:00:00 PM 12.7 54.86 0.244 8.07 4.71 9.02
4/29/2023 8:15:00 PM 12.7 54.86 0.244 8.04 4.66 8.96
4/29/2023 8:30:00 PM 12.7 54.86 0.244 8.03 4.64 8.85
4/29/2023 8:45:00 PM 12.7 54.86 0.244 8.01 4.58 8.87
4/29/2023 9:00:00 PM 12.7 54.86 0.244 7.99 4.56 8.78
4/29/2023 9:15:00 PM 12.7 54.86 0.245 7.97 4.56 8.69
4/29/2023 9:30:00 PM 12.7 54.86 0.245 7.94 4.57 8.6
4/29/2023 9:45:00 PM 12.7 54.86 0.245 7.94 4.6 8.64
4/29/2023 10:00:00 PM 12.7 54.86 0.245 7.93 4.73 8.55
4/29/2023 10:15:00 PM 12.71 54.878 0.245 7.92 4.51 8.52
4/29/2023 10:30:00 PM 12.7 54.86 0.245 7.91 4.48 8.4
4/29/2023 10:45:00 PM 12.7 54.86 0.245 7.89 4.48 8.34
4/29/2023 11:00:00 PM 12.71 54.878 0.245 7.89 4.47 8.23
4/29/2023 11:15:00 PM 12.71 54.878 0.245 7.87 4.48 8.13
4/29/2023 11:30:00 PM 12.71 54.878 0.245 7.88 4.42 8.09
4/29/2023 11:45:00 PM 12.71 54.878 0.246 7.87 4.43 8.03
4/30/2023 12:00:00 AM 12.71 54.878 0.246 7.86 4.44 7.97
4/30/2023 12:15:00 AM 12.71 54.878 0.246 7.86 4.43 7.86
4/30/2023 12:30:00 AM 12.71 54.878 0.246 7.85 4.34 7.76
4/30/2023 12:45:00 AM 12.71 54.878 0.246 7.85 4.38 7.75
4/30/2023 1:00:00 AM 12.71 54.878 0.246 7.83 4.36 7.68
4/30/2023 1:15:00 AM 12.71 54.878 0.246 7.83 4.39 7.68
4/30/2023 1:30:00 AM 12.71 54.878 0.246 7.82 4.35 7.71
4/30/2023 1:45:00 AM 12.71 54.878 0.246 7.82 4.35 7.65
4/30/2023 2:00:00 AM 12.71 54.878 0.246 7.81 4.38 7.59
4/30/2023 2:15:00 AM 12.71 54.878 0.246 7.81 4.37 7.62
4/30/2023 2:30:00 AM 12.71 54.878 0.246 7.8 4.4 7.61
4/30/2023 2:45:00 AM 12.72 54.896 0.246 7.79 4.41 7.63
4/30/2023 3:00:00 AM 12.72 54.896 0.246 7.79 4.4 7.57
4/30/2023 3:15:00 AM 12.72 54.896 0.246 7.79 4.39 7.66
4/30/2023 3:30:00 AM 12.72 54.896 0.246 7.78 4.4 7.62
4/30/2023 3:45:00 AM 12.72 54.896 0.246 7.78 4.37 7.57
4/30/2023 4:00:00 AM 12.72 54.896 0.246 7.77 4.38 7.51
4/30/2023 4:15:00 AM 12.72 54.896 0.247 7.77 4.44 7.39
4/30/2023 4:30:00 AM 12.72 54.896 0.247 7.77 4.42 7.4
4/30/2023 4:45:00 AM 12.72 54.896 0.247 7.75 4.36 7.38
4/30/2023 5:00:00 AM 12.72 54.896 0.247 7.76 4.39 7.37
4/30/2023 5:15:00 AM 12.72 54.896 0.247 7.75 4.54 7.32
4/30/2023 5:30:00 AM 12.72 54.896 0.247 7.75 4.32 7.31
4/30/2023 5:45:00 AM 12.72 54.896 0.247 7.75 4.36 7.19
4/30/2023 6:00:00 AM 12.72 54.896 0.247 7.73 4.38 7.1
4/30/2023 6:15:00 AM 12.72 54.896 0.247 7.74 4.33 7.06
4/30/2023 6:30:00 AM 12.72 54.896 0.247 7.74 4.3 7.05
4/30/2023 6:45:00 AM 12.72 54.896 0.247 7.74 4.33 7.06
4/30/2023 7:00:00 AM 12.72 54.896 0.247 7.72 4.31 7
4/30/2023 7:15:00 AM 12.72 54.896 0.247 7.72 4.64 6.93
4/30/2023 7:30:00 AM 12.73 54.914 0.247 7.82 5.04 7.44
4/30/2023 7:45:00 AM 12.72 54.896 0.246 7.83 5.28 8.29
4/30/2023 8:00:00 AM 12.66 54.788 0.244 7.92 6.45 8.56
4/30/2023 8:15:00 AM 12.6 54.68 0.242 8.02 6.65 9.04
4/30/2023 8:30:00 AM 12.56 54.608 0.24 8.08 6.66 9.25
4/30/2023 8:45:00 AM 12.54 54.572 0.239 8.09 7.46 9.26
4/30/2023 9:00:00 AM 12.51 54.518 0.238 8.17 7.76 9.5
4/30/2023 9:15:00 AM 12.48 54.464 0.237 8.21 8.41 9.54
4/30/2023 9:30:00 AM 12.46 54.428 0.236 8.22 11.94 9.61
4/30/2023 9:45:00 AM 12.44 54.392 0.235 8.24 11.87 9.64
4/30/2023 10:00:00 AM 12.42 54.356 0.234 8.24 11.17 9.66
4/30/2023 10:15:00 AM 12.41 54.338 0.233 8.23 10.14 9.64
4/30/2023 10:30:00 AM 12.39 54.302 0.232 8.23 11.2 9.65
4/30/2023 10:45:00 AM 12.38 54.284 0.232 8.23 11.17 9.64
4/30/2023 11:00:00 AM 12.37 54.266 0.231 8.23 11.41 9.63
4/30/2023 11:15:00 AM 12.36 54.248 0.23 8.22 11.93 9.63
4/30/2023 11:30:00 AM 12.34 54.212 0.23 8.22 11.31 9.64
4/30/2023 11:45:00 AM 12.34 54.212 0.229 8.23 11.68 9.67
4/30/2023 12:00:00 PM 12.33 54.194 0.228 8.23 11.11 9.67
4/30/2023 12:15:00 PM 12.32 54.176 0.228 8.23 11.3 9.68
4/30/2023 12:30:00 PM 12.32 54.176 0.227 8.23 10.25 9.68
4/30/2023 12:45:00 PM 12.32 54.176 0.227 8.23 10.4 9.68
4/30/2023 1:00:00 PM 12.31 54.158 0.226 8.22 12.58 9.68
4/30/2023 1:15:00 PM 12.31 54.158 0.226 8.22 14.11 9.66
4/30/2023 1:30:00 PM 12.3 54.14 0.225 8.22 21.15 9.68
4/30/2023 1:45:00 PM 12.31 54.158 0.225 8.22 15.51 9.67
4/30/2023 2:00:00 PM 12.32 54.176 0.224 8.21 18.27 9.68
4/30/2023 2:15:00 PM 12.33 54.194 0.224 8.21 16.97 9.69
4/30/2023 2:30:00 PM 12.33 54.194 0.224 8.21 18.27 9.7
4/30/2023 2:45:00 PM 12.33 54.194 0.223 8.19 13.75 9.65
4/30/2023 3:00:00 PM 12.34 54.212 0.223 8.17 11.79 9.48
4/30/2023 3:15:00 PM 12.34 54.212 0.224 8.16 10.78 9.43
4/30/2023 3:30:00 PM 12.34 54.212 0.224 8.12 10.56 9.32
4/30/2023 3:45:00 PM 12.34 54.212 0.224 8.14 10.02 9.33
4/30/2023 4:00:00 PM 12.34 54.212 0.224 8.1 9.97 9.34
4/30/2023 4:15:00 PM 12.34 54.212 0.224 8.11 10.12 9.31
4/30/2023 4:30:00 PM 12.34 54.212 0.224 8.12 10.29 9.32
4/30/2023 4:45:00 PM 12.34 54.212 0.224 8.1 9.83 9.28
4/30/2023 5:00:00 PM 12.34 54.212 0.224 8.08 9.09 9.24
4/30/2023 5:15:00 PM 12.34 54.212 0.224 8.06 9.39 9.19
4/30/2023 5:30:00 PM 12.34 54.212 0.224 8.07 9.32 9.17
4/30/2023 5:45:00 PM 12.34 54.212 0.224 8.04 9.23 9.14
4/30/2023 6:00:00 PM 12.34 54.212 0.224 8.04 9.13 9.09
4/30/2023 6:15:00 PM 12.34 54.212 0.225 8.01 8.99 9.04
4/30/2023 6:30:00 PM 12.34 54.212 0.225 7.98 8.71 9.04
4/30/2023 6:45:00 PM 12.35 54.23 0.225 7.94 8.58 8.96
4/30/2023 7:00:00 PM 12.35 54.23 0.226 7.92 8.35 8.91
4/30/2023 7:15:00 PM 12.35 54.23 0.226 7.91 8.21 8.87
4/30/2023 7:30:00 PM 12.35 54.23 0.226 7.89 8.38 8.85
4/30/2023 7:45:00 PM 12.35 54.23 0.226 7.87 8.47 8.83
4/30/2023 8:00:00 PM 12.35 54.23 0.226 7.88 8.1 8.8
4/30/2023 8:15:00 PM 12.35 54.23 0.226 7.88 8.31 8.8
4/30/2023 8:30:00 PM 12.35 54.23 0.226 7.88 7.93 8.76
4/30/2023 8:45:00 PM 12.35 54.23 0.226 7.88 8.02 8.76
4/30/2023 9:00:00 PM 12.35 54.23 0.226 7.88 8.04 8.71
4/30/2023 9:15:00 PM 12.35 54.23 0.226 7.89 7.91 8.67
4/30/2023 9:30:00 PM 12.35 54.23 0.225 7.89 7.75 8.74
4/30/2023 9:45:00 PM 12.35 54.23 0.225 7.89 7.75 8.66
4/30/2023 10:00:00 PM 12.35 54.23 0.225 7.9 7.9 8.65
4/30/2023 10:15:00 PM 12.36 54.248 0.225 7.9 8.07 8.69
4/30/2023 10:30:00 PM 12.36 54.248 0.225 7.89 7.84 8.63
4/30/2023 10:45:00 PM 12.36 54.248 0.225 7.88 7.66 8.54
4/30/2023 11:00:00 PM 12.36 54.248 0.225 7.87 7.67 8.49
4/30/2023 11:15:00 PM 12.36 54.248 0.225 7.88 7.66 8.5
4/30/2023 11:30:00 PM 12.37 54.266 0.225 7.86 7.65 8.44
4/30/2023 11:45:00 PM 12.37 54.266 0.225 7.86 7.55 8.43
5/1/2023 12:00:00 AM 12.37 54.266 0.225 7.86 7.44 8.4
5/1/2023 12:15:00 AM 12.37 54.266 0.225 7.85 7.26 8.38
5/1/2023 12:30:00 AM 12.37 54.266 0.226 7.84 7.57 8.33
5/1/2023 12:45:00 AM 12.37 54.266 0.226 7.82 7.4 8.28
5/1/2023 1:00:00 AM 12.37 54.266 0.225 7.83 7.46 8.32
5/1/2023 1:15:00 AM 12.37 54.266 0.225 7.83 7.59 8.38
5/1/2023 1:30:00 AM 12.37 54.266 0.225 7.83 7.37 8.36
5/1/2023 1:45:00 AM 12.37 54.266 0.225 7.82 7.65 8.35
5/1/2023 2:00:00 AM 12.37 54.266 0.225 7.82 7.6 8.33
5/1/2023 2:15:00 AM 12.37 54.266 0.225 7.82 7.68 8.35
5/1/2023 2:30:00 AM 12.37 54.266 0.225 7.81 7.48 8.3
5/1/2023 2:45:00 AM 12.37 54.266 0.225 7.81 7.69 8.32
5/1/2023 3:00:00 AM 12.37 54.266 0.225 7.8 7.54 8.28
5/1/2023 3:15:00 AM 12.37 54.266 0.225 7.81 7.73 8.29
5/1/2023 3:30:00 AM 12.37 54.266 0.225 7.81 7.79 8.27
5/1/2023 3:45:00 AM 12.37 54.266 0.225 7.81 7.91 8.26
5/1/2023 4:00:00 AM 12.37 54.266 0.225 7.8 7.89 8.24
5/1/2023 4:15:00 AM 12.37 54.266 0.224 7.8 7.96 8.14
5/1/2023 4:30:00 AM 12.36 54.248 0.224 7.79 8.12 8.05
5/1/2023 4:45:00 AM 12.36 54.248 0.224 7.79 8.46 8.04
5/1/2023 5:00:00 AM 12.36 54.248 0.223 7.78 8.74 8.06
5/1/2023 5:15:00 AM 12.35 54.23 0.222 7.78 9.04 8.03
5/1/2023 5:30:00 AM 12.35 54.23 0.222 7.77 9.23 7.98
5/1/2023 5:45:00 AM 12.35 54.23 0.221 7.77 9.67 7.92
5/1/2023 6:00:00 AM 12.34 54.212 0.221 7.77 9.77 7.89
5/1/2023 6:15:00 AM 12.34 54.212 0.22 7.76 10.43 7.89
5/1/2023 6:30:00 AM 12.34 54.212 0.22 7.76 10.11 7.81
5/1/2023 6:45:00 AM 12.33 54.194 0.219 7.76 10.43 7.8
5/1/2023 7:00:00 AM 12.34 54.212 0.22 7.8 8.94 7.83
5/1/2023 7:15:00 AM 11.37 52.466 0.177 7.85 170.52 9.31
5/1/2023 7:30:00 AM 11.01 51.818 0.151 7.82 134.17 9.53
5/1/2023 7:45:00 AM 11.02 51.836 0.151 7.81 111.93 9.54
5/1/2023 8:00:00 AM 11 51.8 0.15 7.81 140.75 9.54
5/1/2023 8:15:00 AM 10.98 51.764 0.15 7.83 102.5 9.56
5/1/2023 8:30:00 AM 10.99 51.782 0.152 7.83 111.94 9.55
5/1/2023 8:45:00 AM 10.97 51.746 0.152 7.82 96.21 9.56
5/1/2023 9:00:00 AM 10.98 51.764 0.153 7.83 106.06 9.56
5/1/2023 9:15:00 AM 10.98 51.764 0.154 7.84 111.25 9.57
5/1/2023 9:30:00 AM 10.98 51.764 0.154 7.84 104.79 9.58
5/1/2023 9:45:00 AM 10.99 51.782 0.156 7.83 75.68 9.55
5/1/2023 10:00:00 AM 11 51.8 0.156 7.79 70.05 9.56
5/1/2023 10:15:00 AM 11 51.8 0.157 7.81 81.11 9.56
5/1/2023 10:30:00 AM 11.01 51.818 0.157 7.82 78.68 9.55
5/1/2023 10:45:00 AM 11.02 51.836 0.158 7.82 94.54 9.54
5/1/2023 11:00:00 AM 11.08 51.944 0.161 7.82 82.67 9.5
5/1/2023 11:15:00 AM 11.06 51.908 0.16 7.8 76.76 9.51
5/1/2023 11:30:00 AM 11.08 51.944 0.16 7.8 105.22 9.51
5/1/2023 11:45:00 AM 11.1 51.98 0.16 7.79 85.07 9.51
5/1/2023 12:00:00 PM 11.11 51.998 0.161 7.75 77.88 9.5
5/1/2023 12:15:00 PM 11.15 52.07 0.161 7.77 82.32 9.51
5/1/2023 12:30:00 PM 11.18 52.124 0.161 7.79 92.53 9.52
5/1/2023 12:45:00 PM 11.21 52.178 0.162 7.79 83.27 9.51
5/1/2023 1:00:00 PM 11.22 52.196 0.162 7.78 87.46 9.52
5/1/2023 1:15:00 PM 11.22 52.196 0.163 7.79 99.4 9.51
5/1/2023 1:30:00 PM 11.25 52.25 0.164 7.79 75.72 9.51
5/1/2023 1:45:00 PM 11.3 52.34 0.166 7.79 74.47 9.48
5/1/2023 2:00:00 PM 11.34 52.412 0.168 7.77 66.66 9.46
5/1/2023 2:15:00 PM 11.37 52.466 0.168 7.78 97.3 9.45
5/1/2023 2:30:00 PM 11.39 52.502 0.168 7.77 77 9.44
5/1/2023 2:45:00 PM 11.42 52.556 0.169 7.78 77.03 9.44
5/1/2023 3:00:00 PM 11.43 52.574 0.169 7.81 81.3 9.42
5/1/2023 3:15:00 PM 11.43 52.574 0.169 7.78 41.77 9.31
5/1/2023 3:30:00 PM 11.43 52.574 0.169 7.79 42.87 9.26
5/1/2023 3:45:00 PM 11.43 52.574 0.169 7.78 41.71 9.27
5/1/2023 4:00:00 PM 11.42 52.556 0.169 7.78 39.9 9.22
5/1/2023 4:15:00 PM 11.42 52.556 0.169 7.77 41.09 9.26
5/1/2023 4:30:00 PM 11.42 52.556 0.169 7.73 38.05 9.2
5/1/2023 4:45:00 PM 11.42 52.556 0.169 7.74 36.66 9.21
5/1/2023 5:00:00 PM 11.42 52.556 0.17 7.76 36.09 9.18
5/1/2023 5:15:00 PM 11.42 52.556 0.17 7.76 33.29 9.13
5/1/2023 5:30:00 PM 11.42 52.556 0.17 7.74 33.23 9.11
5/1/2023 5:45:00 PM 11.43 52.574 0.171 7.73 32.87 9.1
5/1/2023 6:00:00 PM 11.43 52.574 0.172 7.72 33.54 9.06
5/1/2023 6:15:00 PM 11.44 52.592 0.172 7.71 32.02 9.06
5/1/2023 6:30:00 PM 11.45 52.61 0.173 7.69 32.19 8.99
5/1/2023 6:45:00 PM 11.46 52.628 0.174 7.7 30.91 9
5/1/2023 7:00:00 PM 11.47 52.646 0.174 7.69 31.66 9
5/1/2023 7:15:00 PM 11.47 52.646 0.175 7.7 30.77 8.96
5/1/2023 7:30:00 PM 11.48 52.664 0.176 7.71 30.9 8.96
5/1/2023 7:45:00 PM 11.49 52.682 0.176 7.71 29.65 8.89
5/1/2023 8:00:00 PM 11.49 52.682 0.177 7.7 29.52 8.9
5/1/2023 8:15:00 PM 11.5 52.7 0.177 7.7 29.42 8.9
5/1/2023 8:30:00 PM 11.51 52.718 0.177 7.71 29.84 8.86
5/1/2023 8:45:00 PM 11.51 52.718 0.178 7.7 27.67 8.73
5/1/2023 9:00:00 PM 11.52 52.736 0.178 7.71 27.82 8.81
5/1/2023 9:15:00 PM 11.53 52.754 0.179 7.66 27.26 8.75
5/1/2023 9:30:00 PM 11.53 52.754 0.179 7.69 26.8 8.69
5/1/2023 9:45:00 PM 11.54 52.772 0.179 7.7 26.51 8.71
5/1/2023 10:00:00 PM 11.55 52.79 0.179 7.71 26.42 8.67
5/1/2023 10:15:00 PM 11.55 52.79 0.18 7.68 26.42 8.69
5/1/2023 10:30:00 PM 11.56 52.808 0.18 7.71 27.1 8.7
5/1/2023 10:45:00 PM 11.56 52.808 0.181 7.71 25.59 8.64
5/1/2023 11:00:00 PM 11.57 52.826 0.181 7.7 25.44 8.64
5/1/2023 11:15:00 PM 11.58 52.844 0.181 7.7 24.96 8.6
5/1/2023 11:30:00 PM 11.58 52.844 0.182 7.71 25.48 8.64
5/1/2023 11:45:00 PM 11.59 52.862 0.182 7.7 25.4 8.67
5/2/2023 12:00:00 AM 11.59 52.862 0.182 7.7 24.92 8.66
5/2/2023 12:15:00 AM 11.6 52.88 0.182 7.71 25.83 8.67
5/2/2023 12:30:00 AM 11.6 52.88 0.182 7.72 26.37 8.71
5/2/2023 12:45:00 AM 11.6 52.88 0.182 7.72 25.99 8.7
5/2/2023 1:00:00 AM 11.61 52.898 0.182 7.72 26.61 8.72
5/2/2023 1:15:00 AM 11.61 52.898 0.181 7.71 28.23 8.77
5/2/2023 1:30:00 AM 11.61 52.898 0.18 7.71 28.32 8.76
5/2/2023 1:45:00 AM 11.61 52.898 0.18 7.7 26.02 8.6
5/2/2023 2:00:00 AM 11.61 52.898 0.18 7.68 24.57 8.45
5/2/2023 2:15:00 AM 11.6 52.88 0.178 7.7 29.36 8.63
5/2/2023 2:30:00 AM 11.6 52.88 0.175 7.69 30.26 8.68
5/2/2023 2:45:00 AM 11.59 52.862 0.175 7.69 31.25 8.67
5/2/2023 3:00:00 AM 11.59 52.862 0.173 7.68 30.94 8.63
5/2/2023 3:15:00 AM 11.57 52.826 0.17 7.67 34.58 8.55
5/2/2023 3:30:00 AM 11.57 52.826 0.168 7.67 36.54 8.56
5/2/2023 3:45:00 AM 11.56 52.808 0.166 7.67 37.37 8.55
5/2/2023 4:00:00 AM 11.56 52.808 0.165 7.66 35.8 8.57
5/2/2023 4:15:00 AM 11.55 52.79 0.163 7.65 37.69 8.53
5/2/2023 4:30:00 AM 11.54 52.772 0.162 7.66 38.3 8.52
5/2/2023 4:45:00 AM 11.53 52.754 0.16 7.65 39.25 8.49
5/2/2023 5:00:00 AM 11.53 52.754 0.158 7.65 38.85 8.5
5/2/2023 5:15:00 AM 11.53 52.754 0.159 7.65 36.83 8.52
5/2/2023 5:30:00 AM 11.53 52.754 0.158 7.66 39.28 8.5
5/2/2023 5:45:00 AM 11.52 52.736 0.157 7.65 40.44 8.45
5/2/2023 6:00:00 AM 11.51 52.718 0.155 7.64 38.87 8.44
5/2/2023 6:15:00 AM 11.51 52.718 0.155 7.63 38.86 8.4
5/2/2023 6:30:00 AM 11.5 52.7 0.155 7.64 39.68 8.42
5/2/2023 6:45:00 AM 11.49 52.682 0.154 7.63 40.28 8.39
5/2/2023 7:00:00 AM 11.49 52.682 0.153 7.63 39.74 8.35
5/2/2023 7:15:00 AM 10.9 51.62 0.126 7.69 248.55 9.21
5/2/2023 7:30:00 AM 10.86 51.548 0.121 7.69 132.95 9.22
5/2/2023 7:45:00 AM 10.75 51.35 0.118 7.67 185.12 9.33
5/2/2023 8:00:00 AM 10.79 51.422 0.121 7.66 151.75 9.28
5/2/2023 8:15:00 AM 10.72 51.296 0.117 7.71 120.52 9.36
5/2/2023 8:30:00 AM 10.72 51.296 0.116 7.69 104 9.29
5/2/2023 8:45:00 AM 10.7 51.26 0.115 7.7 150.58 9.35
5/2/2023 9:00:00 AM 10.7 51.26 0.115 7.7 112.43 9.29
5/2/2023 9:15:00 AM 10.7 51.26 0.115 7.7 151.14 9.33
5/2/2023 9:30:00 AM 10.7 51.26 0.115 7.71 140.04 9.35
5/2/2023 9:45:00 AM 10.7 51.26 0.115 7.71 156.7 9.37
5/2/2023 10:00:00 AM 10.7 51.26 0.115 7.69 122.26 9.36
5/2/2023 10:15:00 AM -99999.99 -179968 -100 -99999.99 -99999.99 -99999.99
5/2/2023 10:30:00 AM 10.75 51.35 0.116 7.71 118.78 9.31
5/2/2023 10:45:00 AM 10.73 51.314 0.117 7.68 126.29 9.34
5/2/2023 11:00:00 AM 10.72 51.296 0.117 7.69 121.38 9.33
5/2/2023 11:15:00 AM 10.72 51.296 0.117 7.72 144.39 9.37
5/2/2023 11:30:00 AM 10.71 51.278 0.117 7.71 117.67 9.37
5/2/2023 11:45:00 AM 10.71 51.278 0.117 7.71 123.65 9.33
5/2/2023 12:00:00 PM 10.71 51.278 0.117 7.71 145.49 9.38
5/2/2023 12:15:00 PM 10.7 51.26 0.117 7.72 152.03 9.37
5/2/2023 12:30:00 PM 10.7 51.26 0.117 7.72 147.43 9.39
5/2/2023 12:45:00 PM 10.71 51.278 0.117 7.71 171.45 9.38
5/2/2023 1:00:00 PM 10.71 51.278 0.118 7.72 137.16 9.39
5/2/2023 1:15:00 PM 10.72 51.296 0.118 7.68 165.58 9.39
5/2/2023 1:30:00 PM 10.73 51.314 0.118 7.73 128.72 9.39
5/2/2023 1:45:00 PM 10.75 51.35 0.118 7.73 208.02 9.39
5/2/2023 2:00:00 PM 10.77 51.386 0.119 7.72 147.97 9.39
5/2/2023 2:15:00 PM 10.78 51.404 0.119 7.72 167.56 9.39
5/2/2023 2:30:00 PM 10.79 51.422 0.119 7.72 148.55 9.36
5/2/2023 2:45:00 PM 10.81 51.458 0.12 7.72 154.22 9.37
5/2/2023 3:00:00 PM 10.82 51.476 0.12 7.67 144.71 9.3
5/2/2023 3:15:00 PM 10.82 51.476 0.12 7.72 112.96 9.3
5/2/2023 3:30:00 PM 10.82 51.476 0.12 7.72 108.48 9.26
5/2/2023 3:45:00 PM 10.82 51.476 0.12 7.71 106.85 9.26
5/2/2023 4:00:00 PM 10.82 51.476 0.12 7.71 100.26 9.24
5/2/2023 4:15:00 PM 10.82 51.476 0.12 7.72 100.65 9.2
5/2/2023 4:30:00 PM 10.82 51.476 0.12 7.7 98.74 9.2
5/2/2023 4:45:00 PM 10.82 51.476 0.12 7.7 98.07 9.19
5/2/2023 5:00:00 PM 10.83 51.494 0.121 7.69 100.74 9.16
5/2/2023 5:15:00 PM 10.83 51.494 0.121 7.71 98.26 9.14
5/2/2023 5:30:00 PM 10.83 51.494 0.121 7.7 95.65 9.12
5/2/2023 5:45:00 PM 10.84 51.512 0.121 7.69 95.11 9.05
5/2/2023 6:00:00 PM 10.84 51.512 0.121 7.69 93.49 9.09
5/2/2023 6:15:00 PM 10.84 51.512 0.121 7.69 92.17 9.08
5/2/2023 6:30:00 PM 10.84 51.512 0.121 7.67 91.3 9.06
5/2/2023 6:45:00 PM 10.84 51.512 0.121 7.69 90.62 9.04
5/2/2023 7:00:00 PM 10.85 51.53 0.121 7.69 89.81 9.05
5/2/2023 7:15:00 PM 10.85 51.53 0.122 7.68 89.17 9.02
5/2/2023 7:30:00 PM 10.85 51.53 0.122 7.69 91.16 9.01
5/2/2023 7:45:00 PM 10.85 51.53 0.122 7.67 90.24 8.98
5/2/2023 8:00:00 PM 10.85 51.53 0.122 7.68 87.6 8.97
5/2/2023 8:15:00 PM 10.86 51.548 0.122 7.69 87.03 8.97
5/2/2023 8:30:00 PM 10.86 51.548 0.122 7.68 87.18 8.96
5/2/2023 8:45:00 PM 10.86 51.548 0.122 7.66 86.95 8.95
5/2/2023 9:00:00 PM 10.86 51.548 0.122 7.66 85.09 8.95
5/2/2023 9:15:00 PM 10.86 51.548 0.122 7.68 83.65 8.93
5/2/2023 9:30:00 PM 10.86 51.548 0.122 7.66 83.19 8.93
5/2/2023 9:45:00 PM 10.87 51.566 0.122 7.64 82.98 8.9
5/2/2023 10:00:00 PM 10.87 51.566 0.122 7.66 84.11 8.89
5/2/2023 10:15:00 PM 10.87 51.566 0.122 7.66 81.62 8.88
5/2/2023 10:30:00 PM 10.87 51.566 0.122 7.67 81.6 8.89
5/2/2023 10:45:00 PM 10.88 51.584 0.122 7.67 80.41 8.83
5/2/2023 11:00:00 PM 10.88 51.584 0.122 7.66 81.26 8.81
5/2/2023 11:15:00 PM 10.89 51.602 0.123 7.66 76.24 8.83
5/2/2023 11:30:00 PM 10.89 51.602 0.123 7.67 80.91 8.81
5/2/2023 11:45:00 PM 10.9 51.62 0.123 7.66 80.8 8.8
5/3/2023 12:00:00 AM 10.9 51.62 0.123 7.67 79.94 8.81
5/3/2023 12:15:00 AM 10.9 51.62 0.123 7.67 79.61 8.81
5/3/2023 12:30:00 AM 10.91 51.638 0.123 7.66 79.33 8.79
5/3/2023 12:45:00 AM 10.91 51.638 0.123 7.66 78.34 8.77
5/3/2023 1:00:00 AM 10.91 51.638 0.123 7.63 78.84 8.75
5/3/2023 1:15:00 AM 10.92 51.656 0.124 7.65 80.27 8.72
5/3/2023 1:30:00 AM 10.92 51.656 0.124 7.67 76.65 8.73
5/3/2023 1:45:00 AM 10.93 51.674 0.125 7.66 77.54 8.76
5/3/2023 2:00:00 AM 10.93 51.674 0.125 7.67 78.84 8.74
5/3/2023 2:15:00 AM 10.93 51.674 0.125 7.67 78.62 8.76
5/3/2023 2:30:00 AM 10.93 51.674 0.125 7.65 75.87 8.7
5/3/2023 2:45:00 AM 10.93 51.674 0.125 7.66 77.48 8.72
5/3/2023 3:00:00 AM 10.94 51.692 0.125 7.66 75.46 8.73
5/3/2023 3:15:00 AM 10.94 51.692 0.126 7.65 75.65 8.69
5/3/2023 3:30:00 AM 10.94 51.692 0.126 7.66 75.49 8.71
5/3/2023 3:45:00 AM 10.94 51.692 0.126 7.67 74.66 8.69
5/3/2023 4:00:00 AM 10.94 51.692 0.126 7.65 73.89 8.67
5/3/2023 4:15:00 AM 10.94 51.692 0.127 7.66 74.6 8.64
5/3/2023 4:30:00 AM 10.94 51.692 0.127 7.66 75 8.66
5/3/2023 4:45:00 AM 10.94 51.692 0.127 7.67 74.2 8.67
5/3/2023 5:00:00 AM 10.94 51.692 0.126 7.66 72.6 8.66
5/3/2023 5:15:00 AM 10.94 51.692 0.126 7.67 72.7 8.65
5/3/2023 5:30:00 AM 10.94 51.692 0.127 7.66 71.7 8.64
5/3/2023 5:45:00 AM 10.94 51.692 0.127 7.65 71.11 8.62
5/3/2023 6:00:00 AM 10.94 51.692 0.127 7.64 71.66 8.55
5/3/2023 6:15:00 AM 10.94 51.692 0.128 7.66 71.14 8.58
5/3/2023 6:30:00 AM 10.94 51.692 0.128 7.66 70.15 8.54
5/3/2023 6:45:00 AM 10.94 51.692 0.128 7.66 70.96 8.56
5/3/2023 7:00:00 AM 10.94 51.692 0.128 7.66 69.99 8.52
5/3/2023 7:15:00 AM 10.9 51.62 0.127 7.69 96.47 8.75
5/3/2023 7:30:00 AM 10.58 51.044 0.118 7.68 350.56 9.17
5/3/2023 7:45:00 AM 10.49 50.882 0.114 7.7 195.45 9.29
5/3/2023 8:00:00 AM 10.47 50.846 0.113 7.68 204.85 9.32
5/3/2023 8:15:00 AM 10.45 50.81 0.113 7.71 233.98 9.34
5/3/2023 8:30:00 AM 10.44 50.792 0.113 7.71 173.27 9.35
5/3/2023 8:45:00 AM 10.42 50.756 0.112 7.66 173.66 9.36
5/3/2023 9:00:00 AM 10.41 50.738 0.112 7.7 178.5 9.36
5/3/2023 9:15:00 AM 10.39 50.702 0.112 7.7 150.86 9.37
5/3/2023 9:30:00 AM 10.38 50.684 0.112 7.7 175.36 9.37
5/3/2023 9:45:00 AM 10.37 50.666 0.112 7.67 155.92 9.37
5/3/2023 10:00:00 AM 10.36 50.648 0.112 7.7 175.04 9.38
5/3/2023 10:15:00 AM 10.36 50.648 0.112 7.66 163.31 9.38
5/3/2023 10:30:00 AM 10.35 50.63 0.112 7.7 187.76 9.39
5/3/2023 10:45:00 AM 10.35 50.63 0.112 7.7 166.93 9.4
5/3/2023 11:00:00 AM 10.34 50.612 0.112 7.68 153.43 9.39
5/3/2023 11:15:00 AM 10.34 50.612 0.112 7.7 162.48 9.4
5/3/2023 11:30:00 AM 10.33 50.594 0.113 7.65 195.94 9.41
5/3/2023 11:45:00 AM 10.34 50.612 0.113 7.69 186.24 9.4
5/3/2023 12:00:00 PM 10.35 50.63 0.113 7.64 177.35 9.41
5/3/2023 12:15:00 PM 10.36 50.648 0.113 7.69 135.7 9.41
5/3/2023 12:30:00 PM 10.36 50.648 0.113 7.7 153.08 9.4
5/3/2023 12:45:00 PM 10.36 50.648 0.113 7.7 152.36 9.42
5/3/2023 1:00:00 PM 10.35 50.63 0.113 7.7 137.23 9.42
5/3/2023 1:15:00 PM 10.35 50.63 0.113 7.7 151.92 9.42
5/3/2023 1:30:00 PM 10.36 50.648 0.113 7.7 149.63 9.42
5/3/2023 1:45:00 PM 10.37 50.666 0.113 7.7 150.42 9.43
5/3/2023 2:00:00 PM 10.39 50.702 0.112 7.7 142.86 9.43
5/3/2023 2:15:00 PM 10.4 50.72 0.112 7.71 133.73 9.43
5/3/2023 2:30:00 PM 10.42 50.756 0.112 7.71 188.54 9.43
5/3/2023 2:45:00 PM 10.44 50.792 0.112 7.71 147.11 9.44
5/3/2023 3:00:00 PM 10.46 50.828 0.112 7.67 165.37 9.45
5/3/2023 3:15:00 PM 10.46 50.828 0.112 7.69 117.8 9.36
5/3/2023 3:30:00 PM 10.46 50.828 0.112 7.64 115.14 9.3
5/3/2023 3:45:00 PM 10.46 50.828 0.113 7.68 111.83 9.26
5/3/2023 4:00:00 PM 10.46 50.828 0.113 7.68 105.97 9.25
5/3/2023 4:15:00 PM 10.46 50.828 0.113 7.68 106.39 9.26
5/3/2023 4:30:00 PM 10.46 50.828 0.113 7.67 101.05 9.24
5/3/2023 4:45:00 PM 10.46 50.828 0.113 7.67 102.15 9.23
5/3/2023 5:00:00 PM 10.47 50.846 0.114 7.68 103 9.21
5/3/2023 5:15:00 PM 10.47 50.846 0.114 7.67 101.75 9.21
5/3/2023 5:30:00 PM 10.47 50.846 0.114 7.65 103.53 9.2
5/3/2023 5:45:00 PM 10.47 50.846 0.114 7.66 98.73 9.13
5/3/2023 6:00:00 PM 10.47 50.846 0.114 7.63 97.72 9.13
5/3/2023 6:15:00 PM 10.48 50.864 0.114 7.67 100.53 9.16
5/3/2023 6:30:00 PM 10.48 50.864 0.114 7.64 100.88 9.12
5/3/2023 6:45:00 PM 10.48 50.864 0.115 7.67 102.78 9.11
5/3/2023 7:00:00 PM 10.48 50.864 0.115 7.64 101.1 9.1
5/3/2023 7:15:00 PM 10.48 50.864 0.115 7.67 98.76 9.08
5/3/2023 7:30:00 PM 10.48 50.864 0.115 7.62 97.07 9.08
5/3/2023 7:45:00 PM 10.49 50.882 0.115 7.62 97.53 9.06
5/3/2023 8:00:00 PM 10.48 50.864 0.115 7.62 97 9.03
5/3/2023 8:15:00 PM 10.49 50.882 0.115 7.61 91.72 9.01
5/3/2023 8:30:00 PM 10.49 50.882 0.115 7.64 83.48 8.93
5/3/2023 8:45:00 PM 10.49 50.882 0.115 7.63 84.33 8.93
5/3/2023 9:00:00 PM 10.5 50.9 0.115 7.63 86.07 8.95
5/3/2023 9:15:00 PM 10.5 50.9 0.115 7.64 90.19 8.97
5/3/2023 9:30:00 PM 10.5 50.9 0.115 7.64 90.43 8.91
5/3/2023 9:45:00 PM 10.5 50.9 0.116 7.62 91.27 8.93
5/3/2023 10:00:00 PM 10.51 50.918 0.116 7.64 90.74 8.9
5/3/2023 10:15:00 PM 10.51 50.918 0.116 7.6 83.05 8.91
5/3/2023 10:30:00 PM 10.51 50.918 0.115 7.63 82.47 8.89
5/3/2023 10:45:00 PM 10.51 50.918 0.115 7.65 83.42 8.89
5/3/2023 11:00:00 PM 10.52 50.936 0.115 7.63 81.82 8.84
5/3/2023 11:15:00 PM 10.52 50.936 0.115 7.62 79.13 8.65
5/3/2023 11:30:00 PM 10.52 50.936 0.115 7.63 78.84 8.76
5/3/2023 11:45:00 PM 10.52 50.936 0.115 7.64 81.55 8.87
5/4/2023 12:00:00 AM 10.53 50.954 0.115 7.63 79.15 8.64
5/4/2023 12:15:00 AM 10.53 50.954 0.115 7.64 79.32 8.88
5/4/2023 12:30:00 AM 10.53 50.954 0.115 7.65 80.03 8.82
5/4/2023 12:45:00 AM 10.53 50.954 0.115 7.61 76.38 8.5
5/4/2023 1:00:00 AM 10.53 50.954 0.116 7.61 81.3 8.68
5/4/2023 1:15:00 AM 10.54 50.972 0.116 7.59 80.05 8.65
5/4/2023 1:30:00 AM 10.54 50.972 0.116 7.61 81.99 8.73
5/4/2023 1:45:00 AM 10.55 50.99 0.116 7.63 76.78 8.71
5/4/2023 2:00:00 AM 10.55 50.99 0.116 7.63 77.54 8.66
5/4/2023 2:15:00 AM 10.55 50.99 0.116 7.62 78.41 8.65
5/4/2023 2:30:00 AM 10.56 51.008 0.115 7.64 78.24 8.74
5/4/2023 2:45:00 AM 10.56 51.008 0.115 7.65 78.8 8.81
5/4/2023 3:00:00 AM 10.57 51.026 0.115 7.65 75.22 8.82
5/4/2023 3:15:00 AM 10.57 51.026 0.115 7.62 78.02 8.84
5/4/2023 3:30:00 AM 10.58 51.044 0.115 7.64 77.21 8.81
5/4/2023 3:45:00 AM 10.58 51.044 0.115 7.64 76.64 8.78
5/4/2023 4:00:00 AM 10.59 51.062 0.116 7.62 74.23 8.75
5/4/2023 4:15:00 AM 10.59 51.062 0.116 7.62 75.38 8.76
5/4/2023 4:30:00 AM 10.59 51.062 0.116 7.6 72.98 8.41
5/4/2023 4:45:00 AM 10.6 51.08 0.116 7.63 74.69 8.71
5/4/2023 5:00:00 AM 10.61 51.098 0.116 7.63 77.4 8.73
5/4/2023 5:15:00 AM 10.61 51.098 0.116 7.62 74.07 8.69
5/4/2023 5:30:00 AM 10.62 51.116 0.116 7.63 74.14 8.71
5/4/2023 5:45:00 AM 10.62 51.116 0.116 7.64 73.41 8.75
5/4/2023 6:00:00 AM 10.62 51.116 0.116 7.62 73.49 8.75
5/4/2023 6:15:00 AM 10.63 51.134 0.116 7.64 73.85 8.8
5/4/2023 6:30:00 AM 10.63 51.134 0.116 7.65 73.65 8.83
5/4/2023 6:45:00 AM 10.63 51.134 0.116 7.63 73.11 8.8
5/4/2023 7:00:00 AM 10.63 51.134 0.116 7.64 72.37 8.82
5/4/2023 7:15:00 AM 10.63 51.134 0.118 7.62 112.66 8.72
5/4/2023 7:30:00 AM 10.39 50.702 0.116 7.68 190.23 9.41
5/4/2023 7:45:00 AM 10.48 50.864 0.116 7.66 109.11 9.24
5/4/2023 8:00:00 AM 10.39 50.702 0.116 7.69 87.88 9.4
5/4/2023 8:15:00 AM 10.36 50.648 0.115 7.68 95.55 9.46
5/4/2023 8:30:00 AM 10.36 50.648 0.115 7.69 89.52 9.47
5/4/2023 8:45:00 AM 10.36 50.648 0.115 7.7 94.06 9.5
5/4/2023 9:00:00 AM 10.37 50.666 0.115 7.69 81.36 9.44
5/4/2023 9:15:00 AM 10.38 50.684 0.116 7.69 93.11 9.43
5/4/2023 9:30:00 AM 10.39 50.702 0.116 7.69 91.19 9.47
5/4/2023 9:45:00 AM 10.4 50.72 0.116 7.69 90.76 9.49
5/4/2023 10:00:00 AM 10.41 50.738 0.116 7.7 97.7 9.53
5/4/2023 10:15:00 AM 10.41 50.738 0.116 7.69 92.33 9.54
5/4/2023 10:30:00 AM 10.42 50.756 0.116 7.7 90.03 9.52
5/4/2023 10:45:00 AM 10.43 50.774 0.116 7.7 88.29 9.54
5/4/2023 11:00:00 AM 10.45 50.81 0.116 7.7 95.06 9.56
5/4/2023 11:15:00 AM 10.46 50.828 0.117 7.71 92.76 9.55
5/4/2023 11:30:00 AM 10.47 50.846 0.117 7.7 90.72 9.55
5/4/2023 11:45:00 AM 10.49 50.882 0.117 7.71 91.33 9.55
5/4/2023 12:00:00 PM 10.49 50.882 0.117 7.71 89.06 9.56
5/4/2023 12:15:00 PM 10.5 50.9 0.117 7.71 89.04 9.57
5/4/2023 12:30:00 PM 10.51 50.918 0.117 7.7 90.47 9.57
5/4/2023 12:45:00 PM 10.53 50.954 0.117 7.7 89.85 9.56
5/4/2023 1:00:00 PM 10.56 51.008 0.118 7.71 88.33 9.56
5/4/2023 1:15:00 PM 10.58 51.044 0.118 7.71 85.43 9.56
5/4/2023 1:30:00 PM 10.62 51.116 0.118 7.71 90.3 9.57
5/4/2023 1:45:00 PM 10.65 51.17 0.118 7.7 95.17 9.56
5/4/2023 2:00:00 PM 10.68 51.224 0.118 7.71 84.91 9.57
5/4/2023 2:15:00 PM 10.7 51.26 0.118 7.71 86.58 9.56
5/4/2023 2:30:00 PM 10.72 51.296 0.119 7.71 84.91 9.55
5/4/2023 2:45:00 PM 10.75 51.35 0.119 7.71 85.85 9.59
5/4/2023 3:00:00 PM 10.74 51.332 0.119 7.7 78.55 9.54
5/4/2023 3:15:00 PM 10.74 51.332 0.119 7.7 74.43 9.48
5/4/2023 3:30:00 PM 10.74 51.332 0.119 7.69 69.83 9.44
5/4/2023 3:45:00 PM 10.73 51.314 0.119 7.69 72.85 9.43
5/4/2023 4:00:00 PM 10.73 51.314 0.119 7.67 69.58 9.35
5/4/2023 4:15:00 PM 10.73 51.314 0.119 7.66 61.3 9.23
5/4/2023 4:30:00 PM 10.73 51.314 0.12 7.64 59.59 9.08
5/4/2023 4:45:00 PM 10.73 51.314 0.12 7.64 60.08 9.01
5/4/2023 5:00:00 PM 10.73 51.314 0.12 7.64 58.07 8.98
5/4/2023 5:15:00 PM 10.73 51.314 0.12 7.63 56.52 8.89
5/4/2023 5:30:00 PM 10.73 51.314 0.12 7.63 57.09 8.85
5/4/2023 5:45:00 PM 10.73 51.314 0.12 7.63 57.67 8.82
5/4/2023 6:00:00 PM 10.73 51.314 0.12 7.62 55.94 8.78
5/4/2023 6:15:00 PM 10.73 51.314 0.12 7.62 56.13 8.77
5/4/2023 6:30:00 PM 10.73 51.314 0.12 7.62 55.67 8.77
5/4/2023 6:45:00 PM 10.72 51.296 0.12 7.61 55.1 8.72
5/4/2023 7:00:00 PM 10.72 51.296 0.121 7.6 54.92 8.64
5/4/2023 7:15:00 PM 10.72 51.296 0.121 7.6 54.83 8.65
5/4/2023 7:30:00 PM 10.72 51.296 0.121 7.59 55.07 8.55
5/4/2023 7:45:00 PM 10.72 51.296 0.121 7.59 55.23 8.52
5/4/2023 8:00:00 PM 10.72 51.296 0.121 7.59 53.77 8.48
5/4/2023 8:15:00 PM 10.72 51.296 0.122 7.57 54.4 8.48
5/4/2023 8:30:00 PM 10.71 51.278 0.122 7.56 53.37 8.44
5/4/2023 8:45:00 PM 10.71 51.278 0.122 7.55 53.01 8.39
5/4/2023 9:00:00 PM 10.71 51.278 0.122 7.56 53.56 8.36
5/4/2023 9:15:00 PM 10.71 51.278 0.122 7.55 53.84 8.4
5/4/2023 9:30:00 PM 10.71 51.278 0.122 7.56 53.99 8.38
5/4/2023 9:45:00 PM 10.71 51.278 0.122 7.56 53.52 8.37
5/4/2023 10:00:00 PM 10.71 51.278 0.122 7.55 52.94 8.36
5/4/2023 10:15:00 PM 10.72 51.296 0.122 7.56 53.45 8.29
5/4/2023 10:30:00 PM 10.72 51.296 0.122 7.56 53.2 8.26
5/4/2023 10:45:00 PM 10.72 51.296 0.122 7.54 52.87 8.2
5/4/2023 11:00:00 PM 10.72 51.296 0.123 7.54 52.37 8.15
5/4/2023 11:15:00 PM 10.72 51.296 0.123 7.54 52 8.15
5/4/2023 11:30:00 PM 10.72 51.296 0.123 7.54 51.78 8.13
5/4/2023 11:45:00 PM 10.73 51.314 0.123 7.54 51.31 8.1
5/5/2023 12:00:00 AM 10.73 51.314 0.123 7.53 52 8.08
5/5/2023 12:15:00 AM 10.73 51.314 0.123 7.53 51.38 8.06
5/5/2023 12:30:00 AM 10.74 51.332 0.123 7.53 51.06 8.07
5/5/2023 12:45:00 AM 10.74 51.332 0.123 7.53 51.14 8.03
5/5/2023 1:00:00 AM 10.74 51.332 0.123 7.52 50.65 7.98
5/5/2023 1:15:00 AM 10.75 51.35 0.124 7.51 50.05 7.95
5/5/2023 1:30:00 AM 10.75 51.35 0.124 7.52 50.79 7.97
5/5/2023 1:45:00 AM 10.75 51.35 0.124 7.5 50.1 7.92
5/5/2023 2:00:00 AM 10.75 51.35 0.124 7.52 50.36 7.91
5/5/2023 2:15:00 AM 10.76 51.368 0.124 7.51 49.92 7.86
5/5/2023 2:30:00 AM 10.76 51.368 0.124 7.51 51.72 7.79
5/5/2023 2:45:00 AM 10.76 51.368 0.124 7.5 51.42 7.74
5/5/2023 3:00:00 AM 10.77 51.386 0.124 7.51 50.18 7.71
5/5/2023 3:15:00 AM 10.77 51.386 0.124 7.51 50.28 7.71
5/5/2023 3:30:00 AM 10.77 51.386 0.124 7.51 49.96 7.83
5/5/2023 3:45:00 AM 10.77 51.386 0.124 7.5 50.48 7.79
5/5/2023 4:00:00 AM 10.77 51.386 0.124 7.51 51.26 7.91
5/5/2023 4:15:00 AM 10.78 51.404 0.124 7.51 51 7.83
5/5/2023 4:30:00 AM 10.78 51.404 0.124 7.49 51.16 7.7
5/5/2023 4:45:00 AM 10.78 51.404 0.125 7.5 49.74 7.71
5/5/2023 5:00:00 AM 10.78 51.404 0.125 7.49 49.77 7.7
5/5/2023 5:15:00 AM 10.79 51.422 0.125 7.5 50.62 7.69
5/5/2023 5:30:00 AM 10.79 51.422 0.125 7.49 50.39 7.61
5/5/2023 5:45:00 AM 10.8 51.44 0.125 7.49 48.63 7.64
5/5/2023 6:00:00 AM 10.8 51.44 0.125 7.49 48.83 7.65
5/5/2023 6:15:00 AM 10.8 51.44 0.125 7.48 48.59 7.62
5/5/2023 6:30:00 AM 10.81 51.458 0.125 7.49 48.24 7.58
5/5/2023 6:45:00 AM 10.81 51.458 0.126 7.48 47.42 7.61
5/5/2023 7:00:00 AM 10.81 51.458 0.126 7.49 48.79 7.6
5/5/2023 7:15:00 AM 10.81 51.458 0.125 7.51 49.74 7.87
5/5/2023 7:30:00 AM 10.79 51.422 0.125 7.57 58.01 8.55
5/5/2023 7:45:00 AM 10.67 51.206 0.127 7.72 61.35 9.49
5/5/2023 8:00:00 AM 10.66 51.188 0.127 7.73 59.05 9.53
5/5/2023 8:15:00 AM 10.66 51.188 0.128 7.74 64.56 9.61
5/5/2023 8:30:00 AM 10.67 51.206 0.128 7.75 56.95 9.63
5/5/2023 8:45:00 AM 10.68 51.224 0.128 7.75 68.58 9.67
5/5/2023 9:00:00 AM 10.69 51.242 0.129 7.75 61.79 9.64
5/5/2023 9:15:00 AM 10.71 51.278 0.129 7.75 63.29 9.64
5/5/2023 9:30:00 AM 10.73 51.314 0.129 7.75 57.16 9.66
5/5/2023 9:45:00 AM 10.76 51.368 0.129 7.75 62.96 9.65
5/5/2023 10:00:00 AM 10.78 51.404 0.129 7.76 60.15 9.67
5/5/2023 10:15:00 AM 10.81 51.458 0.13 7.76 56.57 9.65
5/5/2023 10:30:00 AM 10.84 51.512 0.13 7.75 61.7 9.66
5/5/2023 10:45:00 AM 10.88 51.584 0.13 7.76 60.82 9.67
5/5/2023 11:00:00 AM 10.91 51.638 0.13 7.76 58.86 9.64
5/5/2023 11:15:00 AM 10.94 51.692 0.13 7.76 60.09 9.64
5/5/2023 11:30:00 AM 10.98 51.764 0.131 7.76 56.93 9.65
5/5/2023 11:45:00 AM 11.03 51.854 0.131 7.75 59.22 9.67
5/5/2023 12:00:00 PM 11.07 51.926 0.131 7.75 57.45 9.64
5/5/2023 12:15:00 PM 11.12 52.016 0.131 7.75 57.47 9.64
5/5/2023 12:30:00 PM 11.14 52.052 0.132 7.77 57.3 9.66
5/5/2023 12:45:00 PM 11.19 52.142 0.132 7.76 57.22 9.66
5/5/2023 1:00:00 PM 11.24 52.232 0.132 7.76 55.07 9.67
5/5/2023 1:15:00 PM 11.26 52.268 0.132 7.77 59.05 9.66
5/5/2023 1:30:00 PM 11.27 52.286 0.132 7.76 54.3 9.64
5/5/2023 1:45:00 PM 11.29 52.322 0.133 7.76 60.94 9.65
5/5/2023 2:00:00 PM 11.3 52.34 0.133 7.75 54.55 9.65
5/5/2023 2:15:00 PM 11.33 52.394 0.133 7.76 57.61 9.64
5/5/2023 2:30:00 PM 11.36 52.448 0.133 7.77 58.82 9.66
5/5/2023 2:45:00 PM 11.38 52.484 0.133 7.76 56.27 9.59
5/5/2023 3:00:00 PM 11.39 52.502 0.134 7.76 51.23 9.57
5/5/2023 3:15:00 PM 11.4 52.52 0.134 7.72 46.61 9.39
5/5/2023 3:30:00 PM 11.4 52.52 0.134 7.71 45.95 9.24
5/5/2023 3:45:00 PM 11.4 52.52 0.134 7.71 45.02 9.16
5/5/2023 4:00:00 PM 11.4 52.52 0.134 7.69 45.35 9.14
5/5/2023 4:15:00 PM 11.4 52.52 0.134 7.69 44.53 9.12
5/5/2023 4:30:00 PM 11.39 52.502 0.134 7.69 44.18 9.11
5/5/2023 4:45:00 PM 11.4 52.52 0.134 7.67 49.02 8.95
5/5/2023 5:00:00 PM 11.39 52.502 0.134 7.68 45.14 8.95
5/5/2023 5:15:00 PM 11.38 52.484 0.135 7.68 44.21 8.92
5/5/2023 5:30:00 PM 11.38 52.484 0.135 7.67 43.12 8.87
5/5/2023 5:45:00 PM 11.37 52.466 0.135 7.67 43.38 8.85
5/5/2023 6:00:00 PM 11.37 52.466 0.135 7.66 42.64 8.77
5/5/2023 6:15:00 PM 11.36 52.448 0.135 7.65 41.5 8.72
5/5/2023 6:30:00 PM 11.36 52.448 0.135 7.64 41.27 8.65
5/5/2023 6:45:00 PM 11.35 52.43 0.135 7.64 42.08 8.65
5/5/2023 7:00:00 PM 11.35 52.43 0.135 7.63 41.08 8.58
5/5/2023 7:15:00 PM 11.35 52.43 0.135 7.63 40.97 8.52
5/5/2023 7:30:00 PM 11.34 52.412 0.135 7.63 40.39 8.51
5/5/2023 7:45:00 PM 11.34 52.412 0.135 7.63 40.41 8.43
5/5/2023 8:00:00 PM 11.34 52.412 0.136 7.62 40.45 8.35
5/5/2023 8:15:00 PM 11.34 52.412 0.136 7.61 41.89 8.3
5/5/2023 8:30:00 PM 11.34 52.412 0.136 7.61 40.44 8.18
5/5/2023 8:45:00 PM 11.33 52.394 0.136 7.58 40.04 8.14
5/5/2023 9:00:00 PM 11.33 52.394 0.136 7.6 39.78 8.1
5/5/2023 9:15:00 PM 11.33 52.394 0.137 7.58 39.67 8.03
5/5/2023 9:30:00 PM 11.32 52.376 0.137 7.59 39.82 8.02
5/5/2023 9:45:00 PM 11.32 52.376 0.137 7.58 39.71 8.02
5/5/2023 10:00:00 PM 11.31 52.358 0.138 7.57 39.47 7.96
5/5/2023 10:15:00 PM 11.31 52.358 0.138 7.57 39.34 7.95
5/5/2023 10:30:00 PM 11.31 52.358 0.138 7.56 39.21 7.89
5/5/2023 10:45:00 PM 11.31 52.358 0.138 7.56 39.03 7.87
5/5/2023 11:00:00 PM 11.31 52.358 0.138 7.55 39.02 7.78
5/5/2023 11:15:00 PM 11.31 52.358 0.139 7.56 38.87 7.76
5/5/2023 11:30:00 PM 11.31 52.358 0.139 7.56 38.81 7.75
5/5/2023 11:45:00 PM 11.31 52.358 0.139 7.55 38.91 7.71
5/6/2023 12:00:00 AM 11.31 52.358 0.139 7.55 38.39 7.67
5/6/2023 12:15:00 AM 11.31 52.358 0.139 7.54 38.4 7.62
5/6/2023 12:30:00 AM 11.32 52.376 0.139 7.54 38.33 7.59
5/6/2023 12:45:00 AM 11.32 52.376 0.139 7.54 38.27 7.56
5/6/2023 1:00:00 AM 11.32 52.376 0.139 7.54 38.22 7.55
5/6/2023 1:15:00 AM 11.32 52.376 0.139 7.53 38.01 7.53
5/6/2023 1:30:00 AM 11.33 52.394 0.139 7.52 38.01 7.48
5/6/2023 1:45:00 AM 11.33 52.394 0.139 7.53 37.94 7.48
5/6/2023 2:00:00 AM 11.33 52.394 0.139 7.52 37.89 7.46
5/6/2023 2:15:00 AM 11.33 52.394 0.139 7.52 37.59 7.41
5/6/2023 2:30:00 AM 11.33 52.394 0.14 7.53 37.11 7.41
5/6/2023 2:45:00 AM 11.34 52.412 0.14 7.53 37.07 7.45
5/6/2023 3:00:00 AM 11.34 52.412 0.14 7.52 37.09 7.46
5/6/2023 3:15:00 AM 11.34 52.412 0.14 7.52 37.09 7.42
5/6/2023 3:30:00 AM 11.34 52.412 0.14 7.52 37.14 7.35
5/6/2023 3:45:00 AM 11.35 52.43 0.14 7.51 37.25 7.37
5/6/2023 4:00:00 AM 11.35 52.43 0.14 7.51 37.17 7.34
5/6/2023 4:15:00 AM 11.35 52.43 0.14 7.51 36.88 7.36
5/6/2023 4:30:00 AM 11.35 52.43 0.14 7.51 37.03 7.33
5/6/2023 4:45:00 AM 11.35 52.43 0.14 7.52 36.83 7.34
5/6/2023 5:00:00 AM 11.36 52.448 0.14 7.51 36.82 7.36
5/6/2023 5:15:00 AM 11.36 52.448 0.14 7.52 36.63 7.38
5/6/2023 5:30:00 AM 11.36 52.448 0.141 7.52 37.09 7.44
5/6/2023 5:45:00 AM 11.35 52.43 0.14 7.52 37.4 7.4
5/6/2023 6:00:00 AM 11.35 52.43 0.14 7.53 37.11 7.5
5/6/2023 6:15:00 AM 11.35 52.43 0.14 7.53 36.9 7.49
5/6/2023 6:30:00 AM 11.35 52.43 0.141 7.52 36.31 7.42
5/6/2023 6:45:00 AM 11.35 52.43 0.141 7.51 36 7.37
5/6/2023 7:00:00 AM 11.13 52.034 0.142 7.72 50.41 9.26
5/6/2023 7:15:00 AM 10.99 51.782 0.143 7.8 63.79 9.62
5/6/2023 7:30:00 AM 10.97 51.746 0.144 7.81 51.85 9.64
5/6/2023 7:45:00 AM 10.97 51.746 0.144 7.81 45.79 9.68
5/6/2023 8:00:00 AM 10.97 51.746 0.145 7.82 47.85 9.67
5/6/2023 8:15:00 AM 10.98 51.764 0.145 7.81 48.32 9.67
5/6/2023 8:30:00 AM 11 51.8 0.145 7.82 48.79 9.7
5/6/2023 8:45:00 AM 11.01 51.818 0.145 7.81 42.98 9.61
5/6/2023 9:00:00 AM 11.02 51.836 0.146 7.78 40.18 9.48
5/6/2023 9:15:00 AM 11.03 51.854 0.146 7.77 43.58 9.4
5/6/2023 9:30:00 AM 11.05 51.89 0.146 7.75 40.39 9.27
5/6/2023 9:45:00 AM 11.07 51.926 0.146 7.77 40.34 9.36
5/6/2023 10:00:00 AM 11.11 51.998 0.146 7.79 43.16 9.5
5/6/2023 10:15:00 AM 11.15 52.07 0.147 7.8 42.6 9.5
5/6/2023 10:30:00 AM 11.19 52.142 0.147 7.79 41.63 9.5
5/6/2023 10:45:00 AM 11.23 52.214 0.147 7.79 40.55 9.47
5/6/2023 11:00:00 AM 11.28 52.304 0.147 7.78 40.8 9.48
5/6/2023 11:15:00 AM 11.31 52.358 0.147 7.77 40.52 9.35
5/6/2023 11:30:00 AM 11.4 52.52 0.147 7.8 51.34 9.54
5/6/2023 11:45:00 AM 11.49 52.682 0.148 7.81 52.59 9.6
5/6/2023 12:00:00 PM 11.54 52.772 0.148 7.81 44.25 9.59
5/6/2023 12:15:00 PM 11.58 52.844 0.148 7.8 43.03 9.52
5/6/2023 12:30:00 PM 11.62 52.916 0.148 7.79 41.17 9.46
5/6/2023 12:45:00 PM 11.68 53.024 0.148 7.78 40.34 9.44
5/6/2023 1:00:00 PM 11.74 53.132 0.148 7.79 39.97 9.43
5/6/2023 1:15:00 PM 11.81 53.258 0.148 7.78 40.5 9.4
5/6/2023 1:30:00 PM 11.89 53.402 0.149 7.79 39.54 9.44
5/6/2023 1:45:00 PM 11.96 53.528 0.148 7.79 40.28 9.39
5/6/2023 2:00:00 PM 12.05 53.69 0.149 7.79 41.61 9.5
5/6/2023 2:15:00 PM 12.12 53.816 0.149 7.81 42.02 9.53
5/6/2023 2:30:00 PM 12.2 53.96 0.149 7.81 44.64 9.57
5/6/2023 2:45:00 PM 12.21 53.978 0.149 7.78 38.91 9.37
5/6/2023 3:00:00 PM 12.22 53.996 0.15 7.76 38.29 9.25
5/6/2023 3:15:00 PM 12.22 53.996 0.15 7.75 37.12 9.13
5/6/2023 3:30:00 PM 12.22 53.996 0.15 7.74 37.23 9.09
5/6/2023 3:45:00 PM 12.21 53.978 0.15 7.74 37.1 9.04
5/6/2023 4:00:00 PM 12.2 53.96 0.15 7.73 36.22 8.97
5/6/2023 4:15:00 PM 12.19 53.942 0.15 7.72 36.12 8.93
5/6/2023 4:30:00 PM 12.18 53.924 0.15 7.71 35.85 8.89
5/6/2023 4:45:00 PM 12.17 53.906 0.15 7.71 35.6 8.75
5/6/2023 5:00:00 PM 12.16 53.888 0.15 7.69 35.26 8.62
5/6/2023 5:15:00 PM 12.15 53.87 0.15 7.68 35.05 8.54
5/6/2023 5:30:00 PM 12.14 53.852 0.151 7.67 34.85 8.42
5/6/2023 5:45:00 PM 12.14 53.852 0.151 7.67 34.71 8.3
5/6/2023 6:00:00 PM 12.13 53.834 0.151 7.66 34.66 8.17
5/6/2023 6:15:00 PM 12.13 53.834 0.151 7.65 34.48 8.1
5/6/2023 6:30:00 PM 12.12 53.816 0.151 7.64 34.35 8
5/6/2023 6:45:00 PM 12.12 53.816 0.151 7.63 34.31 7.91
5/6/2023 7:00:00 PM 12.12 53.816 0.152 7.63 34.34 7.89
5/6/2023 7:15:00 PM 12.11 53.798 0.152 7.62 34.18 7.8
5/6/2023 7:30:00 PM 12.11 53.798 0.152 7.62 34.1 7.73
5/6/2023 7:45:00 PM 12.1 53.78 0.152 7.61 34.11 7.63
5/6/2023 8:00:00 PM 12.1 53.78 0.152 7.6 34.13 7.59
5/6/2023 8:15:00 PM 12.1 53.78 0.152 7.61 34.07 7.5
5/6/2023 8:30:00 PM 12.09 53.762 0.153 7.6 33.72 7.4
5/6/2023 8:45:00 PM 12.09 53.762 0.153 7.59 33.8 7.32
5/6/2023 9:00:00 PM 12.08 53.744 0.153 7.58 33.75 7.24
5/6/2023 9:15:00 PM 12.08 53.744 0.153 7.57 33.46 7.15
5/6/2023 9:30:00 PM 12.08 53.744 0.153 7.57 33.32 7.04
5/6/2023 9:45:00 PM 12.08 53.744 0.153 7.57 33.22 6.9
5/6/2023 10:00:00 PM 12.07 53.726 0.154 7.54 33.08 6.81
5/6/2023 10:15:00 PM 12.07 53.726 0.154 7.54 33.11 6.81
5/6/2023 10:30:00 PM 12.06 53.708 0.154 7.55 33.13 6.76
5/6/2023 10:45:00 PM 12.06 53.708 0.154 7.54 33.02 6.73
5/6/2023 11:00:00 PM 12.06 53.708 0.154 7.55 32.99 6.75
5/6/2023 11:15:00 PM 12.06 53.708 0.155 7.54 32.93 6.7
5/6/2023 11:30:00 PM 12.05 53.69 0.155 7.53 32.82 6.74
5/6/2023 11:45:00 PM 12.05 53.69 0.155 7.55 32.81 6.76
5/7/2023 12:00:00 AM 12.05 53.69 0.155 7.54 32.78 6.79
5/7/2023 12:15:00 AM 12.05 53.69 0.155 7.54 32.78 6.66
5/7/2023 12:30:00 AM 12.05 53.69 0.155 7.53 32.73 6.6
5/7/2023 12:45:00 AM 12.06 53.708 0.155 7.52 32.7 6.52
5/7/2023 1:00:00 AM 12.06 53.708 0.156 7.52 32.79 6.37
5/7/2023 1:15:00 AM 12.06 53.708 0.156 7.52 32.55 6.28
5/7/2023 1:30:00 AM 12.07 53.726 0.156 7.52 33.06 6.13
5/7/2023 1:45:00 AM 12.07 53.726 0.156 7.52 32.81 6.06
5/7/2023 2:00:00 AM 12.08 53.744 0.155 7.52 35.33 6.35
5/7/2023 2:15:00 AM 12.08 53.744 0.153 7.53 34.08 6.53
5/7/2023 2:30:00 AM 12.09 53.762 0.153 7.53 33.81 6.49
5/7/2023 2:45:00 AM 12.1 53.78 0.153 7.54 33.4 6.45
5/7/2023 3:00:00 AM 12.1 53.78 0.154 7.53 33.31 6.54
5/7/2023 3:15:00 AM 12.11 53.798 0.154 7.54 33.03 6.52
5/7/2023 3:30:00 AM 12.11 53.798 0.154 7.53 32.83 6.6
5/7/2023 3:45:00 AM 12.11 53.798 0.154 7.54 33.17 6.59
5/7/2023 4:00:00 AM 12.12 53.816 0.154 7.54 32.91 6.57
5/7/2023 4:15:00 AM 12.12 53.816 0.155 7.53 32.7 6.58
5/7/2023 4:30:00 AM 12.13 53.834 0.155 7.53 32.59 6.62
5/7/2023 4:45:00 AM 12.13 53.834 0.155 7.52 32.53 6.52
5/7/2023 5:00:00 AM 12.14 53.852 0.156 7.53 32.38 6.51
5/7/2023 5:15:00 AM 12.14 53.852 0.156 7.52 32.48 6.48
5/7/2023 5:30:00 AM 12.14 53.852 0.156 7.52 32.35 6.42
5/7/2023 5:45:00 AM 12.15 53.87 0.156 7.51 32.18 6.51
5/7/2023 6:00:00 AM 12.15 53.87 0.156 7.53 32.12 6.6
5/7/2023 6:15:00 AM 12.15 53.87 0.156 7.53 31.89 6.59
5/7/2023 6:30:00 AM 12.15 53.87 0.156 7.53 32.11 6.62
5/7/2023 6:45:00 AM 12.14 53.852 0.151 7.54 34.92 6.92
5/7/2023 7:00:00 AM 11.89 53.402 0.154 7.77 49.1 9.28
5/7/2023 7:15:00 AM 11.81 53.258 0.154 7.8 41.74 9.4
5/7/2023 7:30:00 AM 11.77 53.186 0.154 7.81 40.61 9.43
5/7/2023 7:45:00 AM 11.76 53.168 0.154 7.79 37.61 9.38
5/7/2023 8:00:00 AM 11.75 53.15 0.154 7.8 36.82 9.38
5/7/2023 8:15:00 AM 11.75 53.15 0.155 7.81 35.75 9.42
5/7/2023 8:30:00 AM 11.75 53.15 0.155 7.8 37.21 9.41
5/7/2023 8:45:00 AM 11.76 53.168 0.155 7.79 37.93 9.43
5/7/2023 9:00:00 AM 11.77 53.186 0.155 7.8 36.72 9.42
5/7/2023 9:15:00 AM 11.78 53.204 0.155 7.81 38.47 9.41
5/7/2023 9:30:00 AM 11.81 53.258 0.155 7.81 37.19 9.43
5/7/2023 9:45:00 AM 11.83 53.294 0.155 7.8 36.64 9.38
5/7/2023 10:00:00 AM 11.85 53.33 0.156 7.8 35.71 9.31
5/7/2023 10:15:00 AM 11.87 53.366 0.156 7.77 34.4 9.1
5/7/2023 10:30:00 AM 11.91 53.438 0.156 7.81 37.56 9.29
5/7/2023 10:45:00 AM 11.95 53.51 0.156 7.8 36.76 9.38
5/7/2023 11:00:00 AM 12 53.6 0.156 7.81 38.98 9.41
5/7/2023 11:15:00 AM 12.05 53.69 0.156 7.81 40.71 9.43
5/7/2023 11:30:00 AM 12.1 53.78 0.156 7.82 38.49 9.48
5/7/2023 11:45:00 AM 12.15 53.87 0.156 7.81 39.33 9.49
5/7/2023 12:00:00 PM 12.2 53.96 0.156 7.82 39.87 9.48
5/7/2023 12:15:00 PM 12.26 54.068 0.157 7.81 40.33 9.49
5/7/2023 12:30:00 PM 12.32 54.176 0.157 7.82 39.52 9.48
5/7/2023 12:45:00 PM 12.38 54.284 0.157 7.83 41.29 9.53
5/7/2023 1:00:00 PM 12.43 54.374 0.157 7.83 39.67 9.46
5/7/2023 1:15:00 PM 12.49 54.482 0.157 7.83 38.15 9.5
5/7/2023 1:30:00 PM 12.55 54.59 0.157 7.82 38.07 9.47
5/7/2023 1:45:00 PM 12.61 54.698 0.157 7.83 38.2 9.47
5/7/2023 2:00:00 PM 12.66 54.788 0.157 7.83 38.51 9.46
5/7/2023 2:15:00 PM 12.73 54.914 0.157 7.83 42.02 9.53
5/7/2023 2:30:00 PM 12.73 54.914 0.157 7.81 34.48 9.27
5/7/2023 2:45:00 PM 12.73 54.914 0.158 7.79 33.32 9.09
5/7/2023 3:00:00 PM 12.73 54.914 0.158 7.76 32.72 8.95
5/7/2023 3:15:00 PM 12.72 54.896 0.158 7.75 32.47 8.85
5/7/2023 3:30:00 PM 12.72 54.896 0.158 7.74 32.11 8.8
5/7/2023 3:45:00 PM 12.72 54.896 0.158 7.74 32.29 8.72
5/7/2023 4:00:00 PM 12.71 54.878 0.158 7.74 32 8.7
5/7/2023 4:15:00 PM 12.7 54.86 0.158 7.73 31.68 8.59
5/7/2023 4:30:00 PM 12.7 54.86 0.158 7.71 31.56 8.48
5/7/2023 4:45:00 PM 12.69 54.842 0.158 7.7 31.63 8.36
5/7/2023 5:00:00 PM 12.68 54.824 0.159 7.69 31.36 8.28
5/7/2023 5:15:00 PM 12.67 54.806 0.159 7.68 31.11 8.16
5/7/2023 5:30:00 PM 12.66 54.788 0.159 7.68 31.11 8.09
5/7/2023 5:45:00 PM 12.66 54.788 0.159 7.66 31.05 7.91
5/7/2023 6:00:00 PM 12.66 54.788 0.159 7.65 31.5 7.74
5/7/2023 6:15:00 PM 12.65 54.77 0.16 7.64 30.95 7.67
5/7/2023 6:30:00 PM 12.65 54.77 0.16 7.64 30.86 7.63
5/7/2023 6:45:00 PM 12.65 54.77 0.16 7.63 31.04 7.5
5/7/2023 7:00:00 PM 12.64 54.752 0.16 7.62 30.83 7.34
5/7/2023 7:15:00 PM 12.64 54.752 0.16 7.61 31.22 7.28
5/7/2023 7:30:00 PM 12.64 54.752 0.16 7.61 30.94 7.17
5/7/2023 7:45:00 PM 12.63 54.734 0.161 7.61 30.73 7.08
5/7/2023 8:00:00 PM 12.63 54.734 0.161 7.6 30.7 6.98
5/7/2023 8:15:00 PM 12.63 54.734 0.161 7.59 30.57 6.88
5/7/2023 8:30:00 PM 12.62 54.716 0.161 7.58 30.47 6.79
5/7/2023 8:45:00 PM 12.62 54.716 0.161 7.58 30.3 6.71
5/7/2023 9:00:00 PM 12.62 54.716 0.162 7.57 30.54 6.56
5/7/2023 9:15:00 PM 12.61 54.698 0.162 7.57 30.36 6.42
5/7/2023 9:30:00 PM 12.61 54.698 0.162 7.57 30.21 6.35
5/7/2023 9:45:00 PM 12.61 54.698 0.162 7.56 30.18 6.26
5/7/2023 10:00:00 PM 12.61 54.698 0.162 7.55 30.2 6.17
5/7/2023 10:15:00 PM 12.6 54.68 0.163 7.54 30.23 6.11
5/7/2023 10:30:00 PM 12.6 54.68 0.163 7.54 30.96 6.08
5/7/2023 10:45:00 PM 12.59 54.662 0.163 7.54 30.62 6.04
5/7/2023 11:00:00 PM 12.59 54.662 0.163 7.53 30.32 6
5/7/2023 11:15:00 PM 12.59 54.662 0.163 7.52 30.59 5.92
5/7/2023 11:30:00 PM 12.59 54.662 0.163 7.52 30.26 5.96
5/7/2023 11:45:00 PM 12.59 54.662 0.163 7.53 30.32 5.91
5/8/2023 12:00:00 AM 12.59 54.662 0.163 7.52 30.25 5.86
5/8/2023 12:15:00 AM 12.59 54.662 0.164 7.52 30.21 5.71
5/8/2023 12:30:00 AM 12.58 54.644 0.164 7.52 30 5.63
5/8/2023 12:45:00 AM 12.59 54.662 0.164 7.51 30.24 5.55
5/8/2023 1:00:00 AM 12.59 54.662 0.164 7.51 30.18 5.41
5/8/2023 1:15:00 AM 12.59 54.662 0.165 7.51 30.08 5.34
5/8/2023 1:30:00 AM 12.59 54.662 0.165 7.51 30.2 5.24
5/8/2023 1:45:00 AM 12.6 54.68 0.165 7.51 30.22 5.19
5/8/2023 2:00:00 AM 12.6 54.68 0.164 7.52 30.23 5.38
5/8/2023 2:15:00 AM 12.6 54.68 0.164 7.52 30.34 5.24
5/8/2023 2:30:00 AM 12.61 54.698 0.164 7.51 30.18 5.25
5/8/2023 2:45:00 AM 12.61 54.698 0.163 7.53 31.43 5.65
5/8/2023 3:00:00 AM 12.61 54.698 0.163 7.52 30.68 5.66
5/8/2023 3:15:00 AM 12.62 54.716 0.163 7.53 30.48 5.78
5/8/2023 3:30:00 AM 12.62 54.716 0.162 7.55 30.89 6.33
5/8/2023 3:45:00 AM 12.62 54.716 0.162 7.54 30.69 6.07
5/8/2023 4:00:00 AM 12.63 54.734 0.162 7.53 30.4 5.94
5/8/2023 4:15:00 AM 12.63 54.734 0.162 7.55 30.65 6.27
5/8/2023 4:30:00 AM 12.63 54.734 0.162 7.55 30.53 6.48
5/8/2023 4:45:00 AM 12.64 54.752 0.162 7.55 30.24 6.37
5/8/2023 5:00:00 AM 12.64 54.752 0.162 7.55 30.59 6.3
5/8/2023 5:15:00 AM 12.65 54.77 0.162 7.54 30.28 6.28
5/8/2023 5:30:00 AM 12.65 54.77 0.161 7.52 32.11 6.22
5/8/2023 5:45:00 AM 12.65 54.77 0.16 7.54 31.26 6.39
5/8/2023 6:00:00 AM 12.65 54.77 0.161 7.54 31.24 6.37
5/8/2023 6:15:00 AM 12.65 54.77 0.161 7.53 30.68 6.42
5/8/2023 6:30:00 AM 12.65 54.77 0.162 7.54 30.37 6.37
5/8/2023 6:45:00 AM 12.66 54.788 0.162 7.54 29.83 6.44
5/8/2023 7:00:00 AM 12.66 54.788 0.157 7.49 31.31 6.04
5/8/2023 7:15:00 AM 12.68 54.824 0.161 7.76 47.5 9.04
5/8/2023 7:30:00 AM 12.72 54.896 0.161 7.84 45.52 9.29
5/8/2023 7:45:00 AM 12.73 54.914 0.161 7.83 43.62 9.37
5/8/2023 8:00:00 AM 12.74 54.932 0.162 7.84 37.26 9.33
5/8/2023 8:15:00 AM 12.75 54.95 0.162 7.82 33.52 9.19
5/8/2023 8:30:00 AM 12.75 54.95 0.162 7.83 35.45 9.2
5/8/2023 8:45:00 AM 12.77 54.986 0.163 7.85 35.86 9.25
5/8/2023 9:00:00 AM 12.79 55.022 0.163 7.85 38.63 9.29
5/8/2023 9:15:00 AM 12.81 55.058 0.163 7.85 37.09 9.33
5/8/2023 9:30:00 AM 12.85 55.13 0.163 7.86 40.84 9.33
5/8/2023 9:45:00 AM 12.87 55.166 0.163 7.86 38.13 9.32
5/8/2023 10:00:00 AM 12.91 55.238 0.164 7.86 39.83 9.34
5/8/2023 10:15:00 AM 12.97 55.346 0.164 7.87 40.53 9.36
5/8/2023 10:30:00 AM 13.02 55.436 0.164 7.86 40.77 9.38
5/8/2023 10:45:00 AM 13.04 55.472 0.164 7.87 40.27 9.35
5/8/2023 11:00:00 AM 13.07 55.526 0.165 7.87 41.49 9.38
5/8/2023 11:15:00 AM 13.12 55.616 0.165 7.87 40.48 9.38
5/8/2023 11:30:00 AM 13.17 55.706 0.165 7.88 39.35 9.41
5/8/2023 11:45:00 AM 13.23 55.814 0.165 7.87 43.05 9.4
5/8/2023 12:00:00 PM 13.26 55.868 0.166 7.88 42.82 9.39
5/8/2023 12:15:00 PM 13.31 55.958 0.166 7.87 41.85 9.39
5/8/2023 12:30:00 PM 13.43 56.174 0.166 7.88 41.34 9.4
5/8/2023 12:45:00 PM 13.54 56.372 0.166 7.89 41.07 9.38
5/8/2023 1:00:00 PM 13.64 56.552 0.166 7.89 41.96 9.43
5/8/2023 1:15:00 PM 13.73 56.714 0.166 7.87 41.58 9.41
5/8/2023 1:30:00 PM 13.77 56.786 0.166 7.89 40.84 9.42
5/8/2023 1:45:00 PM 13.81 56.858 0.166 7.88 42.92 9.42
5/8/2023 2:00:00 PM 13.88 56.984 0.167 7.89 42.45 9.4
5/8/2023 2:15:00 PM 13.93 57.074 0.167 7.89 42.26 9.39
5/8/2023 2:30:00 PM 13.99 57.182 0.167 7.9 43.9 9.42
5/8/2023 2:45:00 PM 14.07 57.326 0.167 7.89 43.24 9.43
5/8/2023 3:00:00 PM 14.11 57.398 0.167 7.88 38.73 9.34
5/8/2023 3:15:00 PM 14.12 57.416 0.168 7.85 34.99 9.09
5/8/2023 3:30:00 PM 14.11 57.398 0.168 7.82 34.83 8.95
5/8/2023 3:45:00 PM 14.1 57.38 0.168 7.82 33.68 8.84
5/8/2023 4:00:00 PM 14.1 57.38 0.168 7.8 33.55 8.74
5/8/2023 4:15:00 PM 14.08 57.344 0.168 7.8 33.15 8.65
5/8/2023 4:30:00 PM 14.07 57.326 0.168 7.78 32.98 8.62
5/8/2023 4:45:00 PM 14.06 57.308 0.168 7.78 33.1 8.53
5/8/2023 5:00:00 PM 14.04 57.272 0.169 7.77 32.74 8.47
5/8/2023 5:15:00 PM 14.03 57.254 0.169 7.74 32.7 8.43
5/8/2023 5:30:00 PM 14.02 57.236 0.169 7.75 32.27 8.36
5/8/2023 5:45:00 PM 14.02 57.236 0.169 7.74 32.11 8.2
5/8/2023 6:00:00 PM 14.01 57.218 0.169 7.73 32.09 8.21
5/8/2023 6:15:00 PM 14 57.2 0.169 7.72 31.69 8.08
5/8/2023 6:30:00 PM 13.99 57.182 0.169 7.71 31.93 8.01
5/8/2023 6:45:00 PM 13.99 57.182 0.169 7.71 31.58 7.93
5/8/2023 7:00:00 PM 13.99 57.182 0.169 7.71 34.64 7.86
5/8/2023 7:15:00 PM 13.98 57.164 0.169 7.7 34.08 7.85
5/8/2023 7:30:00 PM 13.98 57.164 0.169 7.69 33.17 7.68
5/8/2023 7:45:00 PM 13.97 57.146 0.169 7.69 32.78 7.64
5/8/2023 8:00:00 PM 13.96 57.128 0.169 7.69 32.55 7.55
5/8/2023 8:15:00 PM 13.95 57.11 0.17 7.68 32.19 7.44
5/8/2023 8:30:00 PM 13.95 57.11 0.17 7.66 32.2 7.34
5/8/2023 8:45:00 PM 13.94 57.092 0.17 7.66 31.96 7.26
5/8/2023 9:00:00 PM 13.94 57.092 0.17 7.65 32.57 7.12
5/8/2023 9:15:00 PM 13.93 57.074 0.17 7.63 32.36 7
5/8/2023 9:30:00 PM 13.93 57.074 0.17 7.64 32.61 6.89
5/8/2023 9:45:00 PM 13.92 57.056 0.171 7.63 32.4 6.79
5/8/2023 10:00:00 PM 13.93 57.074 0.171 7.62 34.88 6.47
5/8/2023 10:15:00 PM 13.92 57.056 0.171 7.63 34.03 6.7
5/8/2023 10:30:00 PM 13.92 57.056 0.171 7.62 33.92 6.59
5/8/2023 10:45:00 PM 13.92 57.056 0.17 7.62 34.58 6.88
5/8/2023 11:00:00 PM 13.91 57.038 0.169 7.62 33.91 6.83
5/8/2023 11:15:00 PM 13.9 57.02 0.169 7.62 33.33 6.84
5/8/2023 11:30:00 PM 13.9 57.02 0.169 7.61 33.56 6.69
5/8/2023 11:45:00 PM 13.9 57.02 0.169 7.6 33.38 6.58
5/9/2023 12:00:00 AM 13.89 57.002 0.17 7.6 33.04 6.49
5/9/2023 12:15:00 AM 13.89 57.002 0.17 7.59 33.16 6.38
5/9/2023 12:30:00 AM 13.89 57.002 0.17 7.58 32.53 6.25
5/9/2023 12:45:00 AM 13.88 56.984 0.17 7.58 32.15 6.14
5/9/2023 1:00:00 AM 13.88 56.984 0.171 7.57 32.04 6.14
5/9/2023 1:15:00 AM 13.88 56.984 0.171 7.56 31.93 5.98
5/9/2023 1:30:00 AM 13.87 56.966 0.171 7.58 31.85 6.08
5/9/2023 1:45:00 AM 13.87 56.966 0.171 7.57 31.99 5.96
5/9/2023 2:00:00 AM 13.87 56.966 0.171 7.56 32.08 5.85
5/9/2023 2:15:00 AM 13.87 56.966 0.171 7.56 31.95 5.75
5/9/2023 2:30:00 AM 13.86 56.948 0.171 7.55 30.78 5.68
5/9/2023 2:45:00 AM 13.86 56.948 0.171 7.55 31.58 5.86
5/9/2023 3:00:00 AM 13.86 56.948 0.17 7.54 32.11 5.71
5/9/2023 3:15:00 AM 13.86 56.948 0.171 7.54 33.87 5.52
5/9/2023 3:30:00 AM 13.86 56.948 0.171 7.54 33.31 5.46
5/9/2023 3:45:00 AM 13.85 56.93 0.171 7.55 32.4 5.55
5/9/2023 4:00:00 AM 13.85 56.93 0.171 7.54 32.3 5.54
5/9/2023 4:15:00 AM 13.84 56.912 0.171 7.54 32.08 5.48
5/9/2023 4:30:00 AM 13.84 56.912 0.171 7.52 31.83 5.4
5/9/2023 4:45:00 AM 13.84 56.912 0.171 7.53 32.19 5.2
5/9/2023 5:00:00 AM 13.84 56.912 0.171 7.53 32.33 5.21
5/9/2023 5:15:00 AM 13.84 56.912 0.171 7.52 32.23 5.17
5/9/2023 5:30:00 AM 13.83 56.894 0.172 7.51 32.01 5.11
5/9/2023 5:45:00 AM 13.83 56.894 0.171 7.51 31.96 5.11
5/9/2023 6:00:00 AM 13.83 56.894 0.172 7.52 31.06 5.16
5/9/2023 6:15:00 AM 13.83 56.894 0.172 7.52 32.03 5.13
5/9/2023 6:30:00 AM 13.82 56.876 0.171 7.52 32.26 5.13
5/9/2023 6:45:00 AM 13.82 56.876 0.171 7.52 32.28 5.19
5/9/2023 7:00:00 AM 13.82 56.876 0.172 7.52 32.05 5.05
5/9/2023 7:15:00 AM 13.6 56.48 0.172 7.65 40.17 7.53
5/9/2023 7:30:00 AM 13.61 56.498 0.172 7.67 34.34 7.69
5/9/2023 7:45:00 AM 13.8 56.84 0.171 7.73 43.25 8.3
5/9/2023 8:00:00 AM 13.95 57.11 0.172 7.85 52.3 8.87
5/9/2023 8:15:00 AM 13.99 57.182 0.173 7.88 48.65 9.05
5/9/2023 8:30:00 AM 14 57.2 0.173 7.89 45.37 9.04
5/9/2023 8:45:00 AM 14.01 57.218 0.174 7.89 39.76 9.02
5/9/2023 9:00:00 AM 14.02 57.236 0.174 7.89 40.88 9.03
5/9/2023 9:15:00 AM 14.02 57.236 0.174 7.9 38.29 9.02
5/9/2023 9:30:00 AM 14.04 57.272 0.174 7.9 36.53 9
5/9/2023 9:45:00 AM 14.06 57.308 0.174 7.9 38.17 9.04
5/9/2023 10:00:00 AM 14.07 57.326 0.175 7.88 35.78 8.9
5/9/2023 10:15:00 AM 14.09 57.362 0.175 7.88 34.17 8.86
5/9/2023 10:30:00 AM 14.11 57.398 0.175 7.86 35.18 8.79
5/9/2023 10:45:00 AM 14.15 57.47 0.175 7.87 33.78 8.8
5/9/2023 11:00:00 AM 14.18 57.524 0.175 7.85 32.76 8.71
5/9/2023 11:15:00 AM 14.22 57.596 0.175 7.84 33.6 8.69
5/9/2023 11:30:00 AM 14.26 57.668 0.175 7.85 35.25 8.66
5/9/2023 11:45:00 AM 14.3 57.74 0.175 7.83 33.83 8.53
5/9/2023 12:00:00 PM 14.35 57.83 0.175 7.83 33.83 8.59
5/9/2023 12:15:00 PM 14.4 57.92 0.176 7.82 37.29 8.64
5/9/2023 12:30:00 PM 14.45 58.01 0.176 7.81 37.99 8.55
5/9/2023 12:45:00 PM 14.55 58.19 0.176 7.86 40.41 8.9
5/9/2023 1:00:00 PM 14.57 58.226 0.176 7.85 36.49 8.73
5/9/2023 1:15:00 PM 14.58 58.244 0.176 7.81 34.67 8.48
5/9/2023 1:30:00 PM 14.58 58.244 0.175 7.77 36.08 8.37
5/9/2023 1:45:00 PM 14.59 58.262 0.176 7.77 35.42 8.31
5/9/2023 2:00:00 PM 14.6 58.28 0.176 7.76 35.36 8.26
5/9/2023 2:15:00 PM 14.6 58.28 0.177 7.78 34.99 8.24
5/9/2023 2:30:00 PM 14.6 58.28 0.177 7.77 34.69 8.23
5/9/2023 2:45:00 PM 14.59 58.262 0.177 7.76 34.79 8.17
5/9/2023 3:00:00 PM 14.58 58.244 0.177 7.76 34.76 8.16
5/9/2023 3:15:00 PM 14.58 58.244 0.177 7.76 35.09 8.11
5/9/2023 3:30:00 PM 14.57 58.226 0.177 7.75 34.86 8.02
5/9/2023 3:45:00 PM 14.57 58.226 0.177 7.74 34.54 7.94
5/9/2023 4:00:00 PM 14.56 58.208 0.177 7.76 34.52 8.03
5/9/2023 4:15:00 PM 14.56 58.208 0.177 7.76 34.7 7.98
5/9/2023 4:30:00 PM 14.55 58.19 0.177 7.73 34.01 7.88
5/9/2023 4:45:00 PM 14.55 58.19 0.177 7.73 33.77 7.84
5/9/2023 5:00:00 PM 14.54 58.172 0.178 7.72 34.01 7.73
5/9/2023 5:15:00 PM 14.54 58.172 0.178 7.72 33.88 7.63
5/9/2023 5:30:00 PM 14.53 58.154 0.178 7.72 33.76 7.58
5/9/2023 5:45:00 PM 14.53 58.154 0.178 7.7 33.27 7.53
5/9/2023 6:00:00 PM 14.52 58.136 0.178 7.71 33.54 7.51
5/9/2023 6:15:00 PM 14.52 58.136 0.178 7.69 33.33 7.39
5/9/2023 6:30:00 PM 14.51 58.118 0.178 7.7 33.16 7.37
5/9/2023 6:45:00 PM 14.51 58.118 0.178 7.68 33.06 7.28
5/9/2023 7:00:00 PM 14.51 58.118 0.178 7.69 33.01 7.26
5/9/2023 7:15:00 PM 14.5 58.1 0.178 7.68 32.77 7.24
5/9/2023 7:30:00 PM 14.5 58.1 0.178 7.68 33.03 7.17
5/9/2023 7:45:00 PM 14.5 58.1 0.178 7.67 32.75 7.16
5/9/2023 8:00:00 PM 14.49 58.082 0.178 7.66 32.6 7.09
5/9/2023 8:15:00 PM 14.49 58.082 0.178 7.67 32.6 7.09
5/9/2023 8:30:00 PM 14.49 58.082 0.178 7.66 32.51 7.04
5/9/2023 8:45:00 PM 14.48 58.064 0.178 7.66 32.75 7
5/9/2023 9:00:00 PM 14.48 58.064 0.178 7.66 32.36 6.91
5/9/2023 9:15:00 PM 14.48 58.064 0.178 7.66 32.38 6.88
5/9/2023 9:30:00 PM 14.47 58.046 0.179 7.66 32.33 6.82
5/9/2023 9:45:00 PM 14.47 58.046 0.179 7.65 32.36 6.77
5/9/2023 10:00:00 PM 14.47 58.046 0.179 7.64 32.39 6.67
5/9/2023 10:15:00 PM 14.46 58.028 0.179 7.64 32.23 6.64
5/9/2023 10:30:00 PM 14.46 58.028 0.179 7.64 32.38 6.51
5/9/2023 10:45:00 PM 14.46 58.028 0.179 7.64 32.29 6.5
5/9/2023 11:00:00 PM 14.45 58.01 0.179 7.63 32.41 6.5
5/9/2023 11:15:00 PM 14.45 58.01 0.179 7.62 32.33 6.33
5/9/2023 11:30:00 PM 14.45 58.01 0.179 7.6 32.73 6.26
5/9/2023 11:45:00 PM 14.45 58.01 0.179 7.63 33.36 6.37
5/10/2023 12:00:00 AM 14.45 58.01 0.179 7.6 32.92 6.27
5/10/2023 12:15:00 AM 14.44 57.992 0.179 7.61 32.68 6.25
5/10/2023 12:30:00 AM 14.44 57.992 0.179 7.6 32.41 6.13
5/10/2023 12:45:00 AM 14.44 57.992 0.179 7.6 32.71 6.11
5/10/2023 1:00:00 AM 14.43 57.974 0.179 7.59 32.02 6.14
5/10/2023 1:15:00 AM 14.43 57.974 0.179 7.6 32.16 6.14
5/10/2023 1:30:00 AM 14.43 57.974 0.179 7.61 32.25 6.29
5/10/2023 1:45:00 AM 14.42 57.956 0.179 7.61 32.36 6.22
5/10/2023 2:00:00 AM 14.42 57.956 0.179 7.6 32.4 6.11
5/10/2023 2:15:00 AM 14.42 57.956 0.179 7.59 32.83 6.08
5/10/2023 2:30:00 AM 14.42 57.956 0.179 7.6 33.19 6.05
5/10/2023 2:45:00 AM 14.42 57.956 0.179 7.62 32.6 6.08
5/10/2023 3:00:00 AM 14.42 57.956 0.179 7.6 30.68 6.08
5/10/2023 3:15:00 AM 14.41 57.938 0.179 7.61 29.8 6.08
5/10/2023 3:30:00 AM 14.4 57.92 0.179 7.6 29.59 6.09
5/10/2023 3:45:00 AM 14.4 57.92 0.179 7.59 29.21 6.03
5/10/2023 4:00:00 AM 14.4 57.92 0.179 7.6 29.58 5.95
5/10/2023 4:15:00 AM 14.4 57.92 0.179 7.59 29.57 5.84
5/10/2023 4:30:00 AM 14.39 57.902 0.18 7.58 29.46 5.74
5/10/2023 4:45:00 AM 14.39 57.902 0.18 7.56 29.48 5.62
5/10/2023 5:00:00 AM 14.39 57.902 0.18 7.56 29.99 5.54
5/10/2023 5:15:00 AM 14.38 57.884 0.18 7.57 29.7 5.47
5/10/2023 5:30:00 AM 14.38 57.884 0.18 7.56 29.65 5.39
5/10/2023 5:45:00 AM 14.38 57.884 0.18 7.56 29.67 5.32
5/10/2023 6:00:00 AM 14.38 57.884 0.18 7.56 29.4 5.27
5/10/2023 6:15:00 AM 14.37 57.866 0.18 7.55 29.85 5.21
5/10/2023 6:30:00 AM 14.37 57.866 0.181 7.54 29.51 5.16
5/10/2023 6:45:00 AM 14.37 57.866 0.177 7.64 30.98 6.66
5/10/2023 7:00:00 AM 14.29 57.722 0.176 7.65 31.33 7.29
5/10/2023 7:15:00 AM 14.28 57.704 0.179 7.84 37.05 8.59
5/10/2023 7:30:00 AM 14.32 57.776 0.181 7.91 39.68 8.86
5/10/2023 7:45:00 AM 14.32 57.776 0.181 7.92 38.59 8.93
5/10/2023 8:00:00 AM 14.31 57.758 0.181 7.93 39.15 8.98
5/10/2023 8:15:00 AM 14.32 57.776 0.182 7.94 38.76 8.98
5/10/2023 8:30:00 AM 14.32 57.776 0.182 7.94 39.24 8.97
5/10/2023 8:45:00 AM 14.33 57.794 0.182 7.95 38.46 8.99
5/10/2023 9:00:00 AM 14.35 57.83 0.182 7.94 39.18 9.03
5/10/2023 9:15:00 AM 14.37 57.866 0.182 7.95 38.45 9.03
5/10/2023 9:30:00 AM 14.4 57.92 0.182 7.96 39.11 9.04
5/10/2023 9:45:00 AM 14.43 57.974 0.183 7.96 38.53 9.01
5/10/2023 10:00:00 AM 14.47 58.046 0.183 7.96 39.07 9.06
5/10/2023 10:15:00 AM 14.51 58.118 0.183 7.96 38.38 9.08
5/10/2023 10:30:00 AM 14.55 58.19 0.183 7.96 38.37 9.09
5/10/2023 10:45:00 AM 14.59 58.262 0.183 7.96 39.06 9.09
5/10/2023 11:00:00 AM 14.64 58.352 0.183 7.96 39.1 9.08
5/10/2023 11:15:00 AM 14.69 58.442 0.183 7.96 38.06 9.12
5/10/2023 11:30:00 AM 14.74 58.532 0.183 7.95 39.08 9.12
5/10/2023 11:45:00 AM 14.79 58.622 0.183 7.96 38.27 9.11
5/10/2023 12:00:00 PM 14.85 58.73 0.183 7.97 39.3 9.13
5/10/2023 12:15:00 PM 14.91 58.838 0.184 7.98 40.95 9.13
5/10/2023 12:30:00 PM 14.98 58.964 0.184 7.98 37.83 9.17
5/10/2023 12:45:00 PM 15.04 59.072 0.184 7.98 39.49 9.17
5/10/2023 1:00:00 PM 15.11 59.198 0.184 7.98 39.03 9.16
5/10/2023 1:15:00 PM 15.18 59.324 0.184 7.99 39.56 9.18
5/10/2023 1:30:00 PM 15.28 59.504 0.184 7.99 41.41 9.23
5/10/2023 1:45:00 PM 15.35 59.63 0.184 7.99 40.09 9.24
5/10/2023 2:00:00 PM 15.42 59.756 0.184 8 40.14 9.24
5/10/2023 2:15:00 PM 15.5 59.9 0.184 8 39.61 9.26
5/10/2023 2:30:00 PM 15.57 60.026 0.184 8.01 39.83 9.28
5/10/2023 2:45:00 PM 15.63 60.134 0.184 8.01 39.61 9.28
5/10/2023 3:00:00 PM 15.68 60.224 0.185 8 39.9 9.26
5/10/2023 3:15:00 PM 15.69 60.242 0.185 7.98 34.1 9.16
5/10/2023 3:30:00 PM 15.69 60.242 0.185 7.93 33.46 8.9
5/10/2023 3:45:00 PM 15.68 60.224 0.185 7.93 32.23 8.72
5/10/2023 4:00:00 PM 15.67 60.206 0.185 7.9 32.32 8.61
5/10/2023 4:15:00 PM 15.66 60.188 0.186 7.9 32.07 8.57
5/10/2023 4:30:00 PM 15.65 60.17 0.186 7.86 31.86 8.56
5/10/2023 4:45:00 PM 15.64 60.152 0.186 7.88 31.91 8.51
5/10/2023 5:00:00 PM 15.64 60.152 0.186 7.86 31.16 8.31
5/10/2023 5:15:00 PM 15.63 60.134 0.186 7.85 30.99 8.3
5/10/2023 5:30:00 PM 15.62 60.116 0.186 7.84 30.75 8.19
5/10/2023 5:45:00 PM 15.61 60.098 0.186 7.84 30.58 8.18
5/10/2023 6:00:00 PM 15.6 60.08 0.186 7.84 30.51 8.19
5/10/2023 6:15:00 PM 15.59 60.062 0.186 7.84 30.88 8.13
5/10/2023 6:30:00 PM 15.59 60.062 0.186 7.83 30.36 8.06
5/10/2023 6:45:00 PM 15.58 60.044 0.186 7.8 30.41 7.98
5/10/2023 7:00:00 PM 15.57 60.026 0.186 7.82 29.91 7.95
5/10/2023 7:15:00 PM 15.57 60.026 0.186 7.81 29.58 7.92
5/10/2023 7:30:00 PM 15.56 60.008 0.186 7.79 29.65 7.87
5/10/2023 7:45:00 PM 15.55 59.99 0.186 7.79 29.52 7.79
5/10/2023 8:00:00 PM 15.55 59.99 0.186 7.8 29.61 7.78
5/10/2023 8:15:00 PM 15.54 59.972 0.186 7.79 29.57 7.7
5/10/2023 8:30:00 PM 15.54 59.972 0.186 7.78 29.25 7.67
5/10/2023 8:45:00 PM 15.53 59.954 0.186 7.78 29.27 7.66
5/10/2023 9:00:00 PM 15.52 59.936 0.186 7.78 29.1 7.62
5/10/2023 9:15:00 PM 15.52 59.936 0.187 7.77 28.61 7.53
5/10/2023 9:30:00 PM 15.51 59.918 0.187 7.76 28.66 7.49
5/10/2023 9:45:00 PM 15.51 59.918 0.187 7.76 28.48 7.44
5/10/2023 10:00:00 PM 15.5 59.9 0.187 7.75 28.68 7.36
5/10/2023 10:15:00 PM 15.5 59.9 0.187 7.75 28.35 7.41
5/10/2023 10:30:00 PM 15.49 59.882 0.187 7.75 27.99 7.38
5/10/2023 10:45:00 PM 15.49 59.882 0.187 7.74 28.36 7.34
5/10/2023 11:00:00 PM 15.48 59.864 0.187 7.74 28.49 7.24
5/10/2023 11:15:00 PM 15.48 59.864 0.187 7.73 28.51 7.19
5/10/2023 11:30:00 PM 15.48 59.864 0.187 7.72 28.36 7.04
5/10/2023 11:45:00 PM 15.47 59.846 0.187 7.71 28.35 6.94
5/11/2023 12:00:00 AM 15.47 59.846 0.187 7.71 28.23 6.85
5/11/2023 12:15:00 AM 15.46 59.828 0.187 7.71 28.19 6.8
5/11/2023 12:30:00 AM 15.46 59.828 0.188 7.68 28.6 6.66
5/11/2023 12:45:00 AM 15.46 59.828 0.188 7.66 28.24 6.62
5/11/2023 1:00:00 AM 15.45 59.81 0.188 7.69 28.38 6.57
5/11/2023 1:15:00 AM 15.45 59.81 0.188 7.65 28.23 6.43
5/11/2023 1:30:00 AM 15.44 59.792 0.188 7.67 28.27 6.28
5/11/2023 1:45:00 AM 15.44 59.792 0.188 7.65 28.4 6.17
5/11/2023 2:00:00 AM 15.44 59.792 0.188 7.65 28.29 6.08
5/11/2023 2:15:00 AM 15.43 59.774 0.188 7.65 28.29 6.07
5/11/2023 2:30:00 AM 15.43 59.774 0.188 7.65 28.45 5.98
5/11/2023 2:45:00 AM 15.43 59.774 0.188 7.64 28.51 5.9
5/11/2023 3:00:00 AM 15.42 59.756 0.188 7.64 28.16 5.89
5/11/2023 3:15:00 AM 15.42 59.756 0.189 7.64 28.88 5.87
5/11/2023 3:30:00 AM 15.42 59.756 0.189 7.65 29.99 5.87
5/11/2023 3:45:00 AM 15.42 59.756 0.189 7.62 29.53 5.66
5/11/2023 4:00:00 AM 15.41 59.738 0.189 7.63 28.8 5.6
5/11/2023 4:15:00 AM 15.41 59.738 0.189 7.63 28.25 5.57
5/11/2023 4:30:00 AM 15.4 59.72 0.189 7.62 28.4 5.7
5/11/2023 4:45:00 AM 15.4 59.72 0.189 7.61 28.36 5.58
5/11/2023 5:00:00 AM 15.39 59.702 0.188 7.63 28.02 5.93
5/11/2023 5:15:00 AM 14.98 58.964 0.189 7.73 39.27 8.06
5/11/2023 5:30:00 AM 15.41 59.738 0.189 7.94 37.99 8.88
5/11/2023 5:45:00 AM 15.45 59.81 0.19 7.97 37.39 8.98
5/11/2023 6:00:00 AM 15.43 59.774 0.19 7.98 36.61 8.99
5/11/2023 6:15:00 AM 15.41 59.738 0.19 7.99 39.43 8.97
5/11/2023 6:30:00 AM 15.38 59.684 0.191 7.99 38.72 8.97
5/11/2023 6:45:00 AM 15.35 59.63 0.191 7.99 37.55 8.98
5/11/2023 7:00:00 AM 15.32 59.576 0.191 7.99 39.7 8.98
5/11/2023 7:15:00 AM 15.3 59.54 0.191 7.96 38.74 8.96
5/11/2023 7:30:00 AM 15.28 59.504 0.191 7.99 38.58 8.98
5/11/2023 7:45:00 AM 15.28 59.504 0.192 7.97 34.76 8.79
5/11/2023 8:00:00 AM 15.27 59.486 0.192 7.97 35.06 8.77
5/11/2023 8:15:00 AM 15.26 59.468 0.192 7.97 34.53 8.71
5/11/2023 8:30:00 AM 15.26 59.468 0.192 7.92 32.61 8.46
5/11/2023 8:45:00 AM 15.26 59.468 0.192 7.9 31.43 8.29
5/11/2023 9:00:00 AM 15.26 59.468 0.193 7.87 31.65 8.09
5/11/2023 9:15:00 AM 15.25 59.45 0.193 7.87 31.3 8.1
5/11/2023 9:30:00 AM 15.25 59.45 0.193 7.87 31.26 8.14
5/11/2023 9:45:00 AM 15.24 59.432 0.193 7.86 29.52 7.95
5/11/2023 10:00:00 AM 15.24 59.432 0.193 7.85 29.06 8.02
5/11/2023 10:15:00 AM 15.23 59.414 0.193 7.82 28.58 8.01
5/11/2023 10:30:00 AM 15.23 59.414 0.193 7.85 28.56 7.96
5/11/2023 10:45:00 AM 15.23 59.414 0.193 7.84 28.87 7.92
5/11/2023 11:00:00 AM 15.22 59.396 0.193 7.83 28.13 7.89
5/11/2023 11:15:00 AM 15.22 59.396 0.193 7.82 27.98 7.84
5/11/2023 11:30:00 AM 15.21 59.378 0.193 7.83 27.89 7.84
5/11/2023 11:45:00 AM 15.22 59.396 0.193 7.82 28.39 7.82
5/11/2023 12:00:00 PM 15.21 59.378 0.192 7.86 29.93 8.02
5/11/2023 12:15:00 PM 15.41 59.738 0.187 7.88 31.61 8.33
5/11/2023 12:30:00 PM 15.64 60.152 0.19 7.94 35.27 8.79
5/11/2023 12:45:00 PM 15.83 60.494 0.193 7.99 34.79 9.09
5/11/2023 1:00:00 PM 15.92 60.656 0.193 8 32.25 9.16
5/11/2023 1:15:00 PM 15.99 60.782 0.193 8.01 33.7 9.17
5/11/2023 1:30:00 PM 16.02 60.836 0.191 7.93 36.9 8.95
5/11/2023 1:45:00 PM 16.17 61.106 0.193 8.04 35 9.26
5/11/2023 2:00:00 PM 16.27 61.286 0.194 8.06 48.98 9.39
5/11/2023 2:15:00 PM 16.34 61.412 0.195 8.07 35.58 9.4
5/11/2023 2:30:00 PM 16.43 61.574 0.195 8.06 36.14 9.43
5/11/2023 2:45:00 PM 16.49 61.682 0.195 8.07 35.6 9.45
5/11/2023 3:00:00 PM 16.56 61.808 0.195 8.1 36.69 9.46
5/11/2023 3:15:00 PM 16.61 61.898 0.195 8.1 31.35 9.44
5/11/2023 3:30:00 PM 16.59 61.862 0.194 8.02 30.84 9.18
5/11/2023 3:45:00 PM 16.59 61.862 0.194 7.97 29.58 8.99
5/11/2023 4:00:00 PM 16.59 61.862 0.195 7.97 29.19 8.82
5/11/2023 4:15:00 PM 16.59 61.862 0.196 7.97 28.81 8.74
5/11/2023 4:30:00 PM 16.58 61.844 0.196 7.97 28.68 8.77
5/11/2023 4:45:00 PM 16.57 61.826 0.196 7.92 28.51 8.7
5/11/2023 5:00:00 PM 16.57 61.826 0.196 7.95 28.36 8.59
5/11/2023 5:15:00 PM 16.56 61.808 0.196 7.91 28.84 8.59
5/11/2023 5:30:00 PM 16.55 61.79 0.196 7.94 28.21 8.52
5/11/2023 5:45:00 PM 16.54 61.772 0.197 7.9 28.19 8.51
5/11/2023 6:00:00 PM 16.53 61.754 0.197 7.92 28.03 8.45
5/11/2023 6:15:00 PM 16.53 61.754 0.197 7.9 27.93 8.34
5/11/2023 6:30:00 PM 16.52 61.736 0.197 7.9 27.82 8.39
5/11/2023 6:45:00 PM 16.51 61.718 0.197 7.9 27.78 8.35
5/11/2023 7:00:00 PM 16.5 61.7 0.197 7.89 27.56 8.27
5/11/2023 7:15:00 PM 16.5 61.7 0.197 7.88 27.73 8.24
5/11/2023 7:30:00 PM 16.49 61.682 0.197 7.87 27.46 8.07
5/11/2023 7:45:00 PM 16.48 61.664 0.197 7.86 27.42 8.1
5/11/2023 8:00:00 PM 16.48 61.664 0.197 7.87 27.35 8.1
5/11/2023 8:15:00 PM 16.47 61.646 0.197 7.86 27.28 8.09
5/11/2023 8:30:00 PM 16.46 61.628 0.197 7.86 27.21 8.02
5/11/2023 8:45:00 PM 16.46 61.628 0.197 7.86 27.26 8.01
5/11/2023 9:00:00 PM 16.45 61.61 0.197 7.83 27.19 7.93
5/11/2023 9:15:00 PM 16.45 61.61 0.197 7.84 26.66 7.96
5/11/2023 9:30:00 PM 16.44 61.592 0.197 7.84 26.94 7.93
5/11/2023 9:45:00 PM 16.43 61.574 0.197 7.83 26.75 7.97
5/11/2023 10:00:00 PM 16.43 61.574 0.197 7.83 26.51 7.93
5/11/2023 10:15:00 PM 16.42 61.556 0.197 7.83 26.33 7.78
5/11/2023 10:30:00 PM 16.42 61.556 0.197 7.81 26.14 7.7
5/11/2023 10:45:00 PM 16.41 61.538 0.197 7.82 26.46 7.69
5/11/2023 11:00:00 PM 16.41 61.538 0.197 7.82 26.16 7.69
5/11/2023 11:15:00 PM 16.4 61.52 0.197 7.82 26.3 7.7
5/11/2023 11:30:00 PM 16.4 61.52 0.197 7.82 26.38 7.71
5/11/2023 11:45:00 PM 16.39 61.502 0.197 7.78 26.54 7.59
5/12/2023 12:00:00 AM 16.39 61.502 0.197 7.79 26.48 7.63
5/12/2023 12:15:00 AM 16.38 61.484 0.197 7.79 27.24 7.5
5/12/2023 12:30:00 AM 16.38 61.484 0.197 7.79 26.91 7.46
5/12/2023 12:45:00 AM 16.37 61.466 0.197 7.79 26.59 7.43
5/12/2023 1:00:00 AM 16.37 61.466 0.198 7.78 26.71 7.33
5/12/2023 1:15:00 AM 16.36 61.448 0.198 7.77 26.74 7.25
5/12/2023 1:30:00 AM 16.36 61.448 0.198 7.76 26.65 7.2
5/12/2023 1:45:00 AM 16.36 61.448 0.198 7.77 26.6 7.11
5/12/2023 2:00:00 AM 16.35 61.43 0.198 7.75 26.57 7.14
5/12/2023 2:15:00 AM 16.35 61.43 0.198 7.76 26.37 7.16
5/12/2023 2:30:00 AM 16.34 61.412 0.198 7.76 26.17 7.13
5/12/2023 2:45:00 AM 16.34 61.412 0.198 7.75 26.25 7.1
5/12/2023 3:00:00 AM 16.33 61.394 0.198 7.75 25.97 7.12
5/12/2023 3:15:00 AM 16.33 61.394 0.198 7.76 26.03 7.2
5/12/2023 3:30:00 AM 16.32 61.376 0.198 7.76 25.35 7.26
5/12/2023 3:45:00 AM 16.32 61.376 0.198 7.76 25.39 7.25
5/12/2023 4:00:00 AM 16.31 61.358 0.198 7.76 25.33 7.27
5/12/2023 4:15:00 AM 16.31 61.358 0.198 7.76 25.25 7.23
5/12/2023 4:30:00 AM 16.31 61.358 0.198 7.75 25.08 7.16
5/12/2023 4:45:00 AM 16.3 61.34 0.198 7.74 25.38 7.08
5/12/2023 5:00:00 AM 16.3 61.34 0.198 7.75 25.64 7.01
5/12/2023 5:15:00 AM 16.29 61.322 0.198 7.75 25.39 7.04
5/12/2023 5:30:00 AM 16.29 61.322 0.198 7.74 25.22 7.06
5/12/2023 5:45:00 AM 16.28 61.304 0.198 7.72 25 7.05
5/12/2023 6:00:00 AM 16.28 61.304 0.198 7.74 25 6.88
5/12/2023 6:15:00 AM 16.27 61.286 0.198 7.74 24.9 6.84
5/12/2023 6:30:00 AM 16.27 61.286 0.198 7.73 25.01 6.75
5/12/2023 6:45:00 AM 16.26 61.268 0.198 7.71 25.23 6.71
5/12/2023 7:00:00 AM 16.28 61.304 0.195 7.74 29.95 7.1
5/12/2023 7:15:00 AM 16.08 60.944 0.197 7.8 32.12 7.91
5/12/2023 7:30:00 AM 16.05 60.89 0.199 7.9 30.58 8.35
5/12/2023 7:45:00 AM 16.04 60.872 0.2 7.94 29.25 8.49
5/12/2023 8:00:00 AM 16.04 60.872 0.2 7.92 28.82 8.63
5/12/2023 8:15:00 AM 16.04 60.872 0.201 7.93 28.83 8.59
5/12/2023 8:30:00 AM 16.05 60.89 0.201 7.97 29.67 8.64
5/12/2023 8:45:00 AM 16.05 60.89 0.201 7.96 28.53 8.62
5/12/2023 9:00:00 AM 16.06 60.908 0.202 7.98 29.7 8.72
5/12/2023 9:15:00 AM 16.06 60.908 0.202 7.95 28.13 8.59
5/12/2023 9:30:00 AM 16.07 60.926 0.202 7.97 31.4 8.8
5/12/2023 9:45:00 AM 16.08 60.944 0.202 7.97 27.65 8.65
5/12/2023 10:00:00 AM 16.08 60.944 0.202 7.91 26.91 8.39
5/12/2023 10:15:00 AM 16.08 60.944 0.203 7.9 26.74 8.25
5/12/2023 10:30:00 AM 16.09 60.962 0.203 7.89 26.38 8.15
5/12/2023 10:45:00 AM 16.08 60.944 0.203 7.88 26.23 8.12
5/12/2023 11:00:00 AM 16.08 60.944 0.203 7.86 26.33 8.13
5/12/2023 11:15:00 AM 16.08 60.944 0.203 7.88 26.27 8.1
5/12/2023 11:30:00 AM 16.08 60.944 0.203 7.87 26.05 8.03
5/12/2023 11:45:00 AM 16.07 60.926 0.203 7.86 26.11 7.99
5/12/2023 12:00:00 PM 16.07 60.926 0.203 7.86 26.38 7.94
5/12/2023 12:15:00 PM 16.07 60.926 0.203 7.86 26.15 7.93
5/12/2023 12:30:00 PM 16.06 60.908 0.203 7.86 26.03 7.89
5/12/2023 12:45:00 PM 16.06 60.908 0.202 7.87 27.04 8.02
5/12/2023 1:00:00 PM 16.25 61.25 0.202 7.96 28.57 8.58
5/12/2023 1:15:00 PM 16.53 61.754 0.2 7.95 30.6 8.89
5/12/2023 1:30:00 PM 16.7 62.06 0.2 8.02 29.27 9.08
5/12/2023 1:45:00 PM 16.91 62.438 0.202 8.09 31.05 9.38
5/12/2023 2:00:00 PM 16.92 62.456 0.202 8.09 28.1 9.23
5/12/2023 2:15:00 PM 17 62.6 0.203 8.11 28.46 9.31
5/12/2023 2:30:00 PM 17.06 62.708 0.203 8.11 27.42 9.27
5/12/2023 2:45:00 PM 17.13 62.834 0.204 8.12 28.06 9.3
5/12/2023 3:00:00 PM 17.24 63.032 0.204 8.13 30.89 9.44
5/12/2023 3:15:00 PM 17.23 63.014 0.203 8.06 27.38 9.14
5/12/2023 3:30:00 PM 17.23 63.014 0.203 8.01 27.16 8.92
5/12/2023 3:45:00 PM 17.25 63.05 0.203 7.97 26.59 8.83
5/12/2023 4:00:00 PM 17.27 63.086 0.204 7.97 26.5 8.66
5/12/2023 4:15:00 PM 17.27 63.086 0.205 7.96 26.23 8.58
5/12/2023 4:30:00 PM 17.27 63.086 0.205 7.97 26.37 8.78
5/12/2023 4:45:00 PM 17.26 63.068 0.205 8 26.48 8.81
5/12/2023 5:00:00 PM 17.26 63.068 0.205 8 26.33 8.88
5/12/2023 5:15:00 PM 17.25 63.05 0.205 7.99 26.1 8.81
5/12/2023 5:30:00 PM 17.24 63.032 0.205 7.97 26.09 8.72
5/12/2023 5:45:00 PM 17.23 63.014 0.205 7.96 26.02 8.68
5/12/2023 6:00:00 PM 17.22 62.996 0.205 7.97 25.87 8.64
5/12/2023 6:15:00 PM 17.22 62.996 0.205 7.96 25.76 8.57
5/12/2023 6:30:00 PM 17.21 62.978 0.205 7.96 26 8.54
5/12/2023 6:45:00 PM 17.2 62.96 0.205 7.92 26.21 8.43
5/12/2023 7:00:00 PM 17.19 62.942 0.205 7.95 25.78 8.51
5/12/2023 7:15:00 PM 17.19 62.942 0.205 7.95 26.54 8.51
5/12/2023 7:30:00 PM 17.18 62.924 0.205 7.95 25.84 8.46
5/12/2023 7:45:00 PM 17.17 62.906 0.205 7.95 25.39 8.46
5/12/2023 8:00:00 PM 17.16 62.888 0.205 7.94 25.79 8.41
5/12/2023 8:15:00 PM 17.15 62.87 0.205 7.93 25.42 8.39
5/12/2023 8:30:00 PM 17.15 62.87 0.205 7.92 25.94 8.31
5/12/2023 8:45:00 PM 17.14 62.852 0.206 7.9 25.31 8.22
5/12/2023 9:00:00 PM 17.14 62.852 0.206 7.9 25.59 8.19
5/12/2023 9:15:00 PM 17.13 62.834 0.206 7.91 25.47 8.15
5/12/2023 9:30:00 PM 17.12 62.816 0.206 7.9 25.73 8.08
5/12/2023 9:45:00 PM 17.12 62.816 0.206 7.9 26.35 8.03
5/12/2023 10:00:00 PM 17.11 62.798 0.206 7.89 25.44 8.02
5/12/2023 10:15:00 PM 17.11 62.798 0.206 7.89 25.26 8.03
5/12/2023 10:30:00 PM 17.1 62.78 0.206 7.89 25.27 8
5/12/2023 10:45:00 PM 17.09 62.762 0.206 7.88 25.59 7.98
5/12/2023 11:00:00 PM 17.09 62.762 0.206 7.87 28.6 7.83
5/12/2023 11:15:00 PM 17.08 62.744 0.206 7.87 26.84 7.83
5/12/2023 11:30:00 PM 17.08 62.744 0.206 7.87 26.62 7.81
5/12/2023 11:45:00 PM 17.07 62.726 0.206 7.86 26.23 7.79
5/13/2023 12:00:00 AM 17.07 62.726 0.206 7.86 25.83 7.76
5/13/2023 12:15:00 AM 17.06 62.708 0.206 7.85 26.02 7.8
5/13/2023 12:30:00 AM 17.05 62.69 0.206 7.85 25.92 7.73
5/13/2023 12:45:00 AM 17.05 62.69 0.206 7.85 25.75 7.69
5/13/2023 1:00:00 AM 17.04 62.672 0.206 7.86 25.78 7.87
5/13/2023 1:15:00 AM 17.03 62.654 0.206 7.86 25.61 7.76
5/13/2023 1:30:00 AM 17.03 62.654 0.206 7.85 25.57 7.68
5/13/2023 1:45:00 AM 17.03 62.654 0.206 7.85 25.64 7.62
5/13/2023 2:00:00 AM 17.02 62.636 0.206 7.84 25.64 7.7
5/13/2023 2:15:00 AM 17.02 62.636 0.206 7.83 25.47 7.48
5/13/2023 2:30:00 AM 17.01 62.618 0.206 7.79 25.53 7.41
5/13/2023 2:45:00 AM 17.01 62.618 0.207 7.79 25.36 7.44
5/13/2023 3:00:00 AM 17 62.6 0.206 7.8 25.36 7.43
5/13/2023 3:15:00 AM 17 62.6 0.206 7.81 25.31 7.38
5/13/2023 3:30:00 AM 16.99 62.582 0.206 7.81 25.29 7.34
5/13/2023 3:45:00 AM 16.99 62.582 0.206 7.78 25.18 7.35
5/13/2023 4:00:00 AM 16.98 62.564 0.206 7.81 25.13 7.31
5/13/2023 4:15:00 AM 16.98 62.564 0.206 7.8 25.13 7.34
5/13/2023 4:30:00 AM 16.97 62.546 0.207 7.79 24.97 7.19
5/13/2023 4:45:00 AM 16.97 62.546 0.207 7.8 24.68 7.26
5/13/2023 5:00:00 AM 16.96 62.528 0.207 7.8 24.73 7.25
5/13/2023 5:15:00 AM 16.96 62.528 0.207 7.79 24.65 7.22
5/13/2023 5:30:00 AM 16.95 62.51 0.207 7.79 24.56 7.21
5/13/2023 5:45:00 AM 16.95 62.51 0.206 7.81 24.54 7.34
5/13/2023 6:00:00 AM 16.94 62.492 0.206 7.8 24.54 7.31
5/13/2023 6:15:00 AM 16.95 62.51 0.204 7.86 25.46 7.76
5/13/2023 6:30:00 AM 16.86 62.348 0.206 7.91 27.16 8.27
5/13/2023 6:45:00 AM 17.18 62.924 0.208 8 25.99 8.66
5/13/2023 7:00:00 AM 17.36 63.248 0.209 8.04 26.82 8.82
5/13/2023 7:15:00 AM 17.4 63.32 0.209 8.06 25.94 8.82
5/13/2023 7:30:00 AM 17.43 63.374 0.21 8.07 26.49 8.83
5/13/2023 7:45:00 AM 17.44 63.392 0.21 8.09 27.7 8.91
5/13/2023 8:00:00 AM 17.43 63.374 0.21 8.06 26.93 8.88
5/13/2023 8:15:00 AM 17.42 63.356 0.211 8.08 27.27 8.92
5/13/2023 8:30:00 AM 17.41 63.338 0.211 8.11 28.62 8.96
5/13/2023 8:45:00 AM 17.4 63.32 0.211 8.09 26.9 8.93
5/13/2023 9:00:00 AM 17.4 63.32 0.211 8.04 26.48 8.81
5/13/2023 9:15:00 AM 17.37 63.266 0.212 8.11 29.1 9.04
5/13/2023 9:30:00 AM 17.36 63.248 0.212 8.12 29.87 9.05
5/13/2023 9:45:00 AM 17.36 63.248 0.212 8.12 28.05 9.09
5/13/2023 10:00:00 AM 17.36 63.248 0.212 8.13 29.19 9.12
5/13/2023 10:15:00 AM 17.36 63.248 0.212 8.14 30.42 9.15
5/13/2023 10:30:00 AM 17.36 63.248 0.213 8.14 29.75 9.13
5/13/2023 10:45:00 AM 17.37 63.266 0.213 8.14 29.61 9.19
5/13/2023 11:00:00 AM 17.37 63.266 0.213 8.15 28.86 9.22
5/13/2023 11:15:00 AM 17.38 63.284 0.213 8.16 29.28 9.24
5/13/2023 11:30:00 AM 17.4 63.32 0.213 8.17 29.61 9.27
5/13/2023 11:45:00 AM 17.41 63.338 0.213 8.18 29.47 9.35
5/13/2023 12:00:00 PM 17.43 63.374 0.213 8.19 28.89 9.37
5/13/2023 12:15:00 PM 17.45 63.41 0.213 8.19 26.58 9.32
5/13/2023 12:30:00 PM 17.45 63.41 0.214 8.16 25.37 9.16
5/13/2023 12:45:00 PM 17.43 63.374 0.212 8.03 25.63 8.75
5/13/2023 1:00:00 PM 17.47 63.446 0.214 8.21 29.49 9.44
5/13/2023 1:15:00 PM 17.53 63.554 0.214 8.26 29.9 9.57
5/13/2023 1:30:00 PM 17.56 63.608 0.214 8.29 29.35 9.65
5/13/2023 1:45:00 PM 17.57 63.626 0.214 8.29 27.51 9.65
5/13/2023 2:00:00 PM 17.57 63.626 0.214 8.23 27.01 9.44
5/13/2023 2:15:00 PM 17.57 63.626 0.215 8.17 26.32 9.18
5/13/2023 2:30:00 PM 17.57 63.626 0.215 8.12 26.28 8.97
5/13/2023 2:45:00 PM 17.57 63.626 0.215 8.11 26.31 8.9
5/13/2023 3:00:00 PM 17.56 63.608 0.215 8.09 25.98 8.8
5/13/2023 3:15:00 PM 17.56 63.608 0.215 8.07 25.97 8.8
5/13/2023 3:30:00 PM 17.55 63.59 0.216 8.07 26 8.78
5/13/2023 3:45:00 PM 17.54 63.572 0.216 8.06 25.7 8.68
5/13/2023 4:00:00 PM 17.54 63.572 0.216 8.06 25.73 8.72
5/13/2023 4:15:00 PM 17.53 63.554 0.216 8.04 25.34 8.63
5/13/2023 4:30:00 PM 17.53 63.554 0.216 8.04 25.21 8.64
5/13/2023 4:45:00 PM 17.52 63.536 0.216 8.03 25.77 8.59
5/13/2023 5:00:00 PM 17.51 63.518 0.216 8.02 25.8 8.47
5/13/2023 5:15:00 PM 17.51 63.518 0.216 8 25.79 8.38
5/13/2023 5:30:00 PM 17.5 63.5 0.216 8.01 25.48 8.38
5/13/2023 5:45:00 PM 17.5 63.5 0.216 8 25.09 8.34
5/13/2023 6:00:00 PM 17.49 63.482 0.216 7.98 24.77 8.35
5/13/2023 6:15:00 PM 17.49 63.482 0.216 8 24.82 8.3
5/13/2023 6:30:00 PM 17.48 63.464 0.216 7.99 24.91 8.31
5/13/2023 6:45:00 PM 17.48 63.464 0.216 7.98 25.14 8.2
5/13/2023 7:00:00 PM 17.47 63.446 0.216 7.97 24.93 8.21
5/13/2023 7:15:00 PM 17.46 63.428 0.216 7.98 24.77 8.21
5/13/2023 7:30:00 PM 17.46 63.428 0.216 7.97 25.18 8.15
5/13/2023 7:45:00 PM 17.45 63.41 0.216 7.96 24.77 8.11
5/13/2023 8:00:00 PM 17.45 63.41 0.216 7.97 24.81 8.13
5/13/2023 8:15:00 PM 17.44 63.392 0.216 7.95 24.68 8.06
5/13/2023 8:30:00 PM 17.44 63.392 0.216 7.96 24.59 8.09
5/13/2023 8:45:00 PM 17.43 63.374 0.216 7.95 24.35 8
5/13/2023 9:00:00 PM 17.43 63.374 0.216 7.94 24.53 7.98
5/13/2023 9:15:00 PM 17.42 63.356 0.216 7.93 24.54 7.94
5/13/2023 9:30:00 PM 17.42 63.356 0.216 7.93 24.56 7.92
5/13/2023 9:45:00 PM 17.41 63.338 0.216 7.92 24.98 7.92
5/13/2023 10:00:00 PM 17.41 63.338 0.216 7.92 24.45 7.86
5/13/2023 10:15:00 PM 17.4 63.32 0.216 7.92 24.36 7.96
5/13/2023 10:30:00 PM 17.4 63.32 0.216 7.91 24.2 7.82
5/13/2023 10:45:00 PM 17.39 63.302 0.217 7.9 24.52 7.87
5/13/2023 11:00:00 PM 17.38 63.284 0.216 7.9 24.43 7.73
5/13/2023 11:15:00 PM 17.38 63.284 0.217 7.9 24.05 7.7
5/13/2023 11:30:00 PM 17.38 63.284 0.217 7.89 24.08 7.67
5/13/2023 11:45:00 PM 17.37 63.266 0.217 7.88 24.02 7.66
5/14/2023 12:00:00 AM 17.37 63.266 0.217 7.88 23.93 7.53
5/14/2023 12:15:00 AM 17.36 63.248 0.217 7.87 24 7.49
5/14/2023 12:30:00 AM 17.36 63.248 0.217 7.87 23.85 7.52
5/14/2023 12:45:00 AM 17.35 63.23 0.217 7.86 23.92 7.47
5/14/2023 1:00:00 AM 17.35 63.23 0.217 7.86 24.06 7.51
5/14/2023 1:15:00 AM 17.34 63.212 0.217 7.84 24.1 7.27
5/14/2023 1:30:00 AM 17.34 63.212 0.217 7.83 23.94 7.15
5/14/2023 1:45:00 AM 17.33 63.194 0.217 7.83 23.67 7.03
5/14/2023 2:00:00 AM 17.33 63.194 0.217 7.82 23.82 6.97
5/14/2023 2:15:00 AM 17.32 63.176 0.217 7.79 23.64 7.03
5/14/2023 2:30:00 AM 17.32 63.176 0.218 7.81 23.68 6.92
5/14/2023 2:45:00 AM 17.31 63.158 0.218 7.8 23.62 6.84
5/14/2023 3:00:00 AM 17.31 63.158 0.218 7.8 23.38 6.8
5/14/2023 3:15:00 AM 17.31 63.158 0.218 7.79 23.44 6.84
5/14/2023 3:30:00 AM 17.3 63.14 0.217 7.79 23.47 6.82
5/14/2023 3:45:00 AM 17.3 63.14 0.217 7.8 23.54 6.96
5/14/2023 4:00:00 AM 17.29 63.122 0.217 7.79 23.5 6.85
5/14/2023 4:15:00 AM 17.29 63.122 0.217 7.8 23.22 6.89
5/14/2023 4:30:00 AM 17.28 63.104 0.217 7.79 23.31 6.88
5/14/2023 4:45:00 AM 17.28 63.104 0.217 7.76 23.15 6.96
5/14/2023 5:00:00 AM 17.27 63.086 0.217 7.79 23.38 6.77
5/14/2023 5:15:00 AM 17.27 63.086 0.217 7.78 22.96 6.78
5/14/2023 5:30:00 AM 17.26 63.068 0.218 7.78 23.21 6.62
5/14/2023 5:45:00 AM 17.26 63.068 0.218 7.77 22.91 6.64
5/14/2023 6:00:00 AM 17.26 63.068 0.218 7.77 22.71 6.57
5/14/2023 6:15:00 AM 17.25 63.05 0.217 7.84 24.04 7.08
5/14/2023 6:30:00 AM 17.04 62.672 0.217 7.91 24.86 7.94
5/14/2023 6:45:00 AM 17.13 62.834 0.219 8.02 25.04 8.57
5/14/2023 7:00:00 AM 17.18 62.924 0.22 8.09 24.79 8.87
5/14/2023 7:15:00 AM 17.22 62.996 0.221 8.25 26.33 9.25
5/14/2023 7:30:00 AM 17.21 62.978 0.221 8.27 26.79 9.32
5/14/2023 7:45:00 AM 17.2 62.96 0.221 8.3 27.08 9.35
5/14/2023 8:00:00 AM 17.19 62.942 0.221 8.32 25.24 9.39
5/14/2023 8:15:00 AM 17.19 62.942 0.222 8.29 24.33 9.33
5/14/2023 8:30:00 AM 17.19 62.942 0.222 8.26 24.75 9.23
5/14/2023 8:45:00 AM 17.19 62.942 0.222 8.25 23.6 9.17
5/14/2023 9:00:00 AM 17.19 62.942 0.223 8.23 23.97 9.1
5/14/2023 9:15:00 AM 17.2 62.96 0.223 8.24 23.42 9.08
5/14/2023 9:30:00 AM 17.21 62.978 0.223 8.23 23.57 9.07
5/14/2023 9:45:00 AM 17.23 63.014 0.223 8.32 24.07 9.41
5/14/2023 10:00:00 AM 17.25 63.05 0.223 8.33 23.46 9.49
5/14/2023 10:15:00 AM 17.26 63.068 0.223 8.27 23.32 9.27
5/14/2023 10:30:00 AM 17.3 63.14 0.223 8.39 23.58 9.6
5/14/2023 10:45:00 AM 17.34 63.212 0.223 8.42 24.79 9.83
5/14/2023 11:00:00 AM 17.39 63.302 0.223 8.48 24.34 9.94
5/14/2023 11:15:00 AM 17.46 63.428 0.223 8.59 25.76 10.12
5/14/2023 11:30:00 AM 17.51 63.518 0.223 8.61 24.72 10.22
5/14/2023 11:45:00 AM 17.55 63.59 0.223 8.63 24.94 10.26
5/14/2023 12:00:00 PM 17.6 63.68 0.223 8.66 26.72 10.32
5/14/2023 12:15:00 PM 17.64 63.752 0.223 8.67 26.88 10.37
5/14/2023 12:30:00 PM 17.69 63.842 0.224 8.68 26.53 10.45
5/14/2023 12:45:00 PM 17.74 63.932 0.223 8.65 26.53 10.34
5/14/2023 1:00:00 PM 17.8 64.04 0.223 8.66 25.45 10.36
5/14/2023 1:15:00 PM 17.87 64.166 0.223 8.7 25.89 10.47
5/14/2023 1:30:00 PM 17.95 64.31 0.224 8.79 26.46 10.7
5/14/2023 1:45:00 PM 17.9 64.22 0.223 8.51 24.32 10.07
5/14/2023 2:00:00 PM 17.9 64.22 0.223 8.37 24.12 9.6
5/14/2023 2:15:00 PM 17.91 64.238 0.223 8.35 24.21 9.47
5/14/2023 2:30:00 PM 17.92 64.256 0.223 8.31 23.6 9.45
5/14/2023 2:45:00 PM 17.94 64.292 0.224 8.3 23.19 9.26
5/14/2023 3:00:00 PM 17.95 64.31 0.225 8.31 23.17 9.32
5/14/2023 3:15:00 PM 17.95 64.31 0.225 8.33 23.46 9.27
5/14/2023 3:30:00 PM 17.94 64.292 0.226 8.32 23.37 9.27
5/14/2023 3:45:00 PM 17.94 64.292 0.226 8.36 23.32 9.44
5/14/2023 4:00:00 PM 17.93 64.274 0.226 8.32 23.18 9.37
5/14/2023 4:15:00 PM 17.92 64.256 0.226 8.38 23.07 9.57
5/14/2023 4:30:00 PM 17.92 64.256 0.225 8.33 23.53 9.5
5/14/2023 4:45:00 PM 17.91 64.238 0.225 8.35 23.3 9.46
5/14/2023 5:00:00 PM 17.91 64.238 0.225 8.33 22.89 9.52
5/14/2023 5:15:00 PM 17.9 64.22 0.226 8.32 23.14 9.44
5/14/2023 5:30:00 PM 17.89 64.202 0.226 8.31 22.87 9.38
5/14/2023 5:45:00 PM 17.88 64.184 0.226 8.32 22.77 9.35
5/14/2023 6:00:00 PM 17.88 64.184 0.226 8.31 23.01 9.26
5/14/2023 6:15:00 PM 17.87 64.166 0.226 8.29 22.67 9.24
5/14/2023 6:30:00 PM 17.86 64.148 0.226 8.26 22.79 9.2
5/14/2023 6:45:00 PM 17.86 64.148 0.226 8.28 22.65 9.17
5/14/2023 7:00:00 PM 17.85 64.13 0.226 8.26 22.63 9.14
5/14/2023 7:15:00 PM 17.84 64.112 0.226 8.26 22.48 9.06
5/14/2023 7:30:00 PM 17.84 64.112 0.226 8.26 22.48 9.04
5/14/2023 7:45:00 PM 17.83 64.094 0.226 8.23 22.49 9.01
5/14/2023 8:00:00 PM 17.82 64.076 0.226 8.23 22.34 9.04
5/14/2023 8:15:00 PM 17.82 64.076 0.226 8.22 22.61 8.91
5/14/2023 8:30:00 PM 17.81 64.058 0.226 8.21 22.34 8.89
5/14/2023 8:45:00 PM 17.8 64.04 0.226 8.21 22.1 8.96
5/14/2023 9:00:00 PM 17.8 64.04 0.226 8.18 22.27 8.85
5/14/2023 9:15:00 PM 17.79 64.022 0.226 8.18 22.23 8.75
5/14/2023 9:30:00 PM 17.79 64.022 0.227 8.16 23.27 8.63
5/14/2023 9:45:00 PM 17.78 64.004 0.227 8.16 22.92 8.6
5/14/2023 10:00:00 PM 17.78 64.004 0.227 8.16 22.45 8.69
5/14/2023 10:15:00 PM 17.77 63.986 0.227 8.14 22.4 8.59
5/14/2023 10:30:00 PM 17.76 63.968 0.227 8.16 22.52 8.64
5/14/2023 10:45:00 PM 17.76 63.968 0.227 8.14 22.49 8.54
5/14/2023 11:00:00 PM 17.75 63.95 0.227 8.14 22.74 8.56
5/14/2023 11:15:00 PM 17.75 63.95 0.227 8.13 22.22 8.48
5/14/2023 11:30:00 PM 17.74 63.932 0.227 8.12 22.15 8.45
5/14/2023 11:45:00 PM 17.73 63.914 0.227 8.12 22.61 8.43
5/15/2023 12:00:00 AM 17.73 63.914 0.227 8.11 22.12 8.41
5/15/2023 12:15:00 AM 17.72 63.896 0.227 8.1 22.2 8.35
5/15/2023 12:30:00 AM 17.72 63.896 0.227 8.1 22.03 8.38
5/15/2023 12:45:00 AM 17.71 63.878 0.227 8.09 22.31 8.3
5/15/2023 1:00:00 AM 17.71 63.878 0.227 8.07 22.22 8.15
5/15/2023 1:15:00 AM 17.7 63.86 0.227 8.06 22.04 8.1
5/15/2023 1:30:00 AM 17.69 63.842 0.227 8.06 22.17 8
5/15/2023 1:45:00 AM 17.69 63.842 0.227 8.05 23.42 8.08
5/15/2023 2:00:00 AM 17.68 63.824 0.227 8.05 22.26 8.01
5/15/2023 2:15:00 AM 17.68 63.824 0.227 8.05 22.08 8.07
5/15/2023 2:30:00 AM 17.67 63.806 0.227 8.06 22.11 8.07
5/15/2023 2:45:00 AM 17.67 63.806 0.227 8.06 22.08 8.08
5/15/2023 3:00:00 AM 17.66 63.788 0.227 8.04 22.19 8.08
5/15/2023 3:15:00 AM 17.66 63.788 0.227 8.01 22.35 8.01
5/15/2023 3:30:00 AM 17.65 63.77 0.227 8.02 22.08 7.87
5/15/2023 3:45:00 AM 17.65 63.77 0.227 8.01 22.07 7.71
5/15/2023 4:00:00 AM 17.64 63.752 0.227 7.99 22.19 7.69
5/15/2023 4:15:00 AM 17.64 63.752 0.227 7.99 21.96 7.64
5/15/2023 4:30:00 AM 17.63 63.734 0.227 7.98 21.93 7.61
5/15/2023 4:45:00 AM 17.63 63.734 0.228 7.98 22.29 7.53
5/15/2023 5:00:00 AM 17.62 63.716 0.228 7.97 21.97 7.53
5/15/2023 5:15:00 AM 17.62 63.716 0.228 7.97 22.33 7.5
5/15/2023 5:30:00 AM 17.61 63.698 0.227 7.97 21.69 7.48
5/15/2023 5:45:00 AM 17.61 63.698 0.228 7.97 21.64 7.47
5/15/2023 6:00:00 AM 17.6 63.68 0.227 7.98 21.7 7.71
5/15/2023 6:15:00 AM 17.6 63.68 0.228 7.97 21.86 7.59
5/15/2023 6:30:00 AM 17.59 63.662 0.228 7.96 21.73 7.46
5/15/2023 6:45:00 AM 17.59 63.662 0.228 7.96 22.01 7.4
5/15/2023 7:00:00 AM 17.58 63.644 0.228 7.95 21.56 7.37
5/15/2023 7:15:00 AM 17.59 63.662 0.227 7.95 21.66 7.36
5/15/2023 7:30:00 AM 17.5 63.5 0.227 7.99 23.25 7.83
5/15/2023 7:45:00 AM 17.32 63.176 0.229 8.29 25.52 8.93
5/15/2023 8:00:00 AM 17.32 63.176 0.23 8.39 24.74 9.2
5/15/2023 8:15:00 AM 17.32 63.176 0.23 8.55 24.61 9.4
5/15/2023 8:30:00 AM 17.32 63.176 0.231 8.57 24.49 9.53
5/15/2023 8:45:00 AM 17.32 63.176 0.231 8.6 24.83 9.58
5/15/2023 9:00:00 AM 17.32 63.176 0.231 8.65 24.72 9.69
5/15/2023 9:15:00 AM 17.33 63.194 0.232 8.72 24.47 9.78
5/15/2023 9:30:00 AM 17.33 63.194 0.232 8.72 24.52 9.82
5/15/2023 9:45:00 AM 17.35 63.23 0.232 8.75 23.72 9.89
5/15/2023 10:00:00 AM 17.37 63.266 0.232 8.77 24.64 10
5/15/2023 10:15:00 AM 17.39 63.302 0.232 8.76 23.97 10.01
5/15/2023 10:30:00 AM 17.41 63.338 0.232 8.75 24.19 10.06
5/15/2023 10:45:00 AM 17.44 63.392 0.232 8.69 23.95 9.86
5/15/2023 11:00:00 AM 17.48 63.464 0.232 8.79 24.59 10.08
5/15/2023 11:15:00 AM 17.52 63.536 0.232 8.73 24.01 9.88
5/15/2023 11:30:00 AM 17.55 63.59 0.231 8.64 23.69 9.65
5/15/2023 11:45:00 AM 17.59 63.662 0.231 8.61 24.16 9.51
5/15/2023 12:00:00 PM 17.64 63.752 0.231 8.64 24.69 9.65
5/15/2023 12:15:00 PM 17.68 63.824 0.23 8.53 23.7 9.4
5/15/2023 12:30:00 PM 17.76 63.968 0.231 8.68 26.32 9.9
5/15/2023 12:45:00 PM 17.87 64.166 0.232 8.79 24.94 10.4
5/15/2023 1:00:00 PM 17.9 64.22 0.232 8.81 24.27 10.24
5/15/2023 1:15:00 PM 17.92 64.256 0.231 8.58 24.53 9.86
5/15/2023 1:30:00 PM 18.02 64.436 0.232 8.85 25.48 10.51
5/15/2023 1:45:00 PM 18.07 64.526 0.232 8.87 25.6 10.53
5/15/2023 2:00:00 PM 18.11 64.598 0.232 8.8 24.83 10.31
5/15/2023 2:15:00 PM 18.17 64.706 0.232 8.88 25.08 10.46
5/15/2023 2:30:00 PM 18.23 64.814 0.232 8.87 25.97 10.42
5/15/2023 2:45:00 PM 18.28 64.904 0.232 8.9 27.1 10.58
5/15/2023 3:00:00 PM 18.37 65.066 0.233 8.95 24.97 10.74
5/15/2023 3:15:00 PM 18.45 65.21 0.233 9.01 24.81 10.91
5/15/2023 3:30:00 PM 18.46 65.228 0.233 8.93 24.17 10.65
5/15/2023 3:45:00 PM 18.48 65.264 0.234 8.86 24.12 10.39
5/15/2023 4:00:00 PM 18.49 65.282 0.234 8.82 23.62 10.22
5/15/2023 4:15:00 PM 18.5 65.3 0.235 8.77 23.56 10
5/15/2023 4:30:00 PM 18.51 65.318 0.235 8.72 22.71 9.79
5/15/2023 4:45:00 PM 18.51 65.318 0.236 8.71 22.98 9.74
5/15/2023 5:00:00 PM 18.51 65.318 0.236 8.78 22.41 9.99
5/15/2023 5:15:00 PM 18.5 65.3 0.236 8.84 22.64 10.25
5/15/2023 5:30:00 PM 18.5 65.3 0.236 8.84 22.83 10.35
5/15/2023 5:45:00 PM 18.49 65.282 0.236 8.85 22.62 10.24
5/15/2023 6:00:00 PM 18.48 65.264 0.236 8.82 22.82 10.17
5/15/2023 6:15:00 PM 18.47 65.246 0.236 8.83 22.46 10.28
5/15/2023 6:30:00 PM 18.46 65.228 0.236 8.81 22.55 10.24
5/15/2023 6:45:00 PM 18.46 65.228 0.236 8.8 22.44 10.07
5/15/2023 7:00:00 PM 18.45 65.21 0.236 8.78 22.4 10.01
5/15/2023 7:15:00 PM 18.44 65.192 0.237 8.77 22.4 10
5/15/2023 7:30:00 PM 18.43 65.174 0.236 8.78 22.24 9.94
5/15/2023 7:45:00 PM 18.43 65.174 0.236 8.75 22.3 9.89
5/15/2023 8:00:00 PM 18.42 65.156 0.236 8.74 22.34 9.8
5/15/2023 8:15:00 PM 18.41 65.138 0.237 8.71 22.18 9.77
5/15/2023 8:30:00 PM 18.4 65.12 0.237 8.72 22.24 9.82
5/15/2023 8:45:00 PM 18.4 65.12 0.237 8.71 22.77 9.77
5/15/2023 9:00:00 PM 18.39 65.102 0.237 8.69 22.19 9.7
5/15/2023 9:15:00 PM 18.38 65.084 0.237 8.67 22.14 9.62
5/15/2023 9:30:00 PM 18.38 65.084 0.237 8.67 22.07 9.65
5/15/2023 9:45:00 PM 18.37 65.066 0.237 8.67 22.03 9.56
5/15/2023 10:00:00 PM 18.36 65.048 0.237 8.65 21.98 9.58
5/15/2023 10:15:00 PM 18.36 65.048 0.237 8.65 22.03 9.5
5/15/2023 10:30:00 PM 18.35 65.03 0.237 8.64 22.2 9.56
5/15/2023 10:45:00 PM 18.34 65.012 0.237 8.63 21.97 9.53
5/15/2023 11:00:00 PM 18.34 65.012 0.237 8.63 22.13 9.51
5/15/2023 11:15:00 PM 18.33 64.994 0.237 8.6 22.12 9.36
5/15/2023 11:30:00 PM 18.32 64.976 0.238 8.57 21.82 9.25
5/15/2023 11:45:00 PM 18.32 64.976 0.238 8.55 21.97 9.16
5/16/2023 12:00:00 AM 18.31 64.958 0.238 8.54 21.84 9.13
5/16/2023 12:15:00 AM 18.3 64.94 0.238 8.53 22.01 9.12
5/16/2023 12:30:00 AM 18.3 64.94 0.238 8.53 22.16 9.09
5/16/2023 12:45:00 AM 18.29 64.922 0.238 8.53 21.87 9.06
5/16/2023 1:00:00 AM 18.29 64.922 0.238 8.5 21.49 9.04
5/16/2023 1:15:00 AM 18.28 64.904 0.238 8.51 21.71 9.06
5/16/2023 1:30:00 AM 18.27 64.886 0.238 8.49 21.53 9.12
5/16/2023 1:45:00 AM 18.27 64.886 0.238 8.46 21.96 9.02
5/16/2023 2:00:00 AM 18.26 64.868 0.238 8.45 21.28 8.86
5/16/2023 2:15:00 AM 18.26 64.868 0.238 8.45 21.37 8.79
5/16/2023 2:30:00 AM 18.25 64.85 0.238 8.42 21.36 8.8
5/16/2023 2:45:00 AM 18.24 64.832 0.238 8.41 21.18 8.7
5/16/2023 3:00:00 AM 18.24 64.832 0.238 8.4 21.3 8.6
5/16/2023 3:15:00 AM 18.23 64.814 0.238 8.39 21.02 8.65
5/16/2023 3:30:00 AM 18.23 64.814 0.238 8.36 21.22 8.52
5/16/2023 3:45:00 AM 18.22 64.796 0.238 8.36 21.19 8.49
5/16/2023 4:00:00 AM 18.21 64.778 0.239 8.33 21.09 8.42
5/16/2023 4:15:00 AM 18.21 64.778 0.239 8.33 21.23 8.42
5/16/2023 4:30:00 AM 18.2 64.76 0.239 8.32 21.12 8.35
5/16/2023 4:45:00 AM 18.2 64.76 0.239 8.31 21.26 8.23
5/16/2023 5:00:00 AM 18.19 64.742 0.239 8.29 21.22 8.23
5/16/2023 5:15:00 AM 18.19 64.742 0.239 8.27 20.94 8.16
5/16/2023 5:30:00 AM 18.18 64.724 0.239 8.27 20.98 8.08
5/16/2023 5:45:00 AM 18.17 64.706 0.239 8.25 21.01 8.06
5/16/2023 6:00:00 AM 18.17 64.706 0.239 8.24 20.91 8.01
5/16/2023 6:15:00 AM 18.16 64.688 0.239 8.24 20.82 8
5/16/2023 6:30:00 AM 18.16 64.688 0.239 8.23 20.76 7.91
5/16/2023 6:45:00 AM 18.15 64.67 0.239 8.2 20.87 7.82
5/16/2023 7:00:00 AM 18.15 64.67 0.239 8.2 20.86 7.83
5/16/2023 7:15:00 AM 18.15 64.67 0.238 8.25 25.37 8.14
5/16/2023 7:30:00 AM 17.97 64.346 0.239 8.32 22.27 8.57
5/16/2023 7:45:00 AM 17.76 63.968 0.24 8.46 21.78 8.87
5/16/2023 8:00:00 AM 17.68 63.824 0.24 8.69 22.66 9.29
5/16/2023 8:15:00 AM 17.64 63.752 0.241 8.69 22.43 9.27
5/16/2023 8:30:00 AM 17.6 63.68 0.241 8.83 23.49 9.61
5/16/2023 8:45:00 AM 17.6 63.68 0.241 8.76 22.75 9.43
5/16/2023 9:00:00 AM 17.58 63.644 0.241 8.82 24.01 9.52
5/16/2023 9:15:00 AM 17.58 63.644 0.241 8.86 22.89 9.65
5/16/2023 9:30:00 AM 17.6 63.68 0.241 8.91 22.87 9.74
5/16/2023 9:45:00 AM 17.61 63.698 0.241 8.92 23.15 9.84
5/16/2023 10:00:00 AM 17.63 63.734 0.242 8.94 22.74 9.92
5/16/2023 10:15:00 AM 17.66 63.788 0.242 8.96 22.72 9.94
5/16/2023 10:30:00 AM 17.7 63.86 0.242 8.93 23.99 9.9
5/16/2023 10:45:00 AM 17.74 63.932 0.242 8.96 22.78 10
5/16/2023 11:00:00 AM 17.78 64.004 0.242 8.97 22.63 9.96
5/16/2023 11:15:00 AM 17.84 64.112 0.242 8.99 22.5 10.03
5/16/2023 11:30:00 AM 17.89 64.202 0.242 8.96 22.4 10.04
5/16/2023 11:45:00 AM 17.94 64.292 0.242 8.93 22.47 9.93
5/16/2023 12:00:00 PM 18 64.4 0.243 8.97 22.62 10.03
5/16/2023 12:15:00 PM 18.06 64.508 0.243 9 23.15 10.08
5/16/2023 12:30:00 PM 18.11 64.598 0.243 8.97 23.13 10.09
5/16/2023 12:45:00 PM 18.17 64.706 0.243 8.99 23.13 10.18
5/16/2023 1:00:00 PM 18.22 64.796 0.243 8.93 25.26 10.03
5/16/2023 1:15:00 PM 18.26 64.868 0.243 8.94 25.92 10.08
5/16/2023 1:30:00 PM 18.22 64.796 0.243 8.87 26.53 9.95
5/16/2023 1:45:00 PM 18.24 64.832 0.244 8.84 25.39 9.93
5/16/2023 2:00:00 PM 18.32 64.976 0.244 8.95 24.25 10.08
5/16/2023 2:15:00 PM 18.41 65.138 0.244 9.01 22.73 10.38
5/16/2023 2:30:00 PM 18.5 65.3 0.244 9.05 22.13 10.48
5/16/2023 2:45:00 PM 18.54 65.372 0.244 9.08 21.78 10.61
5/16/2023 3:00:00 PM 18.59 65.462 0.244 9.09 21.67 10.61
5/16/2023 3:15:00 PM 18.65 65.57 0.244 9.08 22.63 10.71
5/16/2023 3:30:00 PM 18.64 65.552 0.244 8.95 22.1 10.21
5/16/2023 3:45:00 PM 18.65 65.57 0.245 8.88 22.03 9.93
5/16/2023 4:00:00 PM 18.66 65.588 0.246 8.82 20.97 9.68
5/16/2023 4:15:00 PM 18.66 65.588 0.246 8.82 21.01 9.61
5/16/2023 4:30:00 PM 18.66 65.588 0.246 8.81 20.66 9.66
5/16/2023 4:45:00 PM 18.66 65.588 0.246 8.83 20.65 9.64
5/16/2023 5:00:00 PM 18.65 65.57 0.246 8.81 20.35 9.58
5/16/2023 5:15:00 PM 18.64 65.552 0.246 8.79 20.48 9.51
5/16/2023 5:30:00 PM 18.64 65.552 0.246 8.78 20.45 9.52
5/16/2023 5:45:00 PM 18.63 65.534 0.246 8.78 20.68 9.56
5/16/2023 6:00:00 PM 18.62 65.516 0.246 8.78 20.8 9.48
5/16/2023 6:15:00 PM 18.62 65.516 0.246 8.75 20.54 9.4
5/16/2023 6:30:00 PM 18.61 65.498 0.246 8.74 20.78 9.38
5/16/2023 6:45:00 PM 18.61 65.498 0.246 8.72 20.4 9.3
5/16/2023 7:00:00 PM 18.6 65.48 0.247 8.72 20.71 9.3
5/16/2023 7:15:00 PM 18.59 65.462 0.247 8.69 20.87 9.24
5/16/2023 7:30:00 PM 18.59 65.462 0.247 8.69 20.61 9.22
5/16/2023 7:45:00 PM 18.58 65.444 0.247 8.69 20.81 9.25
5/16/2023 8:00:00 PM 18.57 65.426 0.247 8.69 20.55 9.19
5/16/2023 8:15:00 PM 18.56 65.408 0.247 8.69 20.93 9.17
5/16/2023 8:30:00 PM 18.56 65.408 0.247 8.64 20.33 9.06
5/16/2023 8:45:00 PM 18.55 65.39 0.247 8.63 20.3 8.96
5/16/2023 9:00:00 PM 18.54 65.372 0.247 8.61 20.39 8.92
5/16/2023 9:15:00 PM 18.54 65.372 0.247 8.61 20.5 8.88
5/16/2023 9:30:00 PM 18.53 65.354 0.247 8.59 20.3 8.84
5/16/2023 9:45:00 PM 18.53 65.354 0.247 8.57 20.95 8.73
5/16/2023 10:00:00 PM 18.52 65.336 0.247 8.56 20.34 8.71
5/16/2023 10:15:00 PM 18.52 65.336 0.247 8.54 20.43 8.66
5/16/2023 10:30:00 PM 18.51 65.318 0.247 8.53 20.29 8.63
5/16/2023 10:45:00 PM 18.5 65.3 0.247 8.52 20.25 8.6
5/16/2023 11:00:00 PM 18.5 65.3 0.247 8.48 20.17 8.55
5/16/2023 11:15:00 PM 18.49 65.282 0.248 8.5 20.19 8.51
5/16/2023 11:30:00 PM 18.49 65.282 0.248 8.51 20.18 8.59
5/16/2023 11:45:00 PM 18.48 65.264 0.247 8.49 20.16 8.56
5/17/2023 12:00:00 AM 18.48 65.264 0.248 8.48 20.35 8.56
5/17/2023 12:15:00 AM 18.47 65.246 0.248 8.47 20.14 8.47
5/17/2023 12:30:00 AM 18.46 65.228 0.248 8.45 19.95 8.47
5/17/2023 12:45:00 AM 18.46 65.228 0.248 8.46 20.17 8.44
5/17/2023 1:00:00 AM 18.45 65.21 0.248 8.44 20.14 8.38
5/17/2023 1:15:00 AM 18.45 65.21 0.248 8.43 20.01 8.3
5/17/2023 1:30:00 AM 18.44 65.192 0.248 8.42 19.72 8.21
5/17/2023 1:45:00 AM 18.44 65.192 0.248 8.39 19.87 8.17
5/17/2023 2:00:00 AM 18.43 65.174 0.248 8.38 19.83 8.13
5/17/2023 2:15:00 AM 18.43 65.174 0.248 8.38 19.72 8.07
5/17/2023 2:30:00 AM 18.42 65.156 0.248 8.35 19.74 7.96
5/17/2023 2:45:00 AM 18.41 65.138 0.248 8.34 19.68 7.96
5/17/2023 3:00:00 AM 18.41 65.138 0.248 8.33 19.59 7.87
5/17/2023 3:15:00 AM 18.4 65.12 0.248 8.31 19.53 7.77
5/17/2023 3:30:00 AM 18.4 65.12 0.249 8.28 19.43 7.68
5/17/2023 3:45:00 AM 18.39 65.102 0.249 8.25 19.49 7.62
5/17/2023 4:00:00 AM 18.39 65.102 0.249 8.27 19.45 7.65
5/17/2023 4:15:00 AM 18.38 65.084 0.249 8.26 19.4 7.56
5/17/2023 4:30:00 AM 18.38 65.084 0.249 8.23 19.38 7.34
5/17/2023 4:45:00 AM 18.37 65.066 0.249 8.22 19.15 7.29
5/17/2023 5:00:00 AM 18.37 65.066 0.249 8.2 19.14 7.18
5/17/2023 5:15:00 AM 18.36 65.048 0.249 8.18 19.27 7.04
5/17/2023 5:30:00 AM 18.36 65.048 0.25 8.18 19.19 7.07
5/17/2023 5:45:00 AM 18.35 65.03 0.249 8.17 19.44 7.03
5/17/2023 6:00:00 AM 18.35 65.03 0.249 8.15 19.62 7.02
5/17/2023 6:15:00 AM 18.34 65.012 0.249 8.16 19.66 7.01
5/17/2023 6:30:00 AM 18.34 65.012 0.249 8.15 19.59 6.98
5/17/2023 6:45:00 AM 18.33 64.994 0.249 8.15 19.29 6.98
5/17/2023 7:00:00 AM 18.34 65.012 0.249 8.2 19.76 7.12
5/17/2023 7:15:00 AM 18.2 64.76 0.249 8.26 21.16 7.93
5/17/2023 7:30:00 AM 17.91 64.238 0.249 8.45 22.02 8.35
5/17/2023 7:45:00 AM 17.73 63.914 0.25 8.63 23.05 8.67
5/17/2023 8:00:00 AM 17.62 63.716 0.25 8.71 22.12 8.77
5/17/2023 8:15:00 AM 17.56 63.608 0.25 8.73 22.03 8.82
5/17/2023 8:30:00 AM 17.53 63.554 0.25 8.77 22.03 8.92
5/17/2023 8:45:00 AM 17.5 63.5 0.25 8.85 22.76 9.11
5/17/2023 9:00:00 AM 17.5 63.5 0.25 8.91 22.22 9.27
5/17/2023 9:15:00 AM 17.5 63.5 0.25 8.89 22.52 9.24
5/17/2023 9:30:00 AM 17.5 63.5 0.25 8.9 25.81 9.25
5/17/2023 9:45:00 AM 17.48 63.464 0.251 8.92 22.42 9.36
5/17/2023 10:00:00 AM 17.48 63.464 0.251 8.93 22.31 9.38
5/17/2023 10:15:00 AM 17.48 63.464 0.251 8.95 22.69 9.36
5/17/2023 10:30:00 AM 17.49 63.482 0.251 8.94 21.73 9.37
5/17/2023 10:45:00 AM 17.52 63.536 0.251 8.95 21.63 9.46
5/17/2023 11:00:00 AM 17.56 63.608 0.251 9 22.38 9.53
5/17/2023 11:15:00 AM 17.6 63.68 0.252 8.98 21.71 9.54
5/17/2023 11:30:00 AM 17.63 63.734 0.252 8.95 21.54 9.37
5/17/2023 11:45:00 AM 17.68 63.824 0.252 8.96 21.5 9.44
5/17/2023 12:00:00 PM 17.73 63.914 0.252 8.94 21.8 9.38
5/17/2023 12:15:00 PM 17.76 63.968 0.252 8.97 21.95 9.31
5/17/2023 12:30:00 PM 17.81 64.058 0.252 8.93 22.79 9.33
5/17/2023 12:45:00 PM 17.86 64.148 0.252 8.94 21.44 9.32
5/17/2023 1:00:00 PM 17.91 64.238 0.252 8.91 21.32 9.26
5/17/2023 1:15:00 PM 17.97 64.346 0.253 8.93 22.35 9.27
5/17/2023 1:30:00 PM 18.04 64.472 0.253 8.93 22.27 9.35
5/17/2023 1:45:00 PM 18.11 64.598 0.253 8.92 21.54 9.37
5/17/2023 2:00:00 PM 18.17 64.706 0.253 8.94 21.82 9.41
5/17/2023 2:15:00 PM 18.23 64.814 0.253 8.91 22.37 9.43
5/17/2023 2:30:00 PM 18.28 64.904 0.253 8.88 21.62 9.35
5/17/2023 2:45:00 PM 18.3 64.94 0.254 8.85 21.53 9.15
5/17/2023 3:00:00 PM 18.34 65.012 0.254 8.87 21.63 9.18
5/17/2023 3:15:00 PM 18.37 65.066 0.254 8.86 21.34 9.35
5/17/2023 3:30:00 PM 18.38 65.084 0.254 8.81 21.63 9.09
5/17/2023 3:45:00 PM 18.4 65.12 0.254 8.72 21.43 8.74
5/17/2023 4:00:00 PM 18.41 65.138 0.255 8.65 20.74 8.49
5/17/2023 4:15:00 PM 18.41 65.138 0.256 8.62 20.48 8.34
5/17/2023 4:30:00 PM 18.42 65.156 0.256 8.62 20.32 8.29
5/17/2023 4:45:00 PM 18.42 65.156 0.257 8.57 20.54 8.13
5/17/2023 5:00:00 PM 18.42 65.156 0.257 8.59 20.2 8.27
5/17/2023 5:15:00 PM 18.42 65.156 0.256 8.64 20.75 8.55
5/17/2023 5:30:00 PM 18.41 65.138 0.256 8.65 20.36 8.66
5/17/2023 5:45:00 PM 18.41 65.138 0.256 8.67 20.4 8.68
5/17/2023 6:00:00 PM 18.4 65.12 0.256 8.68 20.7 8.77
5/17/2023 6:15:00 PM 18.39 65.102 0.256 8.7 20.79 8.81
5/17/2023 6:30:00 PM 18.39 65.102 0.256 8.67 20.59 8.76
5/17/2023 6:45:00 PM 18.38 65.084 0.256 8.72 20.73 8.77
5/17/2023 7:00:00 PM 18.38 65.084 0.256 8.69 20.71 8.75
5/17/2023 7:15:00 PM 18.37 65.066 0.256 8.7 20.66 8.77
5/17/2023 7:30:00 PM 18.36 65.048 0.256 8.66 20.63 8.64
5/17/2023 7:45:00 PM 18.36 65.048 0.256 8.65 20.66 8.6
5/17/2023 8:00:00 PM 18.35 65.03 0.256 8.63 20.52 8.55
5/17/2023 8:15:00 PM 18.34 65.012 0.256 8.61 20.31 8.45
5/17/2023 8:30:00 PM 18.34 65.012 0.256 8.59 20.25 8.36
5/17/2023 8:45:00 PM 18.33 64.994 0.257 8.57 20.17 8.32
5/17/2023 9:00:00 PM 18.33 64.994 0.257 8.57 20.51 8.27
5/17/2023 9:15:00 PM 18.32 64.976 0.257 8.54 20.08 8.14
5/17/2023 9:30:00 PM 18.32 64.976 0.257 8.53 20.53 8.13
5/17/2023 9:45:00 PM 18.31 64.958 0.257 8.51 19.97 8.04
5/17/2023 10:00:00 PM 18.31 64.958 0.257 8.48 20.32 7.91
5/17/2023 10:15:00 PM 18.3 64.94 0.257 8.52 20.4 8.09
5/17/2023 10:30:00 PM 18.29 64.922 0.257 8.52 20.26 8.07
5/17/2023 10:45:00 PM 18.29 64.922 0.257 8.51 20.21 8.06
5/17/2023 11:00:00 PM 18.28 64.904 0.257 8.5 20.07 7.96
5/17/2023 11:15:00 PM 18.28 64.904 0.257 8.48 20.81 7.99
5/17/2023 11:30:00 PM 18.27 64.886 0.257 8.48 19.95 7.92
5/17/2023 11:45:00 PM 18.27 64.886 0.257 8.47 20.26 7.88
5/18/2023 12:00:00 AM 18.26 64.868 0.257 8.45 20.38 7.84
5/18/2023 12:15:00 AM 18.26 64.868 0.257 8.43 20.64 7.71
5/18/2023 12:30:00 AM 18.25 64.85 0.257 8.4 20.67 7.71
5/18/2023 12:45:00 AM 18.24 64.832 0.258 8.4 20.58 7.61
5/18/2023 1:00:00 AM 18.24 64.832 0.257 8.41 20.46 7.69
5/18/2023 1:15:00 AM 18.23 64.814 0.257 8.4 20.4 7.66
5/18/2023 1:30:00 AM 18.23 64.814 0.257 8.39 20.52 7.54
5/18/2023 1:45:00 AM 18.22 64.796 0.258 8.38 20.43 7.59
5/18/2023 2:00:00 AM 18.22 64.796 0.258 8.37 20.32 7.49
5/18/2023 2:15:00 AM 18.21 64.778 0.258 8.37 20.15 7.5
5/18/2023 2:30:00 AM 18.21 64.778 0.258 8.34 20.23 7.42
5/18/2023 2:45:00 AM 18.2 64.76 0.258 8.35 20.18 7.4
5/18/2023 3:00:00 AM 18.2 64.76 0.258 8.34 20.25 7.43
5/18/2023 3:15:00 AM 18.19 64.742 0.258 8.3 20.22 7.32
5/18/2023 3:30:00 AM 18.18 64.724 0.258 8.32 20.32 7.32
5/18/2023 3:45:00 AM 18.18 64.724 0.258 8.31 20.22 7.31
5/18/2023 4:00:00 AM 18.17 64.706 0.258 8.3 20.15 7.31
5/18/2023 4:15:00 AM 18.17 64.706 0.258 8.29 20.18 7.24
5/18/2023 4:30:00 AM 18.16 64.688 0.258 8.29 20.29 7.21
5/18/2023 4:45:00 AM 18.16 64.688 0.258 8.28 19.99 7.17
5/18/2023 5:00:00 AM 18.15 64.67 0.258 8.28 20.17 7.16
5/18/2023 5:15:00 AM 18.14 64.652 0.258 8.27 21.27 7.05
5/18/2023 5:30:00 AM 18.14 64.652 0.258 8.25 20.19 7
5/18/2023 5:45:00 AM 18.13 64.634 0.258 8.25 20.2 6.98
5/18/2023 6:00:00 AM 18.13 64.634 0.258 8.23 20.14 6.92
5/18/2023 6:15:00 AM 18.12 64.616 0.258 8.22 20.25 6.85
5/18/2023 6:30:00 AM 18.11 64.598 0.258 8.21 20.29 6.75
5/18/2023 6:45:00 AM 18.11 64.598 0.258 8.2 20.29 6.71
5/18/2023 7:00:00 AM 18.11 64.598 0.259 8.16 20.24 6.57
5/18/2023 7:15:00 AM 18.05 64.49 0.257 8.26 21.01 7.11
5/18/2023 7:30:00 AM 17.6 63.68 0.259 8.39 21.63 7.84
5/18/2023 7:45:00 AM 17.17 62.906 0.259 8.64 22.06 8.5
5/18/2023 8:00:00 AM 16.95 62.51 0.259 8.66 23.7 8.67
5/18/2023 8:15:00 AM 16.8 62.24 0.259 8.77 22.24 8.87
5/18/2023 8:30:00 AM 16.73 62.114 0.259 8.8 22.9 9.02
5/18/2023 8:45:00 AM 16.69 62.042 0.259 8.82 22.05 8.99
5/18/2023 9:00:00 AM 16.66 61.988 0.259 8.87 22.61 9.16
5/18/2023 9:15:00 AM 16.65 61.97 0.259 8.88 21.29 9.13
5/18/2023 9:30:00 AM 16.65 61.97 0.259 8.88 21.33 9.13
5/18/2023 9:45:00 AM 16.65 61.97 0.26 8.9 21.33 9.16
5/18/2023 10:00:00 AM 16.66 61.988 0.259 8.98 22.1 9.44
5/18/2023 10:15:00 AM 16.69 62.042 0.259 9.03 22.03 9.73
5/18/2023 10:30:00 AM 16.72 62.096 0.259 9.05 21.26 9.76
5/18/2023 10:45:00 AM 16.76 62.168 0.259 9.05 21.62 9.77
5/18/2023 11:00:00 AM 16.8 62.24 0.259 9.06 21.32 9.79
5/18/2023 11:15:00 AM 16.84 62.312 0.259 9.03 21.65 9.88
5/18/2023 11:30:00 AM 16.85 62.33 0.259 8.89 22.28 8.96
5/18/2023 11:45:00 AM 16.9 62.42 0.26 9 22.3 9.55
5/18/2023 12:00:00 PM 16.94 62.492 0.26 9.03 21.62 9.6
5/18/2023 12:15:00 PM 16.99 62.582 0.26 9.01 21.6 9.67
5/18/2023 12:30:00 PM 17.05 62.69 0.26 9.08 21.64 9.82
5/18/2023 12:45:00 PM 17.1 62.78 0.261 9.05 21.53 9.84
5/18/2023 1:00:00 PM 17.15 62.87 0.261 9.06 21.44 9.94
5/18/2023 1:15:00 PM 17.2 62.96 0.261 9.06 21.24 9.8
5/18/2023 1:30:00 PM 17.25 63.05 0.261 9.07 21.24 9.87
5/18/2023 1:45:00 PM 17.3 63.14 0.261 9.06 21.75 9.85
5/18/2023 2:00:00 PM 17.37 63.266 0.261 9.09 21.41 9.87
5/18/2023 2:15:00 PM 17.42 63.356 0.262 9.04 21.85 9.83
5/18/2023 2:30:00 PM 17.49 63.482 0.262 9.07 21.26 9.92
5/18/2023 2:45:00 PM 17.56 63.608 0.262 9.06 21.64 9.94
5/18/2023 3:00:00 PM 17.63 63.734 0.262 9.03 21.37 9.88
5/18/2023 3:15:00 PM 17.69 63.842 0.262 9.01 21.81 9.83
5/18/2023 3:30:00 PM 17.72 63.896 0.263 8.92 21.26 9.55
5/18/2023 3:45:00 PM 17.73 63.914 0.263 8.84 20.96 9.27
5/18/2023 4:00:00 PM 17.74 63.932 0.263 8.8 20.94 9
5/18/2023 4:15:00 PM 17.75 63.95 0.264 8.76 20.95 8.79
5/18/2023 4:30:00 PM 17.76 63.968 0.264 8.7 20.59 8.64
5/18/2023 4:45:00 PM 17.77 63.986 0.265 8.62 20.54 8.32
5/18/2023 5:00:00 PM 17.77 63.986 0.265 8.62 20.15 8.17
5/18/2023 5:15:00 PM 17.77 63.986 0.266 8.59 20.23 8.08
5/18/2023 5:30:00 PM 17.77 63.986 0.266 8.61 20.5 8.17
5/18/2023 5:45:00 PM 17.77 63.986 0.265 8.6 20.43 8.25
5/18/2023 6:00:00 PM 17.77 63.986 0.265 8.61 20.57 8.38
5/18/2023 6:15:00 PM 17.76 63.968 0.265 8.64 20.47 8.5
5/18/2023 6:30:00 PM 17.76 63.968 0.265 8.65 20.51 8.62
5/18/2023 6:45:00 PM 17.75 63.95 0.265 8.65 20.55 8.58
5/18/2023 7:00:00 PM 17.75 63.95 0.265 8.66 21.25 8.62

These are provisional data and have not been subject to a quality assurance process, but rather are the raw data reported by the instrument.
H: value is above sensor operating range
L: value is below sensor operating range
Offline: station is not reporting data
NC: parameter is not collected at site

Data Availability & Limitations

Uncertainty and potential for error can be associated with environmental monitoring data. Provisional data have not been subject to a quality assurance process, but rather are the raw data reported by the instrument. Data users are cautioned to consider carefully the provisional nature of the information before using it for decisions that concern personal or public safety or the conduct of business that involves substantial monetary or operational consequences.

Approved data are currently available by request by emailing: [email protected]. Approved data have been subject to a quality assurance process to correct for equipment or fouling drift. Data recorded during equipment malfunctions have been removed.

View Historical Stations that have been discontinued.